Cuevas-Agulló, Emilio (2009): Radiosonde measurements from station Izaña (2009-06) [dataset]. Izaña Atmospheric Research Center, Meteorological State Agency of Spain, PANGAEA, https://doi.org/10.1594/PANGAEA.723763
Always quote citation above when using data! You can download the citation in several formats below.
Published: 2009-07-03 • DOI registered: 2009-07-31
Other version:
Cuevas-Agulló, Emilio (2014): BSRN Station-to-archive file for station Izaña (2009-06) [dataset]. ftp://ftp.bsrn.awi.de/iza/iza0609.dat.gz
Project(s):
Coverage:
Latitude: 28.309350 * Longitude: -16.499260
Date/Time Start: 2009-06-01T00:00:00 * Date/Time End: 2009-06-30T12:00:00
Minimum ALTITUDE: 105 m * Maximum ALTITUDE: 32084 m
Event(s):
IZA (Izaña) * Latitude: 28.309350 * Longitude: -16.499260 * Date/Time: 2009-03-01T00:00:00 * Elevation: 2372.9 m * Location: Tenerife, Spain * Method/Device: Monitoring station (MONS) * Comment: BSRN station no: 61; Surface type: rock; Topography type: mountain top, rural; Station scientist: Carlos J. Torres (ctorresg@aemet.es)
Comment:
Start location: Guimar; Distance from radiation site: 5 km
Parameter(s):
| # | Name | Short Name | Unit | Principal Investigator | Method/Device | Comment |
|---|---|---|---|---|---|---|
| 1 | DATE/TIME | Date/Time | Geocode | |||
| 2 | ALTITUDE | Altitude | m | Geocode | ||
| 3 | Pressure, at given altitude | PPPP | hPa | Cuevas-Agulló, Emilio | Radiosonde, Vaisala, RS92 | |
| 4 | Temperature, air | TTT | °C | Cuevas-Agulló, Emilio | Radiosonde, Vaisala, RS92 | |
| 5 | Dew/frost point | TdTdTd | °C | Cuevas-Agulló, Emilio | Radiosonde, Vaisala, RS92 | |
| 6 | Wind direction | dd | deg | Cuevas-Agulló, Emilio | Radiosonde, Vaisala, RS92 | |
| 7 | Wind speed | ff | m/s | Cuevas-Agulló, Emilio | Radiosonde, Vaisala, RS92 |
License:
Size:
761245 data points
Data
| 1 Date/Time | 2 Altitude [m] | 3 PPPP [hPa] | 4 TTT [°C] | 5 TdTdTd [°C] | 6 dd [deg] | 7 ff [m/s] |
|---|---|---|---|---|---|---|
| 2009-06-01T00:00 | 105 | 1005 | 21.7 | 15.2 | 174 | 4 |
| 2009-06-01T00:00 | 112 | 1004 | 19.8 | 11.0 | 155 | 3 |
| 2009-06-01T00:00 | 122 | 1003 | 19.4 | 12.1 | 152 | 3 |
| 2009-06-01T00:00 | 132 | 1002 | 19.1 | 12.8 | 152 | 3 |
| 2009-06-01T00:00 | 143 | 1000 | 19.0 | 13.4 | 151 | 3 |
| 2009-06-01T00:00 | 152 | 999 | 19.0 | 13.8 | 150 | 4 |
| 2009-06-01T00:00 | 161 | 998 | 19.0 | 14.0 | 149 | 4 |
| 2009-06-01T00:00 | 171 | 997 | 18.9 | 14.2 | 148 | 4 |
| 2009-06-01T00:00 | 182 | 996 | 18.8 | 14.2 | 148 | 4 |
| 2009-06-01T00:00 | 192 | 995 | 18.7 | 14.2 | 148 | 4 |
| 2009-06-01T00:00 | 203 | 993 | 18.5 | 14.2 | 148 | 4 |
| 2009-06-01T00:00 | 214 | 992 | 18.5 | 14.2 | 148 | 4 |
| 2009-06-01T00:00 | 225 | 991 | 18.4 | 14.2 | 149 | 4 |
| 2009-06-01T00:00 | 235 | 990 | 18.3 | 14.3 | 150 | 4 |
| 2009-06-01T00:00 | 242 | 989 | 18.2 | 14.3 | 152 | 4 |
| 2009-06-01T00:00 | 249 | 988 | 18.1 | 14.2 | 154 | 4 |
| 2009-06-01T00:00 | 258 | 987 | 18.1 | 14.1 | 156 | 4 |
| 2009-06-01T00:00 | 269 | 986 | 18.0 | 14.0 | 159 | 4 |
| 2009-06-01T00:00 | 281 | 984 | 17.9 | 14.1 | 162 | 4 |
| 2009-06-01T00:00 | 293 | 983 | 17.8 | 14.1 | 165 | 4 |
| 2009-06-01T00:00 | 303 | 982 | 17.7 | 14.1 | 168 | 4 |
| 2009-06-01T00:00 | 314 | 981 | 17.6 | 14.2 | 171 | 3 |
| 2009-06-01T00:00 | 325 | 979 | 17.7 | 14.2 | 173 | 3 |
| 2009-06-01T00:00 | 337 | 978 | 17.7 | 14.1 | 176 | 3 |
| 2009-06-01T00:00 | 348 | 977 | 17.5 | 14.0 | 180 | 3 |
| 2009-06-01T00:00 | 358 | 976 | 17.4 | 14.0 | 183 | 3 |
| 2009-06-01T00:00 | 368 | 974 | 17.3 | 13.9 | 187 | 2 |
| 2009-06-01T00:00 | 378 | 973 | 17.2 | 13.7 | 192 | 2 |
| 2009-06-01T00:00 | 390 | 972 | 17.1 | 13.7 | 198 | 2 |
| 2009-06-01T00:00 | 403 | 970 | 17.0 | 13.7 | 206 | 2 |
| 2009-06-01T00:00 | 415 | 969 | 16.9 | 13.7 | 216 | 1 |
| 2009-06-01T00:00 | 424 | 968 | 16.8 | 13.7 | 226 | 1 |
| 2009-06-01T00:00 | 434 | 967 | 16.7 | 13.6 | 237 | 1 |
| 2009-06-01T00:00 | 444 | 966 | 16.6 | 13.6 | 246 | 1 |
| 2009-06-01T00:00 | 455 | 965 | 16.6 | 13.6 | 253 | 1 |
| 2009-06-01T00:00 | 465 | 963 | 16.5 | 13.6 | 258 | 1 |
| 2009-06-01T00:00 | 475 | 962 | 16.4 | 13.5 | 261 | 1 |
| 2009-06-01T00:00 | 486 | 961 | 16.4 | 13.5 | 264 | 1 |
| 2009-06-01T00:00 | 497 | 960 | 16.3 | 13.5 | 266 | 2 |
| 2009-06-01T00:00 | 508 | 959 | 16.3 | 13.5 | 267 | 2 |
| 2009-06-01T00:00 | 521 | 957 | 16.1 | 13.5 | 268 | 2 |
| 2009-06-01T00:00 | 536 | 955 | 16.0 | 13.5 | 270 | 2 |
| 2009-06-01T00:00 | 549 | 954 | 16.0 | 13.4 | 272 | 2 |
| 2009-06-01T00:00 | 563 | 952 | 15.8 | 13.3 | 274 | 2 |
| 2009-06-01T00:00 | 576 | 951 | 15.6 | 13.2 | 277 | 2 |
| 2009-06-01T00:00 | 586 | 950 | 15.5 | 13.2 | 281 | 2 |
| 2009-06-01T00:00 | 598 | 949 | 15.4 | 13.2 | 285 | 2 |
| 2009-06-01T00:00 | 612 | 947 | 15.3 | 13.2 | 289 | 2 |
| 2009-06-01T00:00 | 624 | 946 | 15.2 | 13.2 | 293 | 2 |
| 2009-06-01T00:00 | 636 | 944 | 15.2 | 13.2 | 297 | 3 |
| 2009-06-01T00:00 | 648 | 943 | 15.1 | 13.1 | 300 | 3 |
| 2009-06-01T00:00 | 659 | 942 | 15.1 | 13.1 | 303 | 3 |
| 2009-06-01T00:00 | 670 | 941 | 15.0 | 13.1 | 305 | 3 |
| 2009-06-01T00:00 | 680 | 939 | 14.9 | 13.1 | 307 | 3 |
| 2009-06-01T00:00 | 690 | 938 | 14.8 | 13.0 | 308 | 4 |
| 2009-06-01T00:00 | 701 | 937 | 14.7 | 13.0 | 308 | 4 |
| 2009-06-01T00:00 | 710 | 936 | 14.5 | 13.0 | 309 | 4 |
| 2009-06-01T00:00 | 720 | 935 | 14.5 | 13.0 | 308 | 4 |
| 2009-06-01T00:00 | 728 | 934 | 14.5 | 13.0 | 307 | 4 |
| 2009-06-01T00:00 | 736 | 933 | 14.6 | 13.0 | 306 | 4 |
| 2009-06-01T00:00 | 748 | 932 | 14.6 | 13.0 | 304 | 4 |
| 2009-06-01T00:00 | 760 | 931 | 14.5 | 13.0 | 301 | 4 |
| 2009-06-01T00:00 | 772 | 929 | 14.5 | 12.8 | 298 | 4 |
| 2009-06-01T00:00 | 784 | 928 | 14.4 | 12.6 | 294 | 4 |
| 2009-06-01T00:00 | 794 | 927 | 14.4 | 12.5 | 289 | 4 |
| 2009-06-01T00:00 | 805 | 926 | 14.3 | 12.5 | 284 | 4 |
| 2009-06-01T00:00 | 817 | 924 | 14.3 | 12.5 | 279 | 4 |
| 2009-06-01T00:00 | 829 | 923 | 14.2 | 12.4 | 275 | 5 |
| 2009-06-01T00:00 | 840 | 922 | 14.1 | 12.3 | 271 | 5 |
| 2009-06-01T00:00 | 851 | 921 | 14.1 | 12.3 | 267 | 5 |
| 2009-06-01T00:00 | 860 | 920 | 14.0 | 12.3 | 264 | 5 |
| 2009-06-01T00:00 | 869 | 919 | 14.0 | 12.4 | 262 | 5 |
| 2009-06-01T00:00 | 876 | 918 | 14.0 | 12.5 | 260 | 6 |
| 2009-06-01T00:00 | 886 | 917 | 13.9 | 12.5 | 259 | 6 |
| 2009-06-01T00:00 | 897 | 916 | 13.8 | 12.4 | 258 | 6 |
| 2009-06-01T00:00 | 906 | 915 | 13.8 | 12.4 | 257 | 6 |
| 2009-06-01T00:00 | 915 | 914 | 13.7 | 12.4 | 257 | 6 |
| 2009-06-01T00:00 | 923 | 913 | 13.6 | 12.3 | 257 | 6 |
| 2009-06-01T00:00 | 931 | 912 | 13.6 | 12.4 | 256 | 5 |
| 2009-06-01T00:00 | 941 | 911 | 13.5 | 12.4 | 256 | 5 |
| 2009-06-01T00:00 | 952 | 910 | 13.5 | 12.5 | 256 | 4 |
| 2009-06-01T00:00 | 963 | 909 | 13.7 | 12.3 | 255 | 4 |
| 2009-06-01T00:00 | 972 | 907 | 14.2 | 11.4 | 255 | 3 |
| 2009-06-01T00:00 | 982 | 906 | 14.6 | 10.5 | 254 | 3 |
| 2009-06-01T00:00 | 992 | 905 | 14.7 | 9.7 | 254 | 2 |
| 2009-06-01T00:00 | 1002 | 904 | 14.8 | 8.9 | 253 | 2 |
| 2009-06-01T00:00 | 1011 | 903 | 14.9 | 8.4 | 253 | 1 |
| 2009-06-01T00:00 | 1020 | 902 | 14.9 | 7.9 | 253 | 1 |
| 2009-06-01T00:00 | 1029 | 901 | 14.9 | 7.4 | 253 | 1 |
| 2009-06-01T00:00 | 1038 | 900 | 14.9 | 6.7 | 0 | 0 |
| 2009-06-01T00:00 | 1047 | 900 | 15.0 | 6.1 | 0 | 0 |
| 2009-06-01T00:00 | 1054 | 899 | 15.0 | 5.8 | 0 | 0 |
| 2009-06-01T00:00 | 1060 | 898 | 15.0 | 5.6 | 0 | 0 |
| 2009-06-01T00:00 | 1068 | 897 | 15.0 | 5.2 | 0 | 0 |
| 2009-06-01T00:00 | 1076 | 896 | 15.0 | 4.7 | 0 | 0 |
| 2009-06-01T00:00 | 1084 | 896 | 14.9 | 4.7 | 0 | 0 |
| 2009-06-01T00:00 | 1091 | 895 | 14.9 | 4.9 | 0 | 0 |
| 2009-06-01T00:00 | 1099 | 894 | 14.9 | 5.0 | 0 | 0 |
| 2009-06-01T00:00 | 1106 | 893 | 14.8 | 5.1 | 0 | 0 |
| 2009-06-01T00:00 | 1114 | 892 | 14.8 | 5.1 | 0 | 0 |
| 2009-06-01T00:00 | 1123 | 891 | 14.7 | 5.0 | 0 | 0 |
| 2009-06-01T00:00 | 1134 | 890 | 14.7 | 4.8 | 0 | 0 |
| 2009-06-01T00:00 | 1144 | 889 | 14.7 | 4.3 | 0 | 0 |
| 2009-06-01T00:00 | 1154 | 888 | 14.9 | 3.1 | 0 | 0 |
| 2009-06-01T00:00 | 1162 | 887 | 15.1 | 1.1 | 0 | 0 |
| 2009-06-01T00:00 | 1170 | 887 | 15.5 | -1.8 | 0 | 0 |
| 2009-06-01T00:00 | 1177 | 886 | 15.8 | -3.9 | 171 | 1 |
| 2009-06-01T00:00 | 1184 | 885 | 15.8 | -2.4 | 179 | 1 |
| 2009-06-01T00:00 | 1191 | 884 | 15.7 | -0.5 | 186 | 1 |
| 2009-06-01T00:00 | 1198 | 884 | 15.6 | 0.0 | 191 | 1 |
| 2009-06-01T00:00 | 1207 | 883 | 15.6 | -0.1 | 196 | 1 |
| 2009-06-01T00:00 | 1216 | 882 | 15.5 | -0.3 | 200 | 1 |
| 2009-06-01T00:00 | 1223 | 881 | 15.5 | -0.4 | 203 | 1 |
| 2009-06-01T00:00 | 1229 | 880 | 15.4 | -0.4 | 206 | 1 |
| 2009-06-01T00:00 | 1237 | 880 | 15.4 | -0.3 | 209 | 1 |
| 2009-06-01T00:00 | 1246 | 879 | 15.3 | -0.5 | 212 | 2 |
| 2009-06-01T00:00 | 1256 | 878 | 15.4 | -2.0 | 215 | 2 |
| 2009-06-01T00:00 | 1265 | 877 | 15.4 | -3.3 | 219 | 2 |
| 2009-06-01T00:00 | 1272 | 876 | 15.3 | -3.5 | 224 | 2 |
| 2009-06-01T00:00 | 1280 | 875 | 15.3 | -3.2 | 229 | 2 |
| 2009-06-01T00:00 | 1287 | 874 | 15.3 | -2.4 | 234 | 2 |
| 2009-06-01T00:00 | 1294 | 874 | 15.3 | -2.2 | 238 | 2 |
| 2009-06-01T00:00 | 1302 | 873 | 15.3 | -2.7 | 242 | 2 |
| 2009-06-01T00:00 | 1310 | 872 | 15.3 | -3.4 | 245 | 2 |
| 2009-06-01T00:00 | 1318 | 871 | 15.2 | -4.0 | 248 | 2 |
| 2009-06-01T00:00 | 1327 | 870 | 15.2 | -4.8 | 249 | 3 |
| 2009-06-01T00:00 | 1334 | 869 | 15.2 | -5.4 | 250 | 3 |
| 2009-06-01T00:00 | 1342 | 869 | 15.1 | -5.8 | 251 | 3 |
| 2009-06-01T00:00 | 1349 | 868 | 15.1 | -6.1 | 250 | 3 |
| 2009-06-01T00:00 | 1359 | 867 | 15.1 | -6.6 | 249 | 3 |
| 2009-06-01T00:00 | 1369 | 866 | 15.2 | -7.2 | 248 | 3 |
| 2009-06-01T00:00 | 1377 | 865 | 15.3 | -7.6 | 247 | 4 |
| 2009-06-01T00:00 | 1384 | 864 | 15.2 | -6.1 | 245 | 4 |
| 2009-06-01T00:00 | 1393 | 863 | 15.2 | 0.2 | 243 | 4 |
| 2009-06-01T00:00 | 1403 | 862 | 15.5 | 3.3 | 242 | 4 |
| 2009-06-01T00:00 | 1413 | 861 | 15.8 | 2.6 | 240 | 4 |
| 2009-06-01T00:00 | 1423 | 860 | 16.1 | 1.9 | 239 | 4 |
| 2009-06-01T00:00 | 1432 | 860 | 16.2 | 1.2 | 237 | 5 |
| 2009-06-01T00:00 | 1443 | 858 | 16.2 | 0.7 | 237 | 5 |
| 2009-06-01T00:00 | 1454 | 857 | 16.2 | 0.1 | 236 | 5 |
| 2009-06-01T00:00 | 1465 | 856 | 16.2 | -0.4 | 235 | 5 |
| 2009-06-01T00:00 | 1476 | 855 | 16.2 | -0.9 | 235 | 5 |
| 2009-06-01T00:00 | 1487 | 854 | 16.2 | -1.5 | 235 | 6 |
| 2009-06-01T00:00 | 1496 | 853 | 16.4 | -2.6 | 234 | 6 |
| 2009-06-01T00:00 | 1506 | 852 | 16.5 | -4.4 | 233 | 6 |
| 2009-06-01T00:00 | 1517 | 851 | 16.5 | -5.6 | 232 | 7 |
| 2009-06-01T00:00 | 1528 | 850 | 16.5 | -6.4 | 231 | 7 |
| 2009-06-01T00:00 | 1538 | 849 | 16.5 | -7.3 | 230 | 7 |
| 2009-06-01T00:00 | 1548 | 848 | 16.4 | -7.6 | 229 | 7 |
| 2009-06-01T00:00 | 1559 | 847 | 16.3 | -7.7 | 227 | 8 |
| 2009-06-01T00:00 | 1571 | 846 | 16.2 | -8.1 | 226 | 8 |
| 2009-06-01T00:00 | 1581 | 845 | 16.2 | -8.5 | 225 | 8 |
| 2009-06-01T00:00 | 1588 | 844 | 16.1 | -8.9 | 224 | 8 |
| 2009-06-01T00:00 | 1598 | 843 | 16.3 | -11.2 | 223 | 8 |
| 2009-06-01T00:00 | 1609 | 842 | 16.6 | -16.7 | 223 | 9 |
| 2009-06-01T00:00 | 1619 | 841 | 16.6 | -18.8 | 223 | 9 |
| 2009-06-01T00:00 | 1628 | 840 | 16.5 | -19.1 | 223 | 9 |
| 2009-06-01T00:00 | 1636 | 839 | 16.5 | -19.3 | 224 | 9 |
| 2009-06-01T00:00 | 1645 | 838 | 16.5 | -19.4 | 224 | 9 |
| 2009-06-01T00:00 | 1655 | 837 | 16.5 | -19.5 | 225 | 9 |
| 2009-06-01T00:00 | 1665 | 836 | 16.4 | -19.6 | 226 | 9 |
| 2009-06-01T00:00 | 1676 | 835 | 16.4 | -19.7 | 226 | 8 |
| 2009-06-01T00:00 | 1688 | 834 | 16.3 | -19.8 | 227 | 8 |
| 2009-06-01T00:00 | 1700 | 833 | 16.2 | -19.9 | 227 | 8 |
| 2009-06-01T00:00 | 1711 | 832 | 16.1 | -20.0 | 228 | 8 |
| 2009-06-01T00:00 | 1722 | 831 | 16.1 | -19.9 | 227 | 8 |
| 2009-06-01T00:00 | 1733 | 830 | 16.1 | -19.7 | 227 | 8 |
| 2009-06-01T00:00 | 1741 | 829 | 16.2 | -19.7 | 226 | 8 |
| 2009-06-01T00:00 | 1749 | 828 | 16.2 | -20.1 | 225 | 8 |
| 2009-06-01T00:00 | 1757 | 827 | 16.2 | -20.4 | 224 | 7 |
| 2009-06-01T00:00 | 1766 | 826 | 16.2 | -20.9 | 223 | 7 |
| 2009-06-01T00:00 | 1775 | 826 | 16.1 | -21.5 | 222 | 7 |
| 2009-06-01T00:00 | 1782 | 825 | 16.1 | -21.9 | 221 | 7 |
| 2009-06-01T00:00 | 1789 | 824 | 16.1 | -22.2 | 220 | 7 |
| 2009-06-01T00:00 | 1797 | 823 | 16.0 | -22.5 | 219 | 7 |
| 2009-06-01T00:00 | 1805 | 823 | 16.0 | -22.7 | 219 | 7 |
| 2009-06-01T00:00 | 1815 | 822 | 15.9 | -22.9 | 219 | 7 |
| 2009-06-01T00:00 | 1826 | 821 | 15.9 | -22.9 | 219 | 8 |
| 2009-06-01T00:00 | 1836 | 819 | 15.8 | -22.9 | 219 | 8 |
| 2009-06-01T00:00 | 1846 | 819 | 15.8 | -22.9 | 220 | 8 |
| 2009-06-01T00:00 | 1857 | 818 | 15.7 | -22.8 | 220 | 8 |
| 2009-06-01T00:00 | 1867 | 817 | 15.7 | -22.8 | 221 | 8 |
| 2009-06-01T00:00 | 1878 | 816 | 15.6 | -23.0 | 222 | 8 |
| 2009-06-01T00:00 | 1888 | 815 | 15.6 | -23.1 | 222 | 8 |
| 2009-06-01T00:00 | 1897 | 814 | 15.5 | -23.3 | 223 | 9 |
| 2009-06-01T00:00 | 1906 | 813 | 15.4 | -23.5 | 223 | 9 |
| 2009-06-01T00:00 | 1914 | 812 | 15.4 | -23.6 | 223 | 9 |
| 2009-06-01T00:00 | 1921 | 811 | 15.4 | -23.6 | 224 | 8 |
| 2009-06-01T00:00 | 1930 | 810 | 15.3 | -23.7 | 224 | 8 |
| 2009-06-01T00:00 | 1942 | 809 | 15.2 | -23.9 | 224 | 8 |
| 2009-06-01T00:00 | 1952 | 808 | 15.2 | -24.0 | 224 | 8 |
| 2009-06-01T00:00 | 1962 | 807 | 15.1 | -24.2 | 224 | 8 |
| 2009-06-01T00:00 | 1970 | 807 | 15.1 | -24.4 | 224 | 7 |
| 2009-06-01T00:00 | 1978 | 806 | 15.0 | -24.5 | 224 | 7 |
| 2009-06-01T00:00 | 1988 | 805 | 14.9 | -24.8 | 224 | 7 |
| 2009-06-01T00:00 | 1996 | 804 | 14.9 | -25.3 | 224 | 7 |
| 2009-06-01T00:00 | 2004 | 803 | 14.8 | -25.7 | 224 | 6 |
| 2009-06-01T00:00 | 2013 | 803 | 14.8 | -26.3 | 224 | 6 |
| 2009-06-01T00:00 | 2021 | 802 | 14.8 | -26.8 | 224 | 6 |
| 2009-06-01T00:00 | 2028 | 801 | 14.7 | -26.9 | 224 | 5 |
| 2009-06-01T00:00 | 2036 | 800 | 14.6 | -27.0 | 224 | 5 |
| 2009-06-01T00:00 | 2043 | 800 | 14.6 | -27.0 | 225 | 5 |
| 2009-06-01T00:00 | 2051 | 799 | 14.5 | -27.0 | 225 | 4 |
| 2009-06-01T00:00 | 2060 | 798 | 14.4 | -27.0 | 225 | 4 |
| 2009-06-01T00:00 | 2071 | 797 | 14.4 | -27.1 | 225 | 4 |
| 2009-06-01T00:00 | 2082 | 796 | 14.3 | -27.3 | 226 | 4 |
| 2009-06-01T00:00 | 2093 | 795 | 14.4 | -26.7 | 226 | 3 |
| 2009-06-01T00:00 | 2103 | 794 | 14.4 | -25.3 | 227 | 3 |
| 2009-06-01T00:00 | 2113 | 793 | 14.4 | -25.0 | 229 | 3 |
| 2009-06-01T00:00 | 2123 | 792 | 14.5 | -23.0 | 231 | 3 |
| 2009-06-01T00:00 | 2135 | 791 | 14.5 | -21.4 | 233 | 2 |
| 2009-06-01T00:00 | 2147 | 790 | 14.4 | -21.2 | 236 | 2 |
| 2009-06-01T00:00 | 2157 | 789 | 14.3 | -21.3 | 239 | 2 |
| 2009-06-01T00:00 | 2167 | 788 | 14.2 | -21.4 | 243 | 2 |
| 2009-06-01T00:00 | 2179 | 787 | 14.1 | -21.8 | 247 | 2 |
| 2009-06-01T00:00 | 2190 | 786 | 14.0 | -22.3 | 252 | 2 |
| 2009-06-01T00:00 | 2200 | 785 | 13.9 | -22.5 | 256 | 2 |
| 2009-06-01T00:00 | 2211 | 784 | 13.8 | -22.3 | 260 | 2 |
| 2009-06-01T00:00 | 2222 | 783 | 13.6 | -22.5 | 264 | 2 |
| 2009-06-01T00:00 | 2234 | 782 | 13.5 | -23.0 | 269 | 2 |
| 2009-06-01T00:00 | 2247 | 781 | 13.4 | -23.6 | 275 | 1 |
| 2009-06-01T00:00 | 2258 | 780 | 13.3 | -23.2 | 281 | 1 |
| 2009-06-01T00:00 | 2268 | 779 | 13.2 | -21.9 | 290 | 1 |
| 2009-06-01T00:00 | 2276 | 778 | 13.1 | -21.1 | 302 | 1 |
| 2009-06-01T00:00 | 2285 | 777 | 13.1 | -19.7 | 322 | 1 |
| 2009-06-01T00:00 | 2294 | 776 | 13.1 | -15.6 | 350 | 1 |
| 2009-06-01T00:00 | 2301 | 776 | 13.2 | -13.5 | 18 | 1 |
| 2009-06-01T00:00 | 2310 | 775 | 13.4 | -14.4 | 38 | 1 |
| 2009-06-01T00:00 | 2317 | 774 | 13.4 | -17.0 | 50 | 1 |
| 2009-06-01T00:00 | 2324 | 773 | 13.4 | -18.3 | 57 | 1 |
| 2009-06-01T00:00 | 2334 | 772 | 13.3 | -19.5 | 61 | 1 |
| 2009-06-01T00:00 | 2344 | 772 | 13.3 | -20.8 | 65 | 1 |
| 2009-06-01T00:00 | 2353 | 771 | 13.2 | -21.5 | 67 | 1 |
| 2009-06-01T00:00 | 2361 | 770 | 13.2 | -21.7 | 69 | 1 |
| 2009-06-01T00:00 | 2367 | 769 | 13.1 | -21.7 | 69 | 1 |
| 2009-06-01T00:00 | 2374 | 769 | 13.0 | -21.9 | 70 | 1 |
| 2009-06-01T00:00 | 2383 | 768 | 12.9 | -22.0 | 71 | 1 |
| 2009-06-01T00:00 | 2391 | 767 | 12.8 | -22.0 | 72 | 1 |
| 2009-06-01T00:00 | 2399 | 767 | 12.8 | -22.0 | 73 | 1 |
| 2009-06-01T00:00 | 2407 | 766 | 12.7 | -22.1 | 74 | 1 |
| 2009-06-01T00:00 | 2416 | 765 | 12.6 | -22.4 | 75 | 1 |
| 2009-06-01T00:00 | 2424 | 764 | 12.6 | -22.6 | 75 | 1 |
| 2009-06-01T00:00 | 2432 | 763 | 12.5 | -22.7 | 76 | 1 |
| 2009-06-01T00:00 | 2440 | 763 | 12.4 | -22.7 | 77 | 1 |
| 2009-06-01T00:00 | 2448 | 762 | 12.3 | -22.7 | 77 | 1 |
| 2009-06-01T00:00 | 2456 | 761 | 12.3 | -22.7 | 77 | 1 |
| 2009-06-01T00:00 | 2466 | 760 | 12.2 | -22.7 | 77 | 1 |
| 2009-06-01T00:00 | 2476 | 760 | 12.2 | -22.6 | 76 | 1 |
| 2009-06-01T00:00 | 2484 | 759 | 12.2 | -22.3 | 74 | 1 |
| 2009-06-01T00:00 | 2493 | 758 | 12.1 | -22.2 | 73 | 1 |
| 2009-06-01T00:00 | 2501 | 757 | 12.0 | -22.2 | 70 | 1 |
| 2009-06-01T00:00 | 2509 | 757 | 12.0 | -22.2 | 68 | 1 |
| 2009-06-01T00:00 | 2516 | 756 | 12.0 | -22.2 | 64 | 1 |
| 2009-06-01T00:00 | 2525 | 755 | 12.0 | -22.2 | 60 | 1 |
| 2009-06-01T00:00 | 2533 | 754 | 11.9 | -22.2 | 55 | 1 |
| 2009-06-01T00:00 | 2541 | 754 | 11.8 | -22.2 | 50 | 1 |
| 2009-06-01T00:00 | 2549 | 753 | 11.7 | -22.2 | 43 | 1 |
| 2009-06-01T00:00 | 2557 | 752 | 11.7 | -22.2 | 35 | 1 |
| 2009-06-01T00:00 | 2566 | 751 | 11.6 | -22.3 | 25 | 1 |
| 2009-06-01T00:00 | 2576 | 750 | 11.5 | -22.3 | 16 | 1 |
| 2009-06-01T00:00 | 2585 | 750 | 11.5 | -22.3 | 7 | 1 |
| 2009-06-01T00:00 | 2592 | 749 | 11.4 | -22.3 | 359 | 1 |
| 2009-06-01T00:00 | 2600 | 748 | 11.4 | -22.4 | 352 | 1 |
| 2009-06-01T00:00 | 2607 | 748 | 11.3 | -22.5 | 345 | 1 |
| 2009-06-01T00:00 | 2614 | 747 | 11.4 | -22.3 | 341 | 1 |
| 2009-06-01T00:00 | 2622 | 746 | 11.3 | -22.2 | 336 | 1 |
| 2009-06-01T00:00 | 2629 | 746 | 11.3 | -22.1 | 333 | 1 |
| 2009-06-01T00:00 | 2638 | 745 | 11.3 | -22.0 | 329 | 1 |
| 2009-06-01T00:00 | 2646 | 744 | 11.2 | -22.1 | 327 | 1 |
| 2009-06-01T00:00 | 2655 | 743 | 11.2 | -22.2 | 324 | 1 |
| 2009-06-01T00:00 | 2664 | 743 | 11.1 | -22.1 | 323 | 1 |
| 2009-06-01T00:00 | 2674 | 742 | 11.0 | -22.1 | 322 | 1 |
| 2009-06-01T00:00 | 2682 | 741 | 10.9 | -22.0 | 321 | 1 |
| 2009-06-01T00:00 | 2691 | 740 | 10.8 | -22.0 | 321 | 1 |
| 2009-06-01T00:00 | 2700 | 739 | 10.8 | -21.9 | 323 | 1 |
| 2009-06-01T00:00 | 2708 | 739 | 10.7 | -21.8 | 325 | 1 |
| 2009-06-01T00:00 | 2716 | 738 | 10.7 | -21.8 | 328 | 1 |
| 2009-06-01T00:00 | 2724 | 737 | 10.6 | -21.9 | 332 | 1 |
| 2009-06-01T00:00 | 2731 | 737 | 10.5 | -21.9 | 336 | 1 |
| 2009-06-01T00:00 | 2739 | 736 | 10.5 | -22.0 | 340 | 1 |
| 2009-06-01T00:00 | 2749 | 735 | 10.4 | -22.1 | 344 | 1 |
| 2009-06-01T00:00 | 2758 | 734 | 10.3 | -22.2 | 348 | 1 |
| 2009-06-01T00:00 | 2768 | 733 | 10.3 | -22.2 | 352 | 1 |
| 2009-06-01T00:00 | 2780 | 732 | 10.1 | -22.3 | 356 | 1 |
| 2009-06-01T00:00 | 2791 | 731 | 10.0 | -22.4 | 360 | 1 |
| 2009-06-01T00:00 | 2802 | 730 | 10.0 | -23.3 | 4 | 1 |
| 2009-06-01T00:00 | 2811 | 729 | 10.1 | -25.3 | 8 | 1 |
| 2009-06-01T00:00 | 2819 | 729 | 10.2 | -26.4 | 13 | 1 |
| 2009-06-01T00:00 | 2826 | 728 | 10.2 | -26.6 | 17 | 1 |
| 2009-06-01T00:00 | 2833 | 728 | 10.2 | -26.1 | 21 | 1 |
| 2009-06-01T00:00 | 2840 | 727 | 10.2 | -25.2 | 25 | 1 |
| 2009-06-01T00:00 | 2849 | 726 | 10.2 | -24.2 | 29 | 1 |
| 2009-06-01T00:00 | 2857 | 725 | 10.1 | -23.8 | 32 | 1 |
| 2009-06-01T00:00 | 2866 | 725 | 10.1 | -23.6 | 35 | 1 |
| 2009-06-01T00:00 | 2876 | 724 | 10.1 | -23.4 | 37 | 1 |
| 2009-06-01T00:00 | 2886 | 723 | 10.0 | -22.9 | 39 | 1 |
| 2009-06-01T00:00 | 2893 | 722 | 9.9 | -22.4 | 39 | 1 |
| 2009-06-01T00:00 | 2901 | 722 | 9.9 | -22.0 | 40 | 1 |
| 2009-06-01T00:00 | 2908 | 721 | 9.9 | -21.8 | 39 | 1 |
| 2009-06-01T00:00 | 2916 | 720 | 9.8 | -21.8 | 38 | 1 |
| 2009-06-01T00:00 | 2924 | 720 | 9.7 | -21.8 | 37 | 1 |
| 2009-06-01T00:00 | 2933 | 719 | 9.6 | -21.8 | 34 | 1 |
| 2009-06-01T00:00 | 2941 | 718 | 9.6 | -21.5 | 31 | 1 |
| 2009-06-01T00:00 | 2950 | 717 | 9.5 | -21.2 | 27 | 1 |
| 2009-06-01T00:00 | 2958 | 717 | 9.4 | -21.0 | 23 | 1 |
| 2009-06-01T00:00 | 2966 | 716 | 9.3 | -20.9 | 17 | 1 |
| 2009-06-01T00:00 | 2976 | 715 | 9.2 | -20.9 | 11 | 1 |
| 2009-06-01T00:00 | 2984 | 714 | 9.2 | -20.8 | 6 | 1 |
| 2009-06-01T00:00 | 2992 | 714 | 9.1 | -20.7 | 2 | 1 |
| 2009-06-01T00:00 | 2999 | 713 | 9.0 | -20.7 | 358 | 1 |
| 2009-06-01T00:00 | 3006 | 713 | 8.9 | -20.8 | 354 | 1 |
| 2009-06-01T00:00 | 3014 | 712 | 8.9 | -20.8 | 352 | 2 |
| 2009-06-01T00:00 | 3023 | 711 | 8.8 | -20.9 | 350 | 2 |
| 2009-06-01T00:00 | 3032 | 710 | 8.7 | -21.0 | 349 | 2 |
| 2009-06-01T00:00 | 3041 | 710 | 8.6 | -21.2 | 349 | 2 |
| 2009-06-01T00:00 | 3050 | 709 | 8.6 | -21.4 | 349 | 2 |
| 2009-06-01T00:00 | 3061 | 708 | 8.4 | -21.5 | 349 | 2 |
| 2009-06-01T00:00 | 3072 | 707 | 8.3 | -21.5 | 350 | 2 |
| 2009-06-01T00:00 | 3081 | 706 | 8.2 | -21.5 | 350 | 2 |
| 2009-06-01T00:00 | 3089 | 705 | 8.2 | -21.4 | 351 | 2 |
| 2009-06-01T00:00 | 3097 | 705 | 8.1 | -21.5 | 351 | 2 |
| 2009-06-01T00:00 | 3105 | 704 | 8.1 | -21.6 | 350 | 2 |
| 2009-06-01T00:00 | 3112 | 703 | 8.0 | -21.6 | 350 | 2 |
| 2009-06-01T00:00 | 3120 | 703 | 8.0 | -21.8 | 349 | 1 |
| 2009-06-01T00:00 | 3127 | 702 | 7.9 | -22.3 | 346 | 1 |
| 2009-06-01T00:00 | 3135 | 702 | 7.9 | -22.9 | 341 | 1 |
| 2009-06-01T00:00 | 3143 | 701 | 7.8 | -23.5 | 335 | 1 |
| 2009-06-01T00:00 | 3153 | 700 | 7.8 | -24.1 | 326 | 1 |
| 2009-06-01T00:00 | 3163 | 699 | 7.7 | -24.6 | 317 | 1 |
| 2009-06-01T00:00 | 3171 | 698 | 7.7 | -25.3 | 306 | 1 |
| 2009-06-01T00:00 | 3179 | 698 | 7.6 | -26.0 | 296 | 1 |
| 2009-06-01T00:00 | 3186 | 697 | 7.6 | -27.1 | 287 | 1 |
| 2009-06-01T00:00 | 3194 | 696 | 7.6 | -28.5 | 280 | 1 |
| 2009-06-01T00:00 | 3202 | 696 | 7.6 | -30.2 | 274 | 2 |
| 2009-06-01T00:00 | 3212 | 695 | 7.7 | -32.8 | 269 | 2 |
| 2009-06-01T00:00 | 3220 | 694 | 7.8 | -35.7 | 265 | 2 |
| 2009-06-01T00:00 | 3229 | 694 | 7.9 | -36.6 | 262 | 2 |
| 2009-06-01T00:00 | 3238 | 693 | 7.9 | -36.9 | 259 | 2 |
| 2009-06-01T00:00 | 3249 | 692 | 7.8 | -36.9 | 256 | 2 |
| 2009-06-01T00:00 | 3257 | 691 | 7.8 | -36.2 | 254 | 2 |
| 2009-06-01T00:00 | 3264 | 691 | 7.8 | -35.6 | 252 | 2 |
| 2009-06-01T00:00 | 3272 | 690 | 7.8 | -35.5 | 250 | 2 |
| 2009-06-01T00:00 | 3279 | 689 | 7.8 | -35.6 | 249 | 2 |
| 2009-06-01T00:00 | 3287 | 689 | 7.8 | -36.0 | 248 | 2 |
| 2009-06-01T00:00 | 3295 | 688 | 7.8 | -36.7 | 247 | 2 |
| 2009-06-01T00:00 | 3303 | 687 | 7.9 | -37.3 | 247 | 2 |
| 2009-06-01T00:00 | 3313 | 686 | 7.9 | -37.2 | 247 | 2 |
| 2009-06-01T00:00 | 3322 | 686 | 7.9 | -36.7 | 247 | 2 |
| 2009-06-01T00:00 | 3330 | 685 | 7.8 | -36.4 | 247 | 2 |
| 2009-06-01T00:00 | 3337 | 684 | 7.8 | -36.3 | 247 | 2 |
| 2009-06-01T00:00 | 3345 | 684 | 7.8 | -36.4 | 247 | 2 |
| 2009-06-01T00:00 | 3353 | 683 | 7.7 | -36.3 | 246 | 2 |
| 2009-06-01T00:00 | 3361 | 682 | 7.6 | -35.7 | 246 | 2 |
| 2009-06-01T00:00 | 3369 | 682 | 7.6 | -35.3 | 244 | 2 |
| 2009-06-01T00:00 | 3377 | 681 | 7.5 | -34.9 | 242 | 2 |
| 2009-06-01T00:00 | 3385 | 681 | 7.5 | -34.4 | 240 | 2 |
| 2009-06-01T00:00 | 3393 | 680 | 7.4 | -34.0 | 238 | 1 |
| 2009-06-01T00:00 | 3402 | 679 | 7.3 | -33.6 | 235 | 1 |
| 2009-06-01T00:00 | 3411 | 678 | 7.2 | -33.2 | 232 | 1 |
| 2009-06-01T00:00 | 3419 | 678 | 7.2 | -32.6 | 229 | 1 |
| 2009-06-01T00:00 | 3428 | 677 | 7.1 | -31.8 | 226 | 1 |
| 2009-06-01T00:00 | 3437 | 676 | 7.0 | -31.7 | 224 | 1 |
| 2009-06-01T00:00 | 3446 | 675 | 7.0 | -31.8 | 222 | 2 |
| 2009-06-01T00:00 | 3454 | 675 | 6.9 | -31.6 | 222 | 2 |
| 2009-06-01T00:00 | 3462 | 674 | 6.9 | -31.0 | 222 | 2 |
| 2009-06-01T00:00 | 3472 | 673 | 6.8 | -30.0 | 223 | 2 |
| 2009-06-01T00:00 | 3482 | 673 | 6.7 | -29.4 | 224 | 2 |
| 2009-06-01T00:00 | 3490 | 672 | 6.6 | -28.8 | 226 | 2 |
| 2009-06-01T00:00 | 3497 | 671 | 6.6 | -28.6 | 229 | 2 |
| 2009-06-01T00:00 | 3505 | 671 | 6.5 | -28.7 | 232 | 2 |
| 2009-06-01T00:00 | 3515 | 670 | 6.4 | -28.8 | 235 | 2 |
| 2009-06-01T00:00 | 3526 | 669 | 6.3 | -29.0 | 237 | 2 |
| 2009-06-01T00:00 | 3540 | 668 | 6.2 | -29.4 | 239 | 2 |
| 2009-06-01T00:00 | 3553 | 667 | 6.1 | -29.5 | 240 | 2 |
| 2009-06-01T00:00 | 3562 | 666 | 6.1 | -29.6 | 241 | 2 |
| 2009-06-01T00:00 | 3570 | 665 | 6.0 | -29.6 | 241 | 2 |
| 2009-06-01T00:00 | 3578 | 665 | 5.9 | -29.7 | 240 | 2 |
| 2009-06-01T00:00 | 3586 | 664 | 5.9 | -29.8 | 238 | 2 |
| 2009-06-01T00:00 | 3594 | 663 | 5.8 | -29.8 | 236 | 2 |
| 2009-06-01T00:00 | 3602 | 663 | 5.8 | -30.0 | 234 | 2 |
| 2009-06-01T00:00 | 3611 | 662 | 5.7 | -30.3 | 232 | 2 |
| 2009-06-01T00:00 | 3619 | 661 | 5.7 | -30.5 | 231 | 2 |
| 2009-06-01T00:00 | 3627 | 661 | 5.6 | -30.5 | 229 | 3 |
| 2009-06-01T00:00 | 3635 | 660 | 5.6 | -30.3 | 228 | 3 |
| 2009-06-01T00:00 | 3642 | 659 | 5.5 | -30.2 | 227 | 3 |
| 2009-06-01T00:00 | 3650 | 659 | 5.5 | -30.3 | 227 | 3 |
| 2009-06-01T00:00 | 3658 | 658 | 5.4 | -30.4 | 227 | 3 |
| 2009-06-01T00:00 | 3666 | 658 | 5.4 | -30.6 | 227 | 3 |
| 2009-06-01T00:00 | 3673 | 657 | 5.4 | -30.7 | 228 | 3 |
| 2009-06-01T00:00 | 3681 | 656 | 5.4 | -30.7 | 228 | 3 |
| 2009-06-01T00:00 | 3690 | 656 | 5.3 | -30.8 | 229 | 3 |
| 2009-06-01T00:00 | 3698 | 655 | 5.3 | -31.0 | 230 | 4 |
| 2009-06-01T00:00 | 3707 | 654 | 5.2 | -31.1 | 231 | 4 |
| 2009-06-01T00:00 | 3717 | 653 | 5.2 | -31.2 | 231 | 4 |
| 2009-06-01T00:00 | 3728 | 653 | 5.1 | -31.2 | 232 | 4 |
| 2009-06-01T00:00 | 3738 | 652 | 5.0 | -31.3 | 232 | 4 |
| 2009-06-01T00:00 | 3747 | 651 | 4.9 | -31.4 | 233 | 5 |
| 2009-06-01T00:00 | 3755 | 650 | 4.8 | -31.4 | 234 | 5 |
| 2009-06-01T00:00 | 3762 | 650 | 4.8 | -31.4 | 235 | 5 |
| 2009-06-01T00:00 | 3771 | 649 | 4.7 | -31.4 | 236 | 5 |
| 2009-06-01T00:00 | 3780 | 648 | 4.7 | -31.4 | 236 | 5 |
| 2009-06-01T00:00 | 3788 | 648 | 4.6 | -31.3 | 237 | 5 |
| 2009-06-01T00:00 | 3796 | 647 | 4.5 | -30.9 | 238 | 5 |
| 2009-06-01T00:00 | 3806 | 646 | 4.5 | -30.8 | 239 | 5 |
| 2009-06-01T00:00 | 3818 | 645 | 4.4 | -30.9 | 239 | 5 |
| 2009-06-01T00:00 | 3827 | 645 | 4.3 | -31.1 | 240 | 5 |
| 2009-06-01T00:00 | 3836 | 644 | 4.2 | -31.2 | 240 | 5 |
| 2009-06-01T00:00 | 3844 | 643 | 4.1 | -31.2 | 240 | 5 |
| 2009-06-01T00:00 | 3852 | 643 | 4.1 | -31.2 | 239 | 5 |
| 2009-06-01T00:00 | 3860 | 642 | 4.1 | -31.2 | 238 | 5 |
| 2009-06-01T00:00 | 3867 | 641 | 4.1 | -31.2 | 238 | 4 |
| 2009-06-01T00:00 | 3875 | 641 | 4.0 | -31.3 | 236 | 4 |
| 2009-06-01T00:00 | 3883 | 640 | 3.9 | -31.2 | 235 | 4 |
| 2009-06-01T00:00 | 3893 | 639 | 3.9 | -31.1 | 234 | 4 |
| 2009-06-01T00:00 | 3901 | 639 | 3.8 | -31.0 | 232 | 4 |
| 2009-06-01T00:00 | 3908 | 638 | 3.8 | -31.0 | 231 | 4 |
| 2009-06-01T00:00 | 3916 | 638 | 3.7 | -31.0 | 230 | 4 |
| 2009-06-01T00:00 | 3923 | 637 | 3.7 | -31.1 | 228 | 4 |
| 2009-06-01T00:00 | 3931 | 636 | 3.6 | -31.1 | 227 | 4 |
| 2009-06-01T00:00 | 3940 | 636 | 3.5 | -31.0 | 226 | 4 |
| 2009-06-01T00:00 | 3949 | 635 | 3.5 | -31.0 | 226 | 4 |
| 2009-06-01T00:00 | 3958 | 634 | 3.4 | -31.1 | 225 | 4 |
| 2009-06-01T00:00 | 3966 | 634 | 3.3 | -31.2 | 225 | 4 |
| 2009-06-01T00:00 | 3975 | 633 | 3.2 | -31.2 | 225 | 4 |
| 2009-06-01T00:00 | 3985 | 632 | 3.1 | -31.1 | 225 | 4 |
| 2009-06-01T00:00 | 3997 | 631 | 3.0 | -31.1 | 225 | 4 |
| 2009-06-01T00:00 | 4011 | 630 | 2.9 | -31.1 | 225 | 5 |
| 2009-06-01T00:00 | 4025 | 629 | 2.8 | -31.1 | 226 | 5 |
| 2009-06-01T00:00 | 4034 | 628 | 2.7 | -31.1 | 226 | 5 |
| 2009-06-01T00:00 | 4042 | 628 | 2.7 | -31.2 | 227 | 5 |
| 2009-06-01T00:00 | 4049 | 627 | 2.6 | -31.5 | 228 | 5 |
| 2009-06-01T00:00 | 4056 | 627 | 2.6 | -31.8 | 228 | 5 |
| 2009-06-01T00:00 | 4063 | 626 | 2.5 | -31.9 | 229 | 5 |
| 2009-06-01T00:00 | 4071 | 626 | 2.5 | -32.1 | 229 | 5 |
| 2009-06-01T00:00 | 4079 | 625 | 2.4 | -32.3 | 229 | 5 |
| 2009-06-01T00:00 | 4087 | 624 | 2.4 | -32.3 | 230 | 5 |
| 2009-06-01T00:00 | 4095 | 624 | 2.3 | -32.4 | 230 | 5 |
| 2009-06-01T00:00 | 4104 | 623 | 2.2 | -32.5 | 230 | 5 |
| 2009-06-01T00:00 | 4113 | 622 | 2.2 | -32.8 | 230 | 5 |
| 2009-06-01T00:00 | 4124 | 621 | 2.2 | -33.2 | 230 | 5 |
| 2009-06-01T00:00 | 4133 | 621 | 2.2 | -33.6 | 229 | 5 |
| 2009-06-01T00:00 | 4140 | 620 | 2.1 | -33.8 | 229 | 5 |
| 2009-06-01T00:00 | 4148 | 620 | 2.1 | -34.1 | 229 | 5 |
| 2009-06-01T00:00 | 4156 | 619 | 2.1 | -34.8 | 229 | 5 |
| 2009-06-01T00:00 | 4163 | 618 | 2.1 | -35.8 | 229 | 5 |
| 2009-06-01T00:00 | 4170 | 618 | 2.1 | -36.4 | 229 | 6 |
| 2009-06-01T00:00 | 4178 | 617 | 2.0 | -36.5 | 229 | 6 |
| 2009-06-01T00:00 | 4186 | 617 | 2.0 | -36.4 | 229 | 6 |
| 2009-06-01T00:00 | 4193 | 616 | 2.0 | -36.3 | 229 | 6 |
| 2009-06-01T00:00 | 4202 | 615 | 1.9 | -36.4 | 230 | 6 |
| 2009-06-01T00:00 | 4210 | 615 | 1.9 | -36.2 | 231 | 6 |
| 2009-06-01T00:00 | 4218 | 614 | 1.8 | -35.7 | 231 | 6 |
| 2009-06-01T00:00 | 4227 | 614 | 1.7 | -35.2 | 232 | 6 |
| 2009-06-01T00:00 | 4235 | 613 | 1.7 | -35.0 | 234 | 6 |
| 2009-06-01T00:00 | 4243 | 612 | 1.6 | -35.2 | 235 | 6 |
| 2009-06-01T00:00 | 4251 | 612 | 1.6 | -35.6 | 237 | 6 |
| 2009-06-01T00:00 | 4259 | 611 | 1.6 | -36.2 | 238 | 6 |
| 2009-06-01T00:00 | 4268 | 610 | 1.5 | -36.5 | 240 | 6 |
| 2009-06-01T00:00 | 4277 | 610 | 1.4 | -36.7 | 242 | 6 |
| 2009-06-01T00:00 | 4285 | 609 | 1.4 | -37.2 | 243 | 6 |
| 2009-06-01T00:00 | 4294 | 608 | 1.4 | -37.6 | 245 | 6 |
| 2009-06-01T00:00 | 4301 | 608 | 1.4 | -38.3 | 246 | 6 |
| 2009-06-01T00:00 | 4308 | 607 | 1.3 | -39.3 | 248 | 6 |
| 2009-06-01T00:00 | 4317 | 607 | 1.3 | -39.8 | 249 | 6 |
| 2009-06-01T00:00 | 4325 | 606 | 1.2 | -39.9 | 250 | 7 |
| 2009-06-01T00:00 | 4333 | 605 | 1.2 | -39.9 | 251 | 7 |
| 2009-06-01T00:00 | 4341 | 605 | 1.1 | -40.1 | 251 | 7 |
| 2009-06-01T00:00 | 4350 | 604 | 1.0 | -40.2 | 251 | 7 |
| 2009-06-01T00:00 | 4358 | 604 | 1.0 | -40.4 | 251 | 7 |
| 2009-06-01T00:00 | 4367 | 603 | 1.0 | -40.7 | 250 | 7 |
| 2009-06-01T00:00 | 4376 | 602 | 0.9 | -40.7 | 250 | 7 |
| 2009-06-01T00:00 | 4384 | 602 | 0.9 | -40.5 | 249 | 8 |
| 2009-06-01T00:00 | 4392 | 601 | 1.0 | -40.4 | 248 | 8 |
| 2009-06-01T00:00 | 4400 | 600 | 1.0 | -40.0 | 246 | 8 |
| 2009-06-01T00:00 | 4408 | 600 | 0.9 | -39.6 | 245 | 8 |
| 2009-06-01T00:00 | 4415 | 599 | 0.9 | -39.6 | 244 | 8 |
| 2009-06-01T00:00 | 4423 | 599 | 0.9 | -39.5 | 242 | 8 |
| 2009-06-01T00:00 | 4430 | 598 | 0.8 | -39.4 | 241 | 8 |
| 2009-06-01T00:00 | 4438 | 598 | 0.8 | -39.2 | 239 | 8 |
| 2009-06-01T00:00 | 4446 | 597 | 0.8 | -39.0 | 238 | 8 |
| 2009-06-01T00:00 | 4456 | 596 | 0.7 | -39.1 | 237 | 9 |
| 2009-06-01T00:00 | 4468 | 595 | 0.6 | -39.3 | 236 | 9 |
| 2009-06-01T00:00 | 4478 | 595 | 0.5 | -39.6 | 235 | 9 |
| 2009-06-01T00:00 | 4486 | 594 | 0.5 | -40.0 | 234 | 9 |
| 2009-06-01T00:00 | 4494 | 593 | 0.4 | -40.2 | 234 | 9 |
| 2009-06-01T00:00 | 4503 | 593 | 0.4 | -40.4 | 233 | 9 |
| 2009-06-01T00:00 | 4514 | 592 | 0.3 | -40.3 | 233 | 9 |
| 2009-06-01T00:00 | 4523 | 591 | 0.3 | -40.4 | 233 | 9 |
| 2009-06-01T00:00 | 4530 | 591 | 0.2 | -40.3 | 233 | 9 |
| 2009-06-01T00:00 | 4538 | 590 | 0.2 | -40.3 | 233 | 9 |
| 2009-06-01T00:00 | 4545 | 590 | 0.1 | -40.3 | 233 | 9 |
| 2009-06-01T00:00 | 4554 | 589 | 0.1 | -40.4 | 233 | 9 |
| 2009-06-01T00:00 | 4563 | 588 | 0.0 | -40.6 | 233 | 9 |
| 2009-06-01T00:00 | 4572 | 588 | 0.0 | -40.6 | 233 | 9 |
| 2009-06-01T00:00 | 4580 | 587 | -0.1 | -40.6 | 233 | 9 |
| 2009-06-01T00:00 | 4588 | 587 | -0.2 | -40.7 | 232 | 9 |
| 2009-06-01T00:00 | 4596 | 586 | -0.2 | -40.7 | 232 | 9 |
| 2009-06-01T00:00 | 4604 | 585 | -0.2 | -40.8 | 232 | 9 |
| 2009-06-01T00:00 | 4612 | 585 | -0.2 | -41.1 | 232 | 9 |
| 2009-06-01T00:00 | 4620 | 584 | -0.4 | -41.3 | 232 | 9 |
| 2009-06-01T00:00 | 4629 | 583 | -0.4 | -41.4 | 232 | 9 |
| 2009-06-01T00:00 | 4640 | 583 | -0.5 | -41.5 | 231 | 9 |
| 2009-06-01T00:00 | 4652 | 582 | -0.5 | -41.5 | 231 | 9 |
| 2009-06-01T00:00 | 4663 | 581 | -0.6 | -41.5 | 231 | 9 |
| 2009-06-01T00:00 | 4671 | 580 | -0.6 | -41.4 | 231 | 9 |
| 2009-06-01T00:00 | 4681 | 580 | -0.6 | -41.4 | 231 | 9 |
| 2009-06-01T00:00 | 4691 | 579 | -0.7 | -41.6 | 232 | 9 |
| 2009-06-01T00:00 | 4701 | 578 | -0.8 | -41.8 | 232 | 10 |
| 2009-06-01T00:00 | 4710 | 578 | -0.9 | -42.1 | 232 | 10 |
| 2009-06-01T00:00 | 4718 | 577 | -0.9 | -42.1 | 232 | 10 |
| 2009-06-01T00:00 | 4727 | 576 | -1.0 | -41.9 | 233 | 10 |
| 2009-06-01T00:00 | 4735 | 576 | -1.0 | -41.9 | 233 | 10 |
| 2009-06-01T00:00 | 4744 | 575 | -1.1 | -42.1 | 233 | 10 |
| 2009-06-01T00:00 | 4753 | 574 | -1.2 | -42.1 | 234 | 10 |
| 2009-06-01T00:00 | 4761 | 574 | -1.2 | -41.9 | 234 | 10 |
| 2009-06-01T00:00 | 4769 | 573 | -1.3 | -41.8 | 235 | 10 |
| 2009-06-01T00:00 | 4777 | 573 | -1.4 | -41.8 | 235 | 10 |
| 2009-06-01T00:00 | 4785 | 572 | -1.5 | -41.7 | 236 | 10 |
| 2009-06-01T00:00 | 4793 | 572 | -1.5 | -41.7 | 237 | 10 |
| 2009-06-01T00:00 | 4801 | 571 | -1.6 | -41.7 | 237 | 10 |
| 2009-06-01T00:00 | 4808 | 571 | -1.7 | -41.4 | 238 | 9 |
| 2009-06-01T00:00 | 4816 | 570 | -1.7 | -41.2 | 238 | 9 |
| 2009-06-01T00:00 | 4823 | 569 | -1.7 | -41.5 | 239 | 9 |
| 2009-06-01T00:00 | 4831 | 569 | -1.8 | -41.5 | 239 | 9 |
| 2009-06-01T00:00 | 4839 | 568 | -1.9 | -41.4 | 239 | 9 |
| 2009-06-01T00:00 | 4847 | 568 | -1.9 | -41.4 | 239 | 9 |
| 2009-06-01T00:00 | 4856 | 567 | -2.0 | -41.5 | 239 | 9 |
| 2009-06-01T00:00 | 4865 | 566 | -2.1 | -41.4 | 239 | 9 |
| 2009-06-01T00:00 | 4875 | 566 | -2.2 | -41.4 | 239 | 9 |
| 2009-06-01T00:00 | 4884 | 565 | -2.2 | -41.4 | 238 | 9 |
| 2009-06-01T00:00 | 4892 | 565 | -2.3 | -41.2 | 238 | 9 |
| 2009-06-01T00:00 | 4900 | 564 | -2.4 | -41.3 | 237 | 10 |
| 2009-06-01T00:00 | 4910 | 563 | -2.5 | -41.7 | 237 | 10 |
| 2009-06-01T00:00 | 4920 | 563 | -2.5 | -41.9 | 236 | 10 |
| 2009-06-01T00:00 | 4929 | 562 | -2.6 | -42.1 | 236 | 10 |
| 2009-06-01T00:00 | 4937 | 561 | -2.7 | -42.2 | 236 | 10 |
| 2009-06-01T00:00 | 4946 | 561 | -2.8 | -42.5 | 236 | 10 |
| 2009-06-01T00:00 | 4955 | 560 | -2.8 | -42.6 | 236 | 10 |
| 2009-06-01T00:00 | 4966 | 559 | -2.9 | -42.7 | 236 | 10 |
| 2009-06-01T00:00 | 4979 | 558 | -3.1 | -42.7 | 237 | 10 |
| 2009-06-01T00:00 | 4992 | 557 | -3.2 | -42.8 | 237 | 10 |
| 2009-06-01T00:00 | 5003 | 557 | -3.3 | -42.8 | 238 | 10 |
| 2009-06-01T00:00 | 5011 | 556 | -3.3 | -42.8 | 238 | 10 |
| 2009-06-01T00:00 | 5018 | 556 | -3.4 | -42.7 | 239 | 10 |
| 2009-06-01T00:00 | 5025 | 555 | -3.5 | -42.8 | 239 | 10 |
| 2009-06-01T00:00 | 5032 | 555 | -3.6 | -43.0 | 239 | 10 |
| 2009-06-01T00:00 | 5040 | 554 | -3.7 | -43.1 | 239 | 10 |
| 2009-06-01T00:00 | 5049 | 553 | -3.7 | -43.1 | 238 | 10 |
| 2009-06-01T00:00 | 5059 | 553 | -3.8 | -43.1 | 238 | 10 |
| 2009-06-01T00:00 | 5068 | 552 | -4.0 | -43.1 | 238 | 10 |
| 2009-06-01T00:00 | 5077 | 551 | -4.0 | -43.0 | 237 | 10 |
| 2009-06-01T00:00 | 5085 | 551 | -4.1 | -43.1 | 236 | 10 |
| 2009-06-01T00:00 | 5094 | 550 | -4.2 | -43.2 | 236 | 10 |
| 2009-06-01T00:00 | 5103 | 550 | -4.2 | -43.3 | 235 | 10 |
| 2009-06-01T00:00 | 5113 | 549 | -4.3 | -43.4 | 235 | 11 |
| 2009-06-01T00:00 | 5122 | 548 | -4.4 | -43.6 | 234 | 11 |
| 2009-06-01T00:00 | 5131 | 548 | -4.4 | -43.8 | 234 | 11 |
| 2009-06-01T00:00 | 5141 | 547 | -4.5 | -44.0 | 235 | 11 |
| 2009-06-01T00:00 | 5151 | 546 | -4.6 | -44.1 | 235 | 10 |
| 2009-06-01T00:00 | 5161 | 546 | -4.6 | -44.2 | 236 | 10 |
| 2009-06-01T00:00 | 5170 | 545 | -4.7 | -44.3 | 236 | 10 |
| 2009-06-01T00:00 | 5179 | 544 | -4.7 | -44.4 | 237 | 10 |
| 2009-06-01T00:00 | 5187 | 544 | -4.8 | -44.5 | 238 | 10 |
| 2009-06-01T00:00 | 5195 | 543 | -4.8 | -44.8 | 240 | 10 |
| 2009-06-01T00:00 | 5203 | 543 | -4.9 | -45.0 | 241 | 10 |
| 2009-06-01T00:00 | 5212 | 542 | -4.9 | -45.0 | 242 | 10 |
| 2009-06-01T00:00 | 5220 | 542 | -5.0 | -45.5 | 243 | 10 |
| 2009-06-01T00:00 | 5228 | 541 | -5.0 | -46.3 | 244 | 10 |
| 2009-06-01T00:00 | 5236 | 540 | -5.1 | -46.8 | 245 | 9 |
| 2009-06-01T00:00 | 5246 | 540 | -5.2 | -47.0 | 245 | 9 |
| 2009-06-01T00:00 | 5256 | 539 | -5.3 | -47.1 | 246 | 9 |
| 2009-06-01T00:00 | 5266 | 538 | -5.3 | -46.9 | 246 | 9 |
| 2009-06-01T00:00 | 5275 | 538 | -5.4 | -46.6 | 246 | 9 |
| 2009-06-01T00:00 | 5284 | 537 | -5.5 | -46.4 | 246 | 9 |
| 2009-06-01T00:00 | 5293 | 536 | -5.6 | -46.4 | 246 | 9 |
| 2009-06-01T00:00 | 5303 | 536 | -5.7 | -46.0 | 246 | 9 |
| 2009-06-01T00:00 | 5313 | 535 | -5.7 | -45.1 | 245 | 9 |
| 2009-06-01T00:00 | 5322 | 535 | -5.8 | -45.2 | 245 | 9 |
| 2009-06-01T00:00 | 5331 | 534 | -5.9 | -45.4 | 245 | 9 |
| 2009-06-01T00:00 | 5340 | 533 | -6.0 | -45.5 | 244 | 9 |
| 2009-06-01T00:00 | 5348 | 533 | -6.0 | -45.6 | 243 | 9 |
| 2009-06-01T00:00 | 5356 | 532 | -6.1 | -45.9 | 243 | 9 |
| 2009-06-01T00:00 | 5364 | 532 | -6.1 | -46.6 | 242 | 9 |
| 2009-06-01T00:00 | 5373 | 531 | -6.2 | -46.8 | 241 | 9 |
| 2009-06-01T00:00 | 5384 | 530 | -6.3 | -46.7 | 240 | 9 |
| 2009-06-01T00:00 | 5395 | 530 | -6.4 | -46.0 | 240 | 9 |
| 2009-06-01T00:00 | 5406 | 529 | -6.5 | -45.4 | 239 | 9 |
| 2009-06-01T00:00 | 5415 | 528 | -6.6 | -45.0 | 238 | 9 |
| 2009-06-01T00:00 | 5425 | 528 | -6.7 | -45.9 | 238 | 10 |
| 2009-06-01T00:00 | 5433 | 527 | -6.7 | -47.1 | 237 | 10 |
| 2009-06-01T00:00 | 5441 | 526 | -6.7 | -47.6 | 237 | 10 |
| 2009-06-01T00:00 | 5450 | 526 | -6.8 | -47.6 | 237 | 10 |
| 2009-06-01T00:00 | 5459 | 525 | -6.9 | -47.7 | 236 | 10 |
| 2009-06-01T00:00 | 5470 | 525 | -6.9 | -47.9 | 236 | 10 |
| 2009-06-01T00:00 | 5480 | 524 | -7.0 | -48.3 | 236 | 10 |
| 2009-06-01T00:00 | 5490 | 523 | -7.1 | -48.9 | 236 | 10 |
| 2009-06-01T00:00 | 5500 | 523 | -7.1 | -49.3 | 236 | 10 |
| 2009-06-01T00:00 | 5509 | 522 | -7.2 | -49.5 | 235 | 10 |
| 2009-06-01T00:00 | 5518 | 521 | -7.2 | -49.5 | 235 | 10 |
| 2009-06-01T00:00 | 5527 | 521 | -7.3 | -49.6 | 235 | 10 |
| 2009-06-01T00:00 | 5536 | 520 | -7.4 | -49.4 | 235 | 10 |
| 2009-06-01T00:00 | 5545 | 519 | -7.4 | -49.1 | 235 | 10 |
| 2009-06-01T00:00 | 5553 | 519 | -7.4 | -49.1 | 235 | 10 |
| 2009-06-01T00:00 | 5563 | 518 | -7.5 | -49.1 | 235 | 10 |
| 2009-06-01T00:00 | 5572 | 518 | -7.6 | -48.8 | 235 | 10 |
| 2009-06-01T00:00 | 5580 | 517 | -7.7 | -48.6 | 235 | 10 |
| 2009-06-01T00:00 | 5587 | 517 | -7.8 | -48.6 | 235 | 10 |
| 2009-06-01T00:00 | 5596 | 516 | -7.8 | -48.4 | 235 | 10 |
| 2009-06-01T00:00 | 5604 | 516 | -7.9 | -48.0 | 236 | 10 |
| 2009-06-01T00:00 | 5612 | 515 | -8.0 | -47.4 | 236 | 10 |
| 2009-06-01T00:00 | 5620 | 514 | -8.1 | -46.7 | 236 | 10 |
| 2009-06-01T00:00 | 5628 | 514 | -8.1 | -46.1 | 236 | 10 |
| 2009-06-01T00:00 | 5637 | 513 | -8.2 | -45.7 | 237 | 10 |
| 2009-06-01T00:00 | 5645 | 513 | -8.3 | -45.0 | 237 | 10 |
| 2009-06-01T00:00 | 5653 | 512 | -8.3 | -43.7 | 237 | 10 |
| 2009-06-01T00:00 | 5661 | 512 | -8.4 | -42.7 | 237 | 10 |
| 2009-06-01T00:00 | 5669 | 511 | -8.5 | -42.3 | 237 | 10 |
| 2009-06-01T00:00 | 5676 | 511 | -8.5 | -42.1 | 237 | 10 |
| 2009-06-01T00:00 | 5684 | 510 | -8.6 | -42.0 | 236 | 10 |
| 2009-06-01T00:00 | 5693 | 510 | -8.7 | -41.7 | 236 | 10 |
| 2009-06-01T00:00 | 5702 | 509 | -8.7 | -41.6 | 236 | 10 |
| 2009-06-01T00:00 | 5711 | 508 | -8.8 | -41.8 | 236 | 10 |
| 2009-06-01T00:00 | 5721 | 508 | -8.8 | -42.0 | 235 | 10 |
| 2009-06-01T00:00 | 5730 | 507 | -8.9 | -41.8 | 235 | 10 |
| 2009-06-01T00:00 | 5740 | 507 | -9.0 | -41.4 | 235 | 10 |
| 2009-06-01T00:00 | 5751 | 506 | -9.1 | -40.4 | 235 | 10 |
| 2009-06-01T00:00 | 5763 | 505 | -9.2 | -37.8 | 235 | 10 |
| 2009-06-01T00:00 | 5774 | 504 | -9.3 | -34.9 | 235 | 10 |
| 2009-06-01T00:00 | 5782 | 504 | -9.4 | -33.9 | 235 | 10 |
| 2009-06-01T00:00 | 5791 | 503 | -9.4 | -33.9 | 235 | 10 |
| 2009-06-01T00:00 | 5799 | 503 | -9.5 | -34.6 | 235 | 10 |
| 2009-06-01T00:00 | 5807 | 502 | -9.5 | -35.1 | 235 | 10 |
| 2009-06-01T00:00 | 5815 | 502 | -9.6 | -34.6 | 236 | 10 |
| 2009-06-01T00:00 | 5824 | 501 | -9.7 | -33.7 | 236 | 10 |
| 2009-06-01T00:00 | 5832 | 501 | -9.7 | -33.4 | 236 | 10 |
| 2009-06-01T00:00 | 5842 | 500 | -9.8 | -33.3 | 236 | 11 |
| 2009-06-01T00:00 | 5850 | 499 | -9.9 | -33.2 | 236 | 11 |
| 2009-06-01T00:00 | 5859 | 499 | -10.0 | -33.6 | 236 | 11 |
| 2009-06-01T00:00 | 5867 | 498 | -10.0 | -33.9 | 236 | 11 |
| 2009-06-01T00:00 | 5877 | 498 | -10.1 | -34.2 | 236 | 11 |
| 2009-06-01T00:00 | 5886 | 497 | -10.2 | -35.0 | 236 | 11 |
| 2009-06-01T00:00 | 5894 | 497 | -10.3 | -35.6 | 235 | 11 |
| 2009-06-01T00:00 | 5902 | 496 | -10.3 | -35.6 | 235 | 11 |
| 2009-06-01T00:00 | 5910 | 496 | -10.4 | -35.4 | 235 | 11 |
| 2009-06-01T00:00 | 5918 | 495 | -10.5 | -35.4 | 235 | 11 |
| 2009-06-01T00:00 | 5928 | 494 | -10.6 | -35.6 | 234 | 11 |
| 2009-06-01T00:00 | 5939 | 494 | -10.7 | -35.6 | 234 | 11 |
| 2009-06-01T00:00 | 5950 | 493 | -10.8 | -35.5 | 234 | 11 |
| 2009-06-01T00:00 | 5961 | 492 | -10.8 | -35.6 | 233 | 11 |
| 2009-06-01T00:00 | 5971 | 492 | -10.9 | -35.7 | 233 | 12 |
| 2009-06-01T00:00 | 5980 | 491 | -11.0 | -35.8 | 233 | 12 |
| 2009-06-01T00:00 | 5988 | 491 | -11.1 | -35.8 | 233 | 12 |
| 2009-06-01T00:00 | 5996 | 490 | -11.2 | -35.8 | 232 | 12 |
| 2009-06-01T00:00 | 6004 | 490 | -11.3 | -35.8 | 232 | 12 |
| 2009-06-01T00:00 | 6012 | 489 | -11.4 | -35.9 | 232 | 12 |
| 2009-06-01T00:00 | 6020 | 488 | -11.4 | -35.9 | 232 | 12 |
| 2009-06-01T00:00 | 6029 | 488 | -11.5 | -36.1 | 232 | 12 |
| 2009-06-01T00:00 | 6038 | 487 | -11.6 | -36.1 | 232 | 12 |
| 2009-06-01T00:00 | 6047 | 487 | -11.6 | -36.1 | 232 | 12 |
| 2009-06-01T00:00 | 6057 | 486 | -11.7 | -36.0 | 232 | 12 |
| 2009-06-01T00:00 | 6067 | 485 | -11.8 | -36.1 | 232 | 12 |
| 2009-06-01T00:00 | 6078 | 485 | -11.8 | -36.1 | 232 | 12 |
| 2009-06-01T00:00 | 6086 | 484 | -11.9 | -36.1 | 232 | 11 |
| 2009-06-01T00:00 | 6094 | 484 | -12.0 | -36.3 | 232 | 11 |
| 2009-06-01T00:00 | 6102 | 483 | -12.1 | -36.4 | 232 | 11 |
| 2009-06-01T00:00 | 6108 | 483 | -12.2 | -36.4 | 233 | 11 |
| 2009-06-01T00:00 | 6116 | 482 | -12.2 | -36.6 | 233 | 11 |
| 2009-06-01T00:00 | 6124 | 482 | -12.3 | -36.7 | 233 | 11 |
| 2009-06-01T00:00 | 6135 | 481 | -12.4 | -36.8 | 233 | 11 |
| 2009-06-01T00:00 | 6146 | 480 | -12.5 | -36.8 | 233 | 11 |
| 2009-06-01T00:00 | 6157 | 480 | -12.5 | -37.0 | 233 | 11 |
| 2009-06-01T00:00 | 6166 | 479 | -12.6 | -37.0 | 233 | 11 |
| 2009-06-01T00:00 | 6175 | 479 | -12.7 | -37.0 | 233 | 11 |
| 2009-06-01T00:00 | 6186 | 478 | -12.8 | -37.0 | 233 | 11 |
| 2009-06-01T00:00 | 6197 | 477 | -12.9 | -37.0 | 233 | 11 |
| 2009-06-01T00:00 | 6208 | 477 | -13.0 | -37.1 | 233 | 11 |
| 2009-06-01T00:00 | 6219 | 476 | -13.1 | -37.2 | 233 | 11 |
| 2009-06-01T00:00 | 6227 | 475 | -13.1 | -37.2 | 232 | 11 |
| 2009-06-01T00:00 | 6235 | 475 | -13.2 | -37.4 | 232 | 11 |
| 2009-06-01T00:00 | 6244 | 474 | -13.3 | -37.8 | 231 | 11 |
| 2009-06-01T00:00 | 6253 | 474 | -13.3 | -38.5 | 230 | 11 |
| 2009-06-01T00:00 | 6262 | 473 | -13.4 | -39.2 | 230 | 11 |
| 2009-06-01T00:00 | 6271 | 473 | -13.5 | -40.2 | 229 | 11 |
| 2009-06-01T00:00 | 6281 | 472 | -13.6 | -41.4 | 228 | 11 |
| 2009-06-01T00:00 | 6289 | 472 | -13.6 | -42.0 | 228 | 11 |
| 2009-06-01T00:00 | 6296 | 471 | -13.7 | -42.6 | 227 | 11 |
| 2009-06-01T00:00 | 6304 | 471 | -13.7 | -43.5 | 226 | 11 |
| 2009-06-01T00:00 | 6312 | 470 | -13.8 | -43.1 | 226 | 11 |
| 2009-06-01T00:00 | 6320 | 470 | -13.8 | -41.9 | 225 | 11 |
| 2009-06-01T00:00 | 6329 | 469 | -13.9 | -41.1 | 225 | 11 |
| 2009-06-01T00:00 | 6337 | 469 | -13.9 | -40.5 | 224 | 11 |
| 2009-06-01T00:00 | 6346 | 468 | -14.0 | -40.0 | 224 | 11 |
| 2009-06-01T00:00 | 6355 | 467 | -14.1 | -39.5 | 224 | 11 |
| 2009-06-01T00:00 | 6363 | 467 | -14.2 | -39.3 | 223 | 11 |
| 2009-06-01T00:00 | 6371 | 467 | -14.2 | -39.4 | 223 | 11 |
| 2009-06-01T00:00 | 6379 | 466 | -14.2 | -39.7 | 223 | 11 |
| 2009-06-01T00:00 | 6387 | 466 | -14.3 | -39.9 | 223 | 11 |
| 2009-06-01T00:00 | 6394 | 465 | -14.4 | -40.0 | 223 | 11 |
| 2009-06-01T00:00 | 6402 | 465 | -14.5 | -39.9 | 222 | 11 |
| 2009-06-01T00:00 | 6411 | 464 | -14.5 | -39.9 | 222 | 11 |
| 2009-06-01T00:00 | 6418 | 464 | -14.6 | -40.0 | 222 | 11 |
| 2009-06-01T00:00 | 6426 | 463 | -14.6 | -39.9 | 222 | 11 |
| 2009-06-01T00:00 | 6433 | 463 | -14.7 | -40.2 | 222 | 11 |
| 2009-06-01T00:00 | 6442 | 462 | -14.8 | -40.7 | 222 | 11 |
| 2009-06-01T00:00 | 6451 | 462 | -14.9 | -40.6 | 222 | 11 |
| 2009-06-01T00:00 | 6459 | 461 | -15.0 | -40.4 | 221 | 11 |
| 2009-06-01T00:00 | 6468 | 461 | -15.0 | -40.1 | 221 | 11 |
| 2009-06-01T00:00 | 6477 | 460 | -15.1 | -40.0 | 221 | 11 |
| 2009-06-01T00:00 | 6484 | 460 | -15.2 | -39.9 | 220 | 11 |
| 2009-06-01T00:00 | 6493 | 459 | -15.3 | -39.8 | 220 | 11 |
| 2009-06-01T00:00 | 6501 | 459 | -15.4 | -39.8 | 219 | 11 |
| 2009-06-01T00:00 | 6510 | 458 | -15.4 | -39.8 | 218 | 11 |
| 2009-06-01T00:00 | 6519 | 457 | -15.5 | -39.6 | 218 | 11 |
| 2009-06-01T00:00 | 6528 | 457 | -15.5 | -39.3 | 217 | 11 |
| 2009-06-01T00:00 | 6537 | 456 | -15.6 | -39.2 | 216 | 11 |
| 2009-06-01T00:00 | 6547 | 456 | -15.7 | -39.3 | 216 | 11 |
| 2009-06-01T00:00 | 6557 | 455 | -15.7 | -39.3 | 215 | 10 |
| 2009-06-01T00:00 | 6568 | 454 | -15.8 | -39.5 | 215 | 10 |
| 2009-06-01T00:00 | 6578 | 454 | -15.9 | -39.7 | 214 | 10 |
| 2009-06-01T00:00 | 6587 | 453 | -16.0 | -39.9 | 214 | 10 |
| 2009-06-01T00:00 | 6596 | 453 | -16.0 | -40.0 | 214 | 10 |
| 2009-06-01T00:00 | 6604 | 452 | -16.0 | -40.0 | 214 | 10 |
| 2009-06-01T00:00 | 6611 | 452 | -16.1 | -40.1 | 214 | 10 |
| 2009-06-01T00:00 | 6619 | 451 | -16.2 | -40.3 | 214 | 10 |
| 2009-06-01T00:00 | 6628 | 451 | -16.3 | -40.5 | 214 | 10 |
| 2009-06-01T00:00 | 6639 | 450 | -16.3 | -40.8 | 215 | 10 |
| 2009-06-01T00:00 | 6649 | 450 | -16.3 | -41.3 | 215 | 10 |
| 2009-06-01T00:00 | 6658 | 449 | -16.4 | -41.8 | 215 | 10 |
| 2009-06-01T00:00 | 6665 | 449 | -16.4 | -42.1 | 215 | 10 |
| 2009-06-01T00:00 | 6673 | 448 | -16.5 | -42.3 | 216 | 10 |
| 2009-06-01T00:00 | 6681 | 448 | -16.6 | -42.5 | 216 | 10 |
| 2009-06-01T00:00 | 6690 | 447 | -16.6 | -42.9 | 216 | 10 |
| 2009-06-01T00:00 | 6699 | 447 | -16.6 | -43.3 | 216 | 10 |
| 2009-06-01T00:00 | 6709 | 446 | -16.6 | -43.9 | 216 | 10 |
| 2009-06-01T00:00 | 6718 | 446 | -16.7 | -44.4 | 217 | 10 |
| 2009-06-01T00:00 | 6725 | 445 | -16.7 | -44.4 | 217 | 10 |
| 2009-06-01T00:00 | 6733 | 445 | -16.7 | -44.5 | 217 | 10 |
| 2009-06-01T00:00 | 6740 | 444 | -16.7 | -44.7 | 218 | 10 |
| 2009-06-01T00:00 | 6747 | 444 | -16.7 | -45.2 | 219 | 9 |
| 2009-06-01T00:00 | 6754 | 443 | -16.7 | -45.8 | 219 | 9 |
| 2009-06-01T00:00 | 6762 | 443 | -16.7 | -46.2 | 220 | 9 |
| 2009-06-01T00:00 | 6770 | 442 | -16.7 | -46.3 | 221 | 9 |
| 2009-06-01T00:00 | 6778 | 442 | -16.7 | -46.5 | 222 | 9 |
| 2009-06-01T00:00 | 6786 | 441 | -16.8 | -46.6 | 224 | 9 |
| 2009-06-01T00:00 | 6795 | 441 | -16.9 | -46.6 | 225 | 9 |
| 2009-06-01T00:00 | 6804 | 440 | -16.9 | -46.7 | 226 | 9 |
| 2009-06-01T00:00 | 6812 | 440 | -17.0 | -46.6 | 227 | 9 |
| 2009-06-01T00:00 | 6820 | 439 | -17.0 | -46.7 | 228 | 9 |
| 2009-06-01T00:00 | 6829 | 439 | -17.0 | -46.9 | 228 | 9 |
| 2009-06-01T00:00 | 6836 | 439 | -17.1 | -47.0 | 229 | 9 |
| 2009-06-01T00:00 | 6844 | 438 | -17.2 | -47.1 | 230 | 9 |
| 2009-06-01T00:00 | 6852 | 438 | -17.3 | -47.1 | 230 | 9 |
| 2009-06-01T00:00 | 6861 | 437 | -17.3 | -47.4 | 231 | 9 |
| 2009-06-01T00:00 | 6870 | 437 | -17.3 | -48.0 | 231 | 9 |
| 2009-06-01T00:00 | 6880 | 436 | -17.3 | -48.8 | 231 | 9 |
| 2009-06-01T00:00 | 6889 | 435 | -17.3 | -49.9 | 232 | 9 |
| 2009-06-01T00:00 | 6898 | 435 | -17.3 | -51.1 | 232 | 9 |
| 2009-06-01T00:00 | 6906 | 434 | -17.3 | -52.1 | 232 | 9 |
| 2009-06-01T00:00 | 6915 | 434 | -17.5 | -52.5 | 233 | 8 |
| 2009-06-01T00:00 | 6923 | 434 | -17.5 | -53.0 | 233 | 8 |
| 2009-06-01T00:00 | 6931 | 433 | -17.6 | -54.0 | 234 | 8 |
| 2009-06-01T00:00 | 6939 | 433 | -17.6 | -55.3 | 234 | 8 |
| 2009-06-01T00:00 | 6947 | 432 | -17.6 | -56.2 | 235 | 8 |
| 2009-06-01T00:00 | 6955 | 432 | -17.6 | -56.0 | 235 | 8 |
| 2009-06-01T00:00 | 6964 | 431 | -17.7 | -55.2 | 236 | 8 |
| 2009-06-01T00:00 | 6973 | 431 | -17.7 | -54.1 | 237 | 8 |
| 2009-06-01T00:00 | 6982 | 430 | -17.8 | -52.9 | 237 | 8 |
| 2009-06-01T00:00 | 6992 | 430 | -17.9 | -51.8 | 237 | 8 |
| 2009-06-01T00:00 | 7002 | 429 | -18.0 | -51.3 | 238 | 8 |
| 2009-06-01T00:00 | 7012 | 428 | -18.1 | -51.1 | 238 | 8 |
| 2009-06-01T00:00 | 7021 | 428 | -18.2 | -51.0 | 238 | 8 |
| 2009-06-01T00:00 | 7030 | 427 | -18.2 | -50.8 | 239 | 8 |
| 2009-06-01T00:00 | 7039 | 427 | -18.3 | -50.7 | 239 | 8 |
| 2009-06-01T00:00 | 7047 | 426 | -18.3 | -50.7 | 239 | 8 |
| 2009-06-01T00:00 | 7055 | 426 | -18.4 | -50.8 | 239 | 8 |
| 2009-06-01T00:00 | 7063 | 425 | -18.5 | -50.9 | 239 | 8 |
| 2009-06-01T00:00 | 7070 | 425 | -18.6 | -50.7 | 239 | 8 |
| 2009-06-01T00:00 | 7077 | 425 | -18.7 | -50.5 | 239 | 8 |
| 2009-06-01T00:00 | 7086 | 424 | -18.7 | -50.1 | 239 | 8 |
| 2009-06-01T00:00 | 7094 | 424 | -18.8 | -49.9 | 239 | 8 |
| 2009-06-01T00:00 | 7101 | 423 | -18.9 | -49.8 | 239 | 8 |
| 2009-06-01T00:00 | 7110 | 423 | -19.0 | -49.8 | 239 | 8 |
| 2009-06-01T00:00 | 7118 | 422 | -19.1 | -49.9 | 238 | 8 |
| 2009-06-01T00:00 | 7126 | 422 | -19.1 | -50.0 | 238 | 8 |
| 2009-06-01T00:00 | 7134 | 421 | -19.2 | -49.9 | 238 | 8 |
| 2009-06-01T00:00 | 7144 | 421 | -19.3 | -49.3 | 237 | 8 |
| 2009-06-01T00:00 | 7156 | 420 | -19.4 | -48.5 | 237 | 8 |
| 2009-06-01T00:00 | 7166 | 420 | -19.4 | -48.0 | 237 | 8 |
| 2009-06-01T00:00 | 7176 | 419 | -19.5 | -47.6 | 236 | 8 |
| 2009-06-01T00:00 | 7185 | 419 | -19.6 | -47.5 | 236 | 8 |
| 2009-06-01T00:00 | 7193 | 418 | -19.7 | -47.5 | 236 | 8 |
| 2009-06-01T00:00 | 7202 | 418 | -19.8 | -47.7 | 236 | 8 |
| 2009-06-01T00:00 | 7211 | 417 | -19.9 | -47.9 | 236 | 8 |
| 2009-06-01T00:00 | 7220 | 417 | -19.9 | -48.0 | 236 | 8 |
| 2009-06-01T00:00 | 7229 | 416 | -20.0 | -48.1 | 236 | 8 |
| 2009-06-01T00:00 | 7237 | 416 | -20.1 | -48.2 | 236 | 8 |
| 2009-06-01T00:00 | 7245 | 415 | -20.2 | -48.4 | 236 | 8 |
| 2009-06-01T00:00 | 7252 | 415 | -20.2 | -49.1 | 236 | 8 |
| 2009-06-01T00:00 | 7261 | 414 | -20.3 | -50.2 | 236 | 8 |
| 2009-06-01T00:00 | 7270 | 414 | -20.4 | -50.9 | 236 | 8 |
| 2009-06-01T00:00 | 7278 | 413 | -20.4 | -51.2 | 235 | 8 |
| 2009-06-01T00:00 | 7287 | 413 | -20.5 | -50.6 | 235 | 8 |
| 2009-06-01T00:00 | 7296 | 412 | -20.6 | -49.5 | 235 | 8 |
| 2009-06-01T00:00 | 7304 | 412 | -20.6 | -48.6 | 234 | 8 |
| 2009-06-01T00:00 | 7313 | 411 | -20.7 | -48.1 | 234 | 8 |
| 2009-06-01T00:00 | 7323 | 411 | -20.9 | -47.8 | 234 | 8 |
| 2009-06-01T00:00 | 7333 | 410 | -21.0 | -47.6 | 233 | 8 |
| 2009-06-01T00:00 | 7343 | 410 | -21.0 | -47.5 | 233 | 8 |
| 2009-06-01T00:00 | 7352 | 409 | -21.1 | -47.5 | 232 | 8 |
| 2009-06-01T00:00 | 7360 | 409 | -21.1 | -47.7 | 232 | 8 |
| 2009-06-01T00:00 | 7368 | 408 | -21.1 | -47.8 | 231 | 8 |
| 2009-06-01T00:00 | 7375 | 408 | -21.3 | -47.9 | 230 | 8 |
| 2009-06-01T00:00 | 7383 | 407 | -21.4 | -47.9 | 230 | 8 |
| 2009-06-01T00:00 | 7392 | 407 | -21.4 | -47.9 | 229 | 8 |
| 2009-06-01T00:00 | 7400 | 407 | -21.5 | -48.0 | 228 | 8 |
| 2009-06-01T00:00 | 7409 | 406 | -21.6 | -48.1 | 227 | 8 |
| 2009-06-01T00:00 | 7417 | 406 | -21.6 | -48.3 | 226 | 8 |
| 2009-06-01T00:00 | 7426 | 405 | -21.7 | -48.6 | 225 | 8 |
| 2009-06-01T00:00 | 7436 | 405 | -21.8 | -48.7 | 224 | 8 |
| 2009-06-01T00:00 | 7447 | 404 | -21.9 | -48.8 | 223 | 8 |
| 2009-06-01T00:00 | 7458 | 403 | -21.9 | -48.8 | 223 | 8 |
| 2009-06-01T00:00 | 7466 | 403 | -21.9 | -48.9 | 222 | 8 |
| 2009-06-01T00:00 | 7475 | 402 | -22.1 | -49.2 | 221 | 8 |
| 2009-06-01T00:00 | 7484 | 402 | -22.2 | -49.2 | 221 | 8 |
| 2009-06-01T00:00 | 7493 | 401 | -22.3 | -49.0 | 221 | 8 |
| 2009-06-01T00:00 | 7502 | 401 | -22.4 | -48.8 | 221 | 8 |
| 2009-06-01T00:00 | 7511 | 400 | -22.5 | -48.6 | 221 | 8 |
| 2009-06-01T00:00 | 7520 | 400 | -22.6 | -48.2 | 221 | 8 |
| 2009-06-01T00:00 | 7530 | 399 | -22.6 | -47.8 | 222 | 8 |
| 2009-06-01T00:00 | 7540 | 399 | -22.7 | -47.2 | 222 | 8 |
| 2009-06-01T00:00 | 7550 | 398 | -22.8 | -46.6 | 223 | 8 |
| 2009-06-01T00:00 | 7559 | 398 | -22.9 | -46.1 | 223 | 8 |
| 2009-06-01T00:00 | 7569 | 397 | -23.0 | -45.9 | 224 | 7 |
| 2009-06-01T00:00 | 7578 | 397 | -23.0 | -45.8 | 224 | 7 |
| 2009-06-01T00:00 | 7586 | 396 | -23.1 | -45.8 | 225 | 7 |
| 2009-06-01T00:00 | 7595 | 396 | -23.2 | -45.9 | 226 | 7 |
| 2009-06-01T00:00 | 7603 | 395 | -23.2 | -46.0 | 226 | 7 |
| 2009-06-01T00:00 | 7614 | 395 | -23.3 | -46.0 | 227 | 7 |
| 2009-06-01T00:00 | 7624 | 394 | -23.4 | -46.2 | 227 | 7 |
| 2009-06-01T00:00 | 7635 | 394 | -23.5 | -46.4 | 228 | 7 |
| 2009-06-01T00:00 | 7645 | 393 | -23.5 | -46.5 | 228 | 7 |
| 2009-06-01T00:00 | 7654 | 393 | -23.6 | -46.4 | 228 | 7 |
| 2009-06-01T00:00 | 7663 | 392 | -23.7 | -46.3 | 229 | 7 |
| 2009-06-01T00:00 | 7672 | 392 | -23.8 | -46.2 | 229 | 7 |
| 2009-06-01T00:00 | 7681 | 391 | -23.8 | -46.2 | 229 | 7 |
| 2009-06-01T00:00 | 7690 | 391 | -23.9 | -46.2 | 229 | 7 |
| 2009-06-01T00:00 | 7697 | 390 | -23.9 | -46.1 | 230 | 8 |
| 2009-06-01T00:00 | 7706 | 390 | -24.0 | -46.0 | 230 | 8 |
| 2009-06-01T00:00 | 7714 | 389 | -24.1 | -45.8 | 230 | 8 |
| 2009-06-01T00:00 | 7722 | 389 | -24.2 | -45.6 | 230 | 8 |
| 2009-06-01T00:00 | 7731 | 389 | -24.3 | -45.6 | 229 | 7 |
| 2009-06-01T00:00 | 7741 | 388 | -24.4 | -45.6 | 229 | 7 |
| 2009-06-01T00:00 | 7750 | 388 | -24.5 | -45.7 | 229 | 7 |
| 2009-06-01T00:00 | 7760 | 387 | -24.5 | -45.7 | 229 | 7 |
| 2009-06-01T00:00 | 7769 | 387 | -24.6 | -45.8 | 228 | 7 |
| 2009-06-01T00:00 | 7777 | 386 | -24.7 | -45.9 | 228 | 7 |
| 2009-06-01T00:00 | 7787 | 386 | -24.8 | -46.0 | 227 | 7 |
| 2009-06-01T00:00 | 7796 | 385 | -24.9 | -46.0 | 227 | 7 |
| 2009-06-01T00:00 | 7806 | 385 | -25.0 | -46.0 | 226 | 7 |
| 2009-06-01T00:00 | 7815 | 384 | -25.1 | -46.0 | 226 | 7 |
| 2009-06-01T00:00 | 7825 | 384 | -25.2 | -46.1 | 226 | 7 |
| 2009-06-01T00:00 | 7833 | 383 | -25.2 | -46.1 | 225 | 7 |
| 2009-06-01T00:00 | 7841 | 383 | -25.3 | -46.1 | 225 | 7 |
| 2009-06-01T00:00 | 7850 | 382 | -25.4 | -46.2 | 225 | 7 |
| 2009-06-01T00:00 | 7859 | 382 | -25.5 | -46.3 | 225 | 7 |
| 2009-06-01T00:00 | 7867 | 381 | -25.5 | -46.3 | 225 | 7 |
| 2009-06-01T00:00 | 7875 | 381 | -25.6 | -46.4 | 225 | 7 |
| 2009-06-01T00:00 | 7884 | 380 | -25.7 | -46.5 | 225 | 7 |
| 2009-06-01T00:00 | 7894 | 380 | -25.8 | -46.6 | 225 | 7 |
| 2009-06-01T00:00 | 7907 | 379 | -25.9 | -46.6 | 225 | 7 |
| 2009-06-01T00:00 | 7920 | 379 | -26.0 | -46.7 | 225 | 7 |
| 2009-06-01T00:00 | 7932 | 378 | -26.1 | -46.7 | 225 | 7 |
| 2009-06-01T00:00 | 7944 | 377 | -26.2 | -46.6 | 225 | 7 |
| 2009-06-01T00:00 | 7956 | 377 | -26.4 | -46.5 | 226 | 7 |
| 2009-06-01T00:00 | 7966 | 376 | -26.5 | -46.3 | 226 | 7 |
| 2009-06-01T00:00 | 7976 | 376 | -26.5 | -46.1 | 227 | 7 |
| 2009-06-01T00:00 | 7986 | 375 | -26.6 | -46.0 | 228 | 7 |
| 2009-06-01T00:00 | 7996 | 375 | -26.7 | -46.0 | 229 | 7 |
| 2009-06-01T00:00 | 8007 | 374 | -26.7 | -46.2 | 230 | 7 |
| 2009-06-01T00:00 | 8018 | 373 | -26.8 | -46.4 | 231 | 7 |
| 2009-06-01T00:00 | 8029 | 373 | -26.8 | -46.7 | 232 | 7 |
| 2009-06-01T00:00 | 8040 | 372 | -26.9 | -46.9 | 233 | 7 |
| 2009-06-01T00:00 | 8052 | 372 | -27.0 | -47.1 | 233 | 7 |
| 2009-06-01T00:00 | 8065 | 371 | -27.1 | -47.3 | 234 | 7 |
| 2009-06-01T00:00 | 8077 | 370 | -27.2 | -47.4 | 235 | 7 |
| 2009-06-01T00:00 | 8087 | 370 | -27.3 | -47.5 | 235 | 7 |
| 2009-06-01T00:00 | 8097 | 369 | -27.4 | -47.6 | 236 | 7 |
| 2009-06-01T00:00 | 8107 | 369 | -27.5 | -47.6 | 236 | 7 |
| 2009-06-01T00:00 | 8116 | 368 | -27.5 | -47.6 | 237 | 8 |
| 2009-06-01T00:00 | 8124 | 368 | -27.6 | -47.7 | 237 | 8 |
| 2009-06-01T00:00 | 8132 | 368 | -27.7 | -47.8 | 237 | 8 |
| 2009-06-01T00:00 | 8142 | 367 | -27.8 | -47.8 | 237 | 8 |
| 2009-06-01T00:00 | 8153 | 367 | -27.9 | -47.8 | 237 | 8 |
| 2009-06-01T00:00 | 8163 | 366 | -28.0 | -47.8 | 238 | 8 |
| 2009-06-01T00:00 | 8173 | 366 | -28.1 | -47.8 | 238 | 8 |
| 2009-06-01T00:00 | 8182 | 365 | -28.2 | -47.8 | 238 | 8 |
| 2009-06-01T00:00 | 8191 | 365 | -28.3 | -47.8 | 238 | 8 |
| 2009-06-01T00:00 | 8200 | 364 | -28.3 | -47.8 | 239 | 8 |
| 2009-06-01T00:00 | 8209 | 364 | -28.4 | -47.8 | 239 | 8 |
| 2009-06-01T00:00 | 8217 | 363 | -28.5 | -47.8 | 239 | 8 |
| 2009-06-01T00:00 | 8226 | 363 | -28.6 | -47.7 | 239 | 8 |
| 2009-06-01T00:00 | 8236 | 362 | -28.7 | -47.6 | 239 | 8 |
| 2009-06-01T00:00 | 8245 | 362 | -28.8 | -47.6 | 239 | 8 |
| 2009-06-01T00:00 | 8253 | 361 | -28.8 | -47.5 | 239 | 8 |
| 2009-06-01T00:00 | 8262 | 361 | -28.9 | -47.4 | 239 | 8 |
| 2009-06-01T00:00 | 8270 | 361 | -29.0 | -47.4 | 239 | 8 |
| 2009-06-01T00:00 | 8279 | 360 | -29.1 | -47.5 | 238 | 8 |
| 2009-06-01T00:00 | 8288 | 360 | -29.2 | -47.6 | 238 | 8 |
| 2009-06-01T00:00 | 8296 | 359 | -29.2 | -47.7 | 238 | 8 |
| 2009-06-01T00:00 | 8304 | 359 | -29.3 | -47.7 | 237 | 8 |
| 2009-06-01T00:00 | 8313 | 358 | -29.4 | -47.7 | 237 | 8 |
| 2009-06-01T00:00 | 8322 | 358 | -29.5 | -47.8 | 237 | 8 |
| 2009-06-01T00:00 | 8332 | 357 | -29.5 | -47.8 | 237 | 8 |
| 2009-06-01T00:00 | 8341 | 357 | -29.6 | -47.7 | 237 | 8 |
| 2009-06-01T00:00 | 8350 | 357 | -29.7 | -47.7 | 237 | 8 |
| 2009-06-01T00:00 | 8358 | 356 | -29.8 | -47.7 | 237 | 8 |
| 2009-06-01T00:00 | 8366 | 356 | -29.8 | -47.8 | 237 | 8 |
| 2009-06-01T00:00 | 8375 | 355 | -29.9 | -47.9 | 238 | 8 |
| 2009-06-01T00:00 | 8385 | 355 | -30.0 | -47.9 | 238 | 8 |
| 2009-06-01T00:00 | 8393 | 354 | -30.1 | -48.0 | 238 | 8 |
| 2009-06-01T00:00 | 8402 | 354 | -30.1 | -48.1 | 239 | 8 |
| 2009-06-01T00:00 | 8410 | 354 | -30.1 | -48.5 | 239 | 8 |
| 2009-06-01T00:00 | 8418 | 353 | -30.2 | -48.8 | 239 | 8 |
| 2009-06-01T00:00 | 8426 | 353 | -30.2 | -49.0 | 240 | 8 |
| 2009-06-01T00:00 | 8432 | 352 | -30.3 | -49.2 | 240 | 9 |
| 2009-06-01T00:00 | 8440 | 352 | -30.3 | -49.3 | 240 | 9 |
| 2009-06-01T00:00 | 8448 | 352 | -30.4 | -49.5 | 240 | 9 |
| 2009-06-01T00:00 | 8457 | 351 | -30.5 | -49.6 | 240 | 9 |
| 2009-06-01T00:00 | 8465 | 351 | -30.6 | -49.7 | 240 | 9 |
| 2009-06-01T00:00 | 8474 | 350 | -30.7 | -49.8 | 240 | 9 |
| 2009-06-01T00:00 | 8483 | 350 | -30.7 | -49.8 | 240 | 9 |
| 2009-06-01T00:00 | 8492 | 350 | -30.8 | -49.8 | 240 | 9 |
| 2009-06-01T00:00 | 8500 | 349 | -30.8 | -49.9 | 240 | 9 |
| 2009-06-01T00:00 | 8509 | 349 | -31.0 | -49.9 | 240 | 9 |
| 2009-06-01T00:00 | 8518 | 348 | -31.1 | -50.0 | 240 | 9 |
| 2009-06-01T00:00 | 8526 | 348 | -31.1 | -50.0 | 241 | 9 |
| 2009-06-01T00:00 | 8535 | 347 | -31.2 | -50.1 | 241 | 8 |
| 2009-06-01T00:00 | 8545 | 347 | -31.3 | -50.1 | 241 | 8 |
| 2009-06-01T00:00 | 8555 | 346 | -31.4 | -50.2 | 241 | 8 |
| 2009-06-01T00:00 | 8565 | 346 | -31.5 | -50.2 | 242 | 8 |
| 2009-06-01T00:00 | 8574 | 345 | -31.6 | -50.2 | 242 | 8 |
| 2009-06-01T00:00 | 8583 | 345 | -31.7 | -50.3 | 242 | 8 |
| 2009-06-01T00:00 | 8592 | 345 | -31.7 | -50.3 | 242 | 8 |
| 2009-06-01T00:00 | 8601 | 344 | -31.8 | -50.3 | 242 | 8 |
| 2009-06-01T00:00 | 8610 | 344 | -31.9 | -50.3 | 241 | 8 |
| 2009-06-01T00:00 | 8618 | 343 | -32.0 | -50.4 | 241 | 8 |
| 2009-06-01T00:00 | 8627 | 343 | -32.1 | -50.6 | 241 | 8 |
| 2009-06-01T00:00 | 8636 | 342 | -32.2 | -50.6 | 240 | 8 |
| 2009-06-01T00:00 | 8644 | 342 | -32.2 | -50.7 | 240 | 8 |
| 2009-06-01T00:00 | 8653 | 342 | -32.3 | -50.7 | 240 | 8 |
| 2009-06-01T00:00 | 8664 | 341 | -32.4 | -50.7 | 239 | 8 |
| 2009-06-01T00:00 | 8673 | 341 | -32.5 | -50.7 | 239 | 8 |
| 2009-06-01T00:00 | 8683 | 340 | -32.6 | -50.8 | 239 | 8 |
| 2009-06-01T00:00 | 8692 | 340 | -32.7 | -50.8 | 239 | 8 |
| 2009-06-01T00:00 | 8701 | 339 | -32.7 | -51.0 | 239 | 8 |
| 2009-06-01T00:00 | 8711 | 339 | -32.8 | -51.2 | 239 | 8 |
| 2009-06-01T00:00 | 8719 | 338 | -32.8 | -51.3 | 239 | 8 |
| 2009-06-01T00:00 | 8728 | 338 | -32.9 | -51.3 | 239 | 8 |
| 2009-06-01T00:00 | 8738 | 338 | -32.9 | -51.4 | 239 | 8 |
| 2009-06-01T00:00 | 8747 | 337 | -33.0 | -51.6 | 240 | 8 |
| 2009-06-01T00:00 | 8757 | 337 | -33.0 | -51.8 | 240 | 8 |
| 2009-06-01T00:00 | 8766 | 336 | -33.1 | -52.0 | 240 | 8 |
| 2009-06-01T00:00 | 8776 | 336 | -33.2 | -52.3 | 240 | 8 |
| 2009-06-01T00:00 | 8784 | 335 | -33.2 | -52.5 | 239 | 8 |
| 2009-06-01T00:00 | 8793 | 335 | -33.3 | -52.6 | 239 | 8 |
| 2009-06-01T00:00 | 8802 | 335 | -33.4 | -52.8 | 239 | 8 |
| 2009-06-01T00:00 | 8809 | 334 | -33.4 | -52.9 | 238 | 8 |
| 2009-06-01T00:00 | 8818 | 334 | -33.5 | -52.9 | 237 | 8 |
| 2009-06-01T00:00 | 8828 | 333 | -33.6 | -53.0 | 236 | 8 |
| 2009-06-01T00:00 | 8837 | 333 | -33.7 | -53.2 | 236 | 8 |
| 2009-06-01T00:00 | 8845 | 332 | -33.7 | -53.4 | 235 | 8 |
| 2009-06-01T00:00 | 8853 | 332 | -33.8 | -53.6 | 234 | 8 |
| 2009-06-01T00:00 | 8863 | 332 | -33.8 | -53.9 | 233 | 8 |
| 2009-06-01T00:00 | 8873 | 331 | -33.9 | -54.0 | 232 | 8 |
| 2009-06-01T00:00 | 8883 | 331 | -34.0 | -54.1 | 231 | 8 |
| 2009-06-01T00:00 | 8892 | 330 | -34.1 | -54.2 | 231 | 8 |
| 2009-06-01T00:00 | 8902 | 330 | -34.2 | -54.4 | 230 | 8 |
| 2009-06-01T00:00 | 8911 | 329 | -34.2 | -54.5 | 230 | 8 |
| 2009-06-01T00:00 | 8921 | 329 | -34.3 | -54.7 | 230 | 8 |
| 2009-06-01T00:00 | 8931 | 328 | -34.4 | -54.9 | 230 | 8 |
| 2009-06-01T00:00 | 8941 | 328 | -34.5 | -55.0 | 230 | 8 |
| 2009-06-01T00:00 | 8951 | 327 | -34.6 | -55.2 | 231 | 8 |
| 2009-06-01T00:00 | 8962 | 327 | -34.7 | -55.2 | 231 | 8 |
| 2009-06-01T00:00 | 8972 | 326 | -34.8 | -55.2 | 231 | 8 |
| 2009-06-01T00:00 | 8981 | 326 | -34.9 | -55.1 | 232 | 8 |
| 2009-06-01T00:00 | 8990 | 326 | -34.9 | -55.0 | 232 | 8 |
| 2009-06-01T00:00 | 8999 | 325 | -35.0 | -54.9 | 232 | 8 |
| 2009-06-01T00:00 | 9008 | 325 | -35.1 | -55.0 | 233 | 8 |
| 2009-06-01T00:00 | 9018 | 324 | -35.2 | -55.1 | 233 | 8 |
| 2009-06-01T00:00 | 9027 | 324 | -35.2 | -55.2 | 233 | 8 |
| 2009-06-01T00:00 | 9037 | 323 | -35.3 | -55.4 | 234 | 8 |
| 2009-06-01T00:00 | 9047 | 323 | -35.4 | -55.5 | 234 | 8 |
| 2009-06-01T00:00 | 9055 | 323 | -35.5 | -55.6 | 234 | 8 |
| 2009-06-01T00:00 | 9064 | 322 | -35.6 | -55.7 | 234 | 8 |
| 2009-06-01T00:00 | 9073 | 322 | -35.6 | -55.7 | 235 | 8 |
| 2009-06-01T00:00 | 9082 | 321 | -35.7 | -55.7 | 235 | 8 |
| 2009-06-01T00:00 | 9091 | 321 | -35.8 | -55.7 | 235 | 8 |
| 2009-06-01T00:00 | 9101 | 320 | -35.9 | -55.7 | 235 | 8 |
| 2009-06-01T00:00 | 9111 | 320 | -36.0 | -55.8 | 235 | 8 |
| 2009-06-01T00:00 | 9122 | 320 | -36.1 | -55.8 | 234 | 8 |
| 2009-06-01T00:00 | 9132 | 319 | -36.2 | -55.9 | 234 | 8 |
| 2009-06-01T00:00 | 9142 | 319 | -36.3 | -56.0 | 234 | 8 |
| 2009-06-01T00:00 | 9152 | 318 | -36.4 | -56.2 | 233 | 8 |
| 2009-06-01T00:00 | 9163 | 318 | -36.5 | -56.4 | 233 | 8 |
| 2009-06-01T00:00 | 9173 | 317 | -36.5 | -56.5 | 233 | 8 |
| 2009-06-01T00:00 | 9181 | 317 | -36.6 | -56.6 | 232 | 8 |
| 2009-06-01T00:00 | 9190 | 316 | -36.7 | -56.7 | 232 | 8 |
| 2009-06-01T00:00 | 9198 | 316 | -36.8 | -56.7 | 232 | 8 |
| 2009-06-01T00:00 | 9206 | 316 | -36.8 | -56.7 | 232 | 8 |
| 2009-06-01T00:00 | 9214 | 315 | -36.9 | -56.7 | 232 | 8 |
| 2009-06-01T00:00 | 9222 | 315 | -37.0 | -56.7 | 232 | 8 |
| 2009-06-01T00:00 | 9231 | 315 | -37.1 | -56.7 | 232 | 8 |
| 2009-06-01T00:00 | 9239 | 314 | -37.2 | -56.7 | 232 | 8 |
| 2009-06-01T00:00 | 9247 | 314 | -37.2 | -56.8 | 232 | 8 |
| 2009-06-01T00:00 | 9256 | 313 | -37.3 | -56.9 | 232 | 8 |
| 2009-06-01T00:00 | 9267 | 313 | -37.4 | -56.9 | 232 | 8 |
| 2009-06-01T00:00 | 9277 | 312 | -37.5 | -57.0 | 232 | 8 |
| 2009-06-01T00:00 | 9287 | 312 | -37.6 | -57.0 | 232 | 8 |
| 2009-06-01T00:00 | 9298 | 311 | -37.7 | -57.0 | 232 | 8 |
| 2009-06-01T00:00 | 9309 | 311 | -37.8 | -57.0 | 232 | 9 |
| 2009-06-01T00:00 | 9319 | 311 | -37.9 | -57.0 | 232 | 9 |
| 2009-06-01T00:00 | 9328 | 310 | -38.0 | -57.0 | 232 | 9 |
| 2009-06-01T00:00 | 9337 | 310 | -38.1 | -57.1 | 232 | 9 |
| 2009-06-01T00:00 | 9347 | 309 | -38.2 | -57.1 | 232 | 9 |
| 2009-06-01T00:00 | 9357 | 309 | -38.3 | -57.1 | 232 | 9 |
| 2009-06-01T00:00 | 9367 | 308 | -38.4 | -57.1 | 231 | 9 |
| 2009-06-01T00:00 | 9378 | 308 | -38.4 | -57.1 | 231 | 9 |
| 2009-06-01T00:00 | 9388 | 307 | -38.5 | -57.2 | 231 | 9 |
| 2009-06-01T00:00 | 9398 | 307 | -38.6 | -57.2 | 232 | 10 |
| 2009-06-01T00:00 | 9407 | 307 | -38.6 | -57.3 | 232 | 10 |
| 2009-06-01T00:00 | 9417 | 306 | -38.7 | -57.5 | 232 | 10 |
| 2009-06-01T00:00 | 9426 | 306 | -38.9 | -57.8 | 232 | 10 |
| 2009-06-01T00:00 | 9434 | 305 | -39.0 | -58.0 | 232 | 10 |
| 2009-06-01T00:00 | 9443 | 305 | -39.0 | -58.2 | 232 | 10 |
| 2009-06-01T00:00 | 9452 | 305 | -39.1 | -58.5 | 232 | 10 |
| 2009-06-01T00:00 | 9461 | 304 | -39.1 | -58.6 | 233 | 10 |
| 2009-06-01T00:00 | 9470 | 304 | -39.2 | -58.7 | 233 | 10 |
| 2009-06-01T00:00 | 9480 | 303 | -39.3 | -58.8 | 233 | 10 |
| 2009-06-01T00:00 | 9489 | 303 | -39.4 | -58.9 | 233 | 10 |
| 2009-06-01T00:00 | 9498 | 303 | -39.5 | -58.9 | 232 | 10 |
| 2009-06-01T00:00 | 9507 | 302 | -39.6 | -59.0 | 232 | 9 |
| 2009-06-01T00:00 | 9515 | 302 | -39.7 | -59.0 | 232 | 9 |
| 2009-06-01T00:00 | 9524 | 301 | -39.7 | -59.1 | 232 | 9 |
| 2009-06-01T00:00 | 9532 | 301 | -39.8 | -59.0 | 232 | 9 |
| 2009-06-01T00:00 | 9541 | 301 | -39.9 | -58.9 | 231 | 9 |
| 2009-06-01T00:00 | 9549 | 300 | -39.9 | -58.9 | 231 | 9 |
| 2009-06-01T00:00 | 9557 | 300 | -40.0 | -58.9 | 231 | 9 |
| 2009-06-01T00:00 | 9564 | 300 | -40.1 | -59.0 | 231 | 9 |
| 2009-06-01T00:00 | 9572 | 299 | -40.1 | -59.1 | 230 | 9 |
| 2009-06-01T00:00 | 9580 | 299 | -40.2 | -59.1 | 230 | 9 |
| 2009-06-01T00:00 | 9589 | 299 | -40.3 | -59.2 | 230 | 9 |
| 2009-06-01T00:00 | 9597 | 298 | -40.3 | -59.3 | 230 | 9 |
| 2009-06-01T00:00 | 9606 | 298 | -40.4 | -59.5 | 230 | 10 |
| 2009-06-01T00:00 | 9614 | 297 | -40.5 | -59.6 | 230 | 10 |
| 2009-06-01T00:00 | 9624 | 297 | -40.6 | -59.5 | 230 | 10 |
| 2009-06-01T00:00 | 9634 | 297 | -40.7 | -59.5 | 230 | 10 |
| 2009-06-01T00:00 | 9645 | 296 | -40.8 | -59.5 | 231 | 10 |
| 2009-06-01T00:00 | 9654 | 296 | -40.8 | -59.4 | 231 | 10 |
| 2009-06-01T00:00 | 9664 | 295 | -40.9 | -59.5 | 231 | 10 |
| 2009-06-01T00:00 | 9673 | 295 | -41.0 | -59.6 | 231 | 10 |
| 2009-06-01T00:00 | 9681 | 295 | -41.1 | -60.0 | 231 | 10 |
| 2009-06-01T00:00 | 9690 | 294 | -41.2 | -60.4 | 232 | 10 |
| 2009-06-01T00:00 | 9699 | 294 | -41.3 | -60.7 | 232 | 10 |
| 2009-06-01T00:00 | 9708 | 293 | -41.4 | -60.9 | 232 | 10 |
| 2009-06-01T00:00 | 9717 | 293 | -41.4 | -61.0 | 232 | 10 |
| 2009-06-01T00:00 | 9725 | 293 | -41.5 | -60.9 | 232 | 10 |
| 2009-06-01T00:00 | 9733 | 292 | -41.6 | -60.8 | 232 | 10 |
| 2009-06-01T00:00 | 9741 | 292 | -41.6 | -60.9 | 233 | 10 |
| 2009-06-01T00:00 | 9750 | 292 | -41.7 | -61.0 | 232 | 10 |
| 2009-06-01T00:00 | 9758 | 291 | -41.7 | -61.2 | 232 | 10 |
| 2009-06-01T00:00 | 9767 | 291 | -41.8 | -61.3 | 232 | 10 |
| 2009-06-01T00:00 | 9776 | 290 | -41.9 | -61.4 | 232 | 10 |
| 2009-06-01T00:00 | 9784 | 290 | -42.0 | -61.5 | 232 | 10 |
| 2009-06-01T00:00 | 9793 | 290 | -42.0 | -61.5 | 232 | 10 |
| 2009-06-01T00:00 | 9802 | 289 | -42.1 | -61.5 | 231 | 10 |
| 2009-06-01T00:00 | 9810 | 289 | -42.2 | -61.5 | 231 | 10 |
| 2009-06-01T00:00 | 9819 | 289 | -42.3 | -61.4 | 231 | 10 |
| 2009-06-01T00:00 | 9828 | 288 | -42.4 | -61.4 | 231 | 10 |
| 2009-06-01T00:00 | 9836 | 288 | -42.4 | -61.4 | 231 | 10 |
| 2009-06-01T00:00 | 9845 | 287 | -42.5 | -61.4 | 232 | 10 |
| 2009-06-01T00:00 | 9854 | 287 | -42.6 | -61.6 | 232 | 11 |
| 2009-06-01T00:00 | 9864 | 287 | -42.7 | -61.8 | 232 | 11 |
| 2009-06-01T00:00 | 9875 | 286 | -42.7 | -62.0 | 233 | 11 |
| 2009-06-01T00:00 | 9885 | 286 | -42.8 | -62.1 | 233 | 11 |
| 2009-06-01T00:00 | 9894 | 285 | -42.9 | -62.2 | 234 | 11 |
| 2009-06-01T00:00 | 9903 | 285 | -42.9 | -62.3 | 234 | 11 |
| 2009-06-01T00:00 | 9912 | 285 | -43.0 | -62.3 | 235 | 11 |
| 2009-06-01T00:00 | 9919 | 284 | -43.1 | -62.4 | 235 | 11 |
| 2009-06-01T00:00 | 9928 | 284 | -43.1 | -62.5 | 235 | 11 |
| 2009-06-01T00:00 | 9936 | 284 | -43.2 | -62.6 | 235 | 12 |
| 2009-06-01T00:00 | 9944 | 283 | -43.3 | -62.6 | 236 | 12 |
| 2009-06-01T00:00 | 9953 | 283 | -43.4 | -62.7 | 236 | 12 |
| 2009-06-01T00:00 | 9961 | 283 | -43.4 | -62.7 | 236 | 12 |
| 2009-06-01T00:00 | 9969 | 282 | -43.5 | -62.8 | 236 | 12 |
| 2009-06-01T00:00 | 9977 | 282 | -43.6 | -62.8 | 236 | 12 |
| 2009-06-01T00:00 | 9986 | 282 | -43.6 | -62.9 | 236 | 12 |
| 2009-06-01T00:00 | 9994 | 281 | -43.7 | -62.9 | 236 | 12 |
| 2009-06-01T00:00 | 10003 | 281 | -43.8 | -63.0 | 237 | 12 |
| 2009-06-01T00:00 | 10012 | 280 | -43.9 | -63.1 | 237 | 12 |
| 2009-06-01T00:00 | 10023 | 280 | -44.0 | -63.1 | 237 | 12 |
| 2009-06-01T00:00 | 10034 | 280 | -44.1 | -63.2 | 238 | 12 |
| 2009-06-01T00:00 | 10045 | 279 | -44.2 | -63.3 | 238 | 12 |
| 2009-06-01T00:00 | 10056 | 279 | -44.3 | -63.4 | 238 | 12 |
| 2009-06-01T00:00 | 10065 | 278 | -44.3 | -63.5 | 239 | 12 |
| 2009-06-01T00:00 | 10075 | 278 | -44.4 | -63.6 | 239 | 12 |
| 2009-06-01T00:00 | 10085 | 277 | -44.5 | -63.8 | 239 | 12 |
| 2009-06-01T00:00 | 10094 | 277 | -44.6 | -63.9 | 239 | 12 |
| 2009-06-01T00:00 | 10102 | 277 | -44.6 | -64.0 | 239 | 12 |
| 2009-06-01T00:00 | 10111 | 276 | -44.7 | -64.2 | 239 | 12 |
| 2009-06-01T00:00 | 10118 | 276 | -44.8 | -64.3 | 239 | 12 |
| 2009-06-01T00:00 | 10126 | 276 | -44.9 | -64.4 | 239 | 12 |
| 2009-06-01T00:00 | 10134 | 275 | -44.9 | -64.5 | 239 | 12 |
| 2009-06-01T00:00 | 10143 | 275 | -45.0 | -64.6 | 239 | 12 |
| 2009-06-01T00:00 | 10151 | 275 | -45.1 | -64.8 | 239 | 12 |
| 2009-06-01T00:00 | 10159 | 274 | -45.2 | -64.8 | 239 | 12 |
| 2009-06-01T00:00 | 10168 | 274 | -45.2 | -64.8 | 239 | 12 |
| 2009-06-01T00:00 | 10176 | 274 | -45.3 | -64.8 | 239 | 12 |
| 2009-06-01T00:00 | 10185 | 273 | -45.4 | -64.8 | 239 | 12 |
| 2009-06-01T00:00 | 10194 | 273 | -45.5 | -64.7 | 239 | 12 |
| 2009-06-01T00:00 | 10202 | 273 | -45.6 | -64.7 | 239 | 12 |
| 2009-06-01T00:00 | 10211 | 272 | -45.6 | -64.6 | 239 | 12 |
| 2009-06-01T00:00 | 10219 | 272 | -45.7 | -64.7 | 239 | 12 |
| 2009-06-01T00:00 | 10227 | 272 | -45.8 | -64.7 | 239 | 12 |
| 2009-06-01T00:00 | 10235 | 271 | -45.8 | -64.7 | 239 | 12 |
| 2009-06-01T00:00 | 10242 | 271 | -45.9 | -64.7 | 239 | 12 |
| 2009-06-01T00:00 | 10251 | 271 | -46.0 | -64.7 | 239 | 12 |
| 2009-06-01T00:00 | 10260 | 270 | -46.1 | -64.7 | 239 | 12 |
| 2009-06-01T00:00 | 10270 | 270 | -46.2 | -64.7 | 239 | 12 |
| 2009-06-01T00:00 | 10278 | 269 | -46.3 | -64.7 | 239 | 12 |
| 2009-06-01T00:00 | 10286 | 269 | -46.3 | -64.7 | 239 | 12 |
| 2009-06-01T00:00 | 10295 | 269 | -46.4 | -64.7 | 239 | 12 |
| 2009-06-01T00:00 | 10303 | 268 | -46.5 | -64.7 | 239 | 12 |
| 2009-06-01T00:00 | 10311 | 268 | -46.6 | -64.7 | 239 | 12 |
| 2009-06-01T00:00 | 10318 | 268 | -46.6 | -64.6 | 239 | 12 |
| 2009-06-01T00:00 | 10326 | 268 | -46.7 | -64.6 | 239 | 12 |
| 2009-06-01T00:00 | 10334 | 267 | -46.8 | -64.6 | 239 | 12 |
| 2009-06-01T00:00 | 10343 | 267 | -46.8 | -64.6 | 239 | 12 |
| 2009-06-01T00:00 | 10351 | 267 | -46.9 | -64.6 | 240 | 12 |
| 2009-06-01T00:00 | 10358 | 266 | -46.9 | -64.7 | 240 | 12 |
| 2009-06-01T00:00 | 10366 | 266 | -47.0 | -64.8 | 240 | 12 |
| 2009-06-01T00:00 | 10375 | 266 | -47.0 | -64.9 | 240 | 12 |
| 2009-06-01T00:00 | 10384 | 265 | -47.1 | -65.0 | 241 | 12 |
| 2009-06-01T00:00 | 10392 | 265 | -47.2 | -65.1 | 241 | 13 |
| 2009-06-01T00:00 | 10400 | 265 | -47.2 | -65.1 | 241 | 13 |
| 2009-06-01T00:00 | 10409 | 264 | -47.3 | -65.1 | 241 | 13 |
| 2009-06-01T00:00 | 10418 | 264 | -47.4 | -65.2 | 242 | 13 |
| 2009-06-01T00:00 | 10427 | 263 | -47.5 | -65.3 | 242 | 13 |
| 2009-06-01T00:00 | 10437 | 263 | -47.6 | -65.4 | 242 | 13 |
| 2009-06-01T00:00 | 10445 | 263 | -47.6 | -65.4 | 242 | 13 |
| 2009-06-01T00:00 | 10454 | 262 | -47.7 | -65.5 | 242 | 13 |
| 2009-06-01T00:00 | 10462 | 262 | -47.8 | -65.5 | 242 | 13 |
| 2009-06-01T00:00 | 10472 | 262 | -47.9 | -65.6 | 242 | 13 |
| 2009-06-01T00:00 | 10480 | 261 | -47.9 | -65.6 | 242 | 13 |
| 2009-06-01T00:00 | 10488 | 261 | -48.0 | -65.7 | 242 | 13 |
| 2009-06-01T00:00 | 10496 | 261 | -48.1 | -65.8 | 241 | 13 |
| 2009-06-01T00:00 | 10504 | 260 | -48.2 | -65.9 | 241 | 13 |
| 2009-06-01T00:00 | 10513 | 260 | -48.2 | -66.1 | 241 | 13 |
| 2009-06-01T00:00 | 10521 | 260 | -48.3 | -66.2 | 242 | 13 |
| 2009-06-01T00:00 | 10529 | 259 | -48.3 | -66.4 | 242 | 13 |
| 2009-06-01T00:00 | 10537 | 259 | -48.4 | -66.5 | 242 | 13 |
| 2009-06-01T00:00 | 10545 | 259 | -48.5 | -66.6 | 242 | 13 |
| 2009-06-01T00:00 | 10555 | 258 | -48.5 | -66.5 | 242 | 13 |
| 2009-06-01T00:00 | 10564 | 258 | -48.6 | -66.5 | 242 | 13 |
| 2009-06-01T00:00 | 10573 | 258 | -48.7 | -66.5 | 242 | 13 |
| 2009-06-01T00:00 | 10582 | 257 | -48.8 | -66.5 | 242 | 13 |
| 2009-06-01T00:00 | 10590 | 257 | -48.9 | -66.5 | 243 | 13 |
| 2009-06-01T00:00 | 10599 | 257 | -49.0 | -66.5 | 243 | 13 |
| 2009-06-01T00:00 | 10607 | 256 | -49.0 | -66.5 | 243 | 13 |
| 2009-06-01T00:00 | 10614 | 256 | -49.1 | -66.5 | 243 | 13 |
| 2009-06-01T00:00 | 10622 | 256 | -49.2 | -66.4 | 243 | 13 |
| 2009-06-01T00:00 | 10631 | 255 | -49.2 | -66.4 | 243 | 13 |
| 2009-06-01T00:00 | 10640 | 255 | -49.3 | -66.3 | 243 | 13 |
| 2009-06-01T00:00 | 10649 | 255 | -49.4 | -66.2 | 243 | 13 |
| 2009-06-01T00:00 | 10657 | 254 | -49.5 | -66.1 | 243 | 13 |
| 2009-06-01T00:00 | 10665 | 254 | -49.6 | -66.1 | 243 | 13 |
| 2009-06-01T00:00 | 10675 | 254 | -49.6 | -66.1 | 243 | 13 |
| 2009-06-01T00:00 | 10683 | 253 | -49.7 | -66.1 | 244 | 13 |
| 2009-06-01T00:00 | 10691 | 253 | -49.7 | -66.1 | 244 | 13 |
| 2009-06-01T00:00 | 10700 | 253 | -49.8 | -66.1 | 244 | 13 |
| 2009-06-01T00:00 | 10708 | 252 | -49.9 | -66.2 | 244 | 13 |
| 2009-06-01T00:00 | 10717 | 252 | -50.0 | -66.3 | 244 | 13 |
| 2009-06-01T00:00 | 10725 | 252 | -50.0 | -66.3 | 244 | 13 |
| 2009-06-01T00:00 | 10733 | 251 | -50.1 | -66.4 | 245 | 13 |
| 2009-06-01T00:00 | 10741 | 251 | -50.2 | -66.4 | 245 | 13 |
| 2009-06-01T00:00 | 10749 | 251 | -50.2 | -66.5 | 245 | 13 |
| 2009-06-01T00:00 | 10758 | 251 | -50.3 | -66.5 | 245 | 13 |
| 2009-06-01T00:00 | 10765 | 250 | -50.4 | -66.5 | 245 | 13 |
| 2009-06-01T00:00 | 10773 | 250 | -50.4 | -66.5 | 245 | 13 |
| 2009-06-01T00:00 | 10781 | 250 | -50.5 | -66.5 | 245 | 13 |
| 2009-06-01T00:00 | 10789 | 249 | -50.6 | -66.5 | 245 | 13 |
| 2009-06-01T00:00 | 10797 | 249 | -50.6 | -66.6 | 245 | 13 |
| 2009-06-01T00:00 | 10805 | 249 | -50.7 | -66.6 | 245 | 13 |
| 2009-06-01T00:00 | 10813 | 248 | -50.8 | -66.7 | 245 | 13 |
| 2009-06-01T00:00 | 10821 | 248 | -50.8 | -66.7 | 244 | 13 |
| 2009-06-01T00:00 | 10829 | 248 | -50.9 | -66.8 | 244 | 12 |
| 2009-06-01T00:00 | 10837 | 247 | -51.0 | -66.9 | 244 | 12 |
| 2009-06-01T00:00 | 10846 | 247 | -51.0 | -66.9 | 244 | 12 |
| 2009-06-01T00:00 | 10854 | 247 | -51.1 | -67.0 | 244 | 12 |
| 2009-06-01T00:00 | 10863 | 247 | -51.2 | -67.0 | 244 | 12 |
| 2009-06-01T00:00 | 10871 | 246 | -51.3 | -67.1 | 244 | 12 |
| 2009-06-01T00:00 | 10880 | 246 | -51.3 | -67.2 | 243 | 12 |
| 2009-06-01T00:00 | 10888 | 246 | -51.4 | -67.2 | 243 | 12 |
| 2009-06-01T00:00 | 10897 | 245 | -51.5 | -67.2 | 243 | 12 |
| 2009-06-01T00:00 | 10906 | 245 | -51.5 | -67.3 | 243 | 12 |
| 2009-06-01T00:00 | 10915 | 245 | -51.6 | -67.4 | 242 | 12 |
| 2009-06-01T00:00 | 10923 | 244 | -51.7 | -67.4 | 242 | 12 |
| 2009-06-01T00:00 | 10933 | 244 | -51.7 | -67.5 | 242 | 12 |
| 2009-06-01T00:00 | 10942 | 244 | -51.8 | -67.6 | 241 | 12 |
| 2009-06-01T00:00 | 10950 | 243 | -51.9 | -67.7 | 241 | 12 |
| 2009-06-01T00:00 | 10959 | 243 | -51.9 | -67.8 | 241 | 12 |
| 2009-06-01T00:00 | 10967 | 243 | -52.0 | -67.9 | 241 | 12 |
| 2009-06-01T00:00 | 10975 | 242 | -52.1 | -68.0 | 241 | 12 |
| 2009-06-01T00:00 | 10984 | 242 | -52.1 | -68.1 | 241 | 12 |
| 2009-06-01T00:00 | 10992 | 242 | -52.1 | -68.1 | 241 | 12 |
| 2009-06-01T00:00 | 11001 | 241 | -52.2 | -68.2 | 241 | 12 |
| 2009-06-01T00:00 | 11009 | 241 | -52.3 | -68.3 | 241 | 12 |
| 2009-06-01T00:00 | 11018 | 241 | -52.3 | -68.4 | 241 | 12 |
| 2009-06-01T00:00 | 11026 | 240 | -52.4 | -68.5 | 242 | 12 |
| 2009-06-01T00:00 | 11035 | 240 | -52.5 | -68.6 | 242 | 12 |
| 2009-06-01T00:00 | 11043 | 240 | -52.6 | -68.7 | 242 | 13 |
| 2009-06-01T00:00 | 11052 | 239 | -52.6 | -68.8 | 242 | 13 |
| 2009-06-01T00:00 | 11060 | 239 | -52.7 | -68.9 | 242 | 13 |
| 2009-06-01T00:00 | 11068 | 239 | -52.7 | -69.0 | 242 | 13 |
| 2009-06-01T00:00 | 11076 | 239 | -52.8 | -69.2 | 242 | 13 |
| 2009-06-01T00:00 | 11085 | 238 | -52.8 | -69.3 | 242 | 13 |
| 2009-06-01T00:00 | 11093 | 238 | -52.9 | -69.3 | 242 | 13 |
| 2009-06-01T00:00 | 11101 | 238 | -52.9 | -69.4 | 241 | 13 |
| 2009-06-01T00:00 | 11109 | 237 | -53.0 | -69.5 | 241 | 13 |
| 2009-06-01T00:00 | 11117 | 237 | -53.0 | -69.7 | 241 | 13 |
| 2009-06-01T00:00 | 11126 | 237 | -53.0 | -69.8 | 241 | 13 |
| 2009-06-01T00:00 | 11134 | 236 | -53.0 | -69.9 | 241 | 14 |
| 2009-06-01T00:00 | 11142 | 236 | -53.1 | -70.0 | 240 | 14 |
| 2009-06-01T00:00 | 11150 | 236 | -53.1 | -70.2 | 240 | 14 |
| 2009-06-01T00:00 | 11158 | 236 | -53.1 | -70.3 | 240 | 14 |
| 2009-06-01T00:00 | 11166 | 235 | -53.2 | -70.4 | 240 | 14 |
| 2009-06-01T00:00 | 11174 | 235 | -53.2 | -70.5 | 240 | 14 |
| 2009-06-01T00:00 | 11183 | 235 | -53.3 | -70.7 | 240 | 14 |
| 2009-06-01T00:00 | 11192 | 234 | -53.4 | -70.8 | 240 | 14 |
| 2009-06-01T00:00 | 11201 | 234 | -53.5 | -70.9 | 241 | 14 |
| 2009-06-01T00:00 | 11211 | 234 | -53.5 | -70.9 | 241 | 14 |
| 2009-06-01T00:00 | 11220 | 233 | -53.5 | -70.9 | 241 | 14 |
| 2009-06-01T00:00 | 11228 | 233 | -53.6 | -70.9 | 242 | 14 |
| 2009-06-01T00:00 | 11236 | 233 | -53.6 | -70.9 | 243 | 14 |
| 2009-06-01T00:00 | 11245 | 232 | -53.6 | -71.0 | 243 | 14 |
| 2009-06-01T00:00 | 11255 | 232 | -53.7 | -71.1 | 244 | 14 |
| 2009-06-01T00:00 | 11264 | 232 | -53.8 | -71.2 | 245 | 14 |
| 2009-06-01T00:00 | 11272 | 231 | -53.9 | -71.3 | 246 | 14 |
| 2009-06-01T00:00 | 11281 | 231 | -54.0 | -71.4 | 246 | 14 |
| 2009-06-01T00:00 | 11289 | 231 | -54.1 | -71.5 | 247 | 14 |
| 2009-06-01T00:00 | 11297 | 230 | -54.1 | -71.5 | 247 | 14 |
| 2009-06-01T00:00 | 11305 | 230 | -54.2 | -71.6 | 248 | 14 |
| 2009-06-01T00:00 | 11313 | 230 | -54.2 | -71.6 | 248 | 14 |
| 2009-06-01T00:00 | 11321 | 230 | -54.3 | -71.7 | 248 | 14 |
| 2009-06-01T00:00 | 11330 | 229 | -54.3 | -71.8 | 248 | 14 |
| 2009-06-01T00:00 | 11338 | 229 | -54.4 | -72.0 | 248 | 14 |
| 2009-06-01T00:00 | 11348 | 229 | -54.6 | -72.2 | 248 | 14 |
| 2009-06-01T00:00 | 11356 | 228 | -54.7 | -72.4 | 248 | 14 |
| 2009-06-01T00:00 | 11365 | 228 | -54.8 | -72.5 | 248 | 14 |
| 2009-06-01T00:00 | 11373 | 228 | -54.8 | -72.5 | 248 | 14 |
| 2009-06-01T00:00 | 11381 | 227 | -54.9 | -72.5 | 248 | 14 |
| 2009-06-01T00:00 | 11391 | 227 | -55.0 | -72.6 | 248 | 14 |
| 2009-06-01T00:00 | 11400 | 227 | -55.1 | -72.7 | 248 | 14 |
| 2009-06-01T00:00 | 11410 | 226 | -55.1 | -72.7 | 248 | 14 |
| 2009-06-01T00:00 | 11420 | 226 | -55.2 | -72.7 | 248 | 14 |
| 2009-06-01T00:00 | 11431 | 226 | -55.4 | -72.8 | 249 | 14 |
| 2009-06-01T00:00 | 11442 | 225 | -55.4 | -72.9 | 249 | 14 |
| 2009-06-01T00:00 | 11452 | 225 | -55.5 | -72.9 | 249 | 14 |
| 2009-06-01T00:00 | 11461 | 225 | -55.6 | -72.9 | 249 | 14 |
| 2009-06-01T00:00 | 11470 | 224 | -55.7 | -73.0 | 249 | 14 |
| 2009-06-01T00:00 | 11481 | 224 | -55.8 | -73.1 | 249 | 14 |
| 2009-06-01T00:00 | 11491 | 224 | -55.9 | -73.2 | 249 | 14 |
| 2009-06-01T00:00 | 11501 | 223 | -56.0 | -73.3 | 249 | 14 |
| 2009-06-01T00:00 | 11509 | 223 | -56.1 | -73.4 | 249 | 14 |
| 2009-06-01T00:00 | 11519 | 223 | -56.2 | -73.4 | 249 | 14 |
| 2009-06-01T00:00 | 11528 | 222 | -56.3 | -73.5 | 248 | 14 |
| 2009-06-01T00:00 | 11537 | 222 | -56.3 | -73.5 | 248 | 14 |
| 2009-06-01T00:00 | 11546 | 222 | -56.4 | -73.5 | 248 | 14 |
| 2009-06-01T00:00 | 11554 | 221 | -56.4 | -73.5 | 247 | 14 |
| 2009-06-01T00:00 | 11563 | 221 | -56.5 | -73.5 | 247 | 14 |
| 2009-06-01T00:00 | 11573 | 221 | -56.5 | -73.5 | 246 | 14 |
| 2009-06-01T00:00 | 11582 | 220 | -56.5 | -73.5 | 246 | 14 |
| 2009-06-01T00:00 | 11591 | 220 | -56.5 | -73.6 | 246 | 14 |
| 2009-06-01T00:00 | 11600 | 220 | -56.6 | -73.7 | 245 | 14 |
| 2009-06-01T00:00 | 11609 | 219 | -56.7 | -73.7 | 245 | 14 |
| 2009-06-01T00:00 | 11618 | 219 | -56.7 | -73.8 | 244 | 14 |
| 2009-06-01T00:00 | 11627 | 219 | -56.7 | -73.8 | 244 | 15 |
| 2009-06-01T00:00 | 11636 | 219 | -56.8 | -73.8 | 243 | 15 |
| 2009-06-01T00:00 | 11645 | 218 | -56.9 | -73.8 | 243 | 15 |
| 2009-06-01T00:00 | 11654 | 218 | -57.0 | -73.9 | 242 | 15 |
| 2009-06-01T00:00 | 11663 | 218 | -57.0 | -74.0 | 241 | 15 |
| 2009-06-01T00:00 | 11672 | 217 | -57.1 | -74.0 | 241 | 15 |
| 2009-06-01T00:00 | 11681 | 217 | -57.2 | -74.0 | 240 | 16 |
| 2009-06-01T00:00 | 11690 | 217 | -57.3 | -74.1 | 240 | 16 |
| 2009-06-01T00:00 | 11699 | 216 | -57.3 | -74.1 | 240 | 16 |
| 2009-06-01T00:00 | 11707 | 216 | -57.4 | -74.1 | 239 | 16 |
| 2009-06-01T00:00 | 11717 | 216 | -57.5 | -74.1 | 239 | 16 |
| 2009-06-01T00:00 | 11727 | 215 | -57.6 | -74.2 | 239 | 16 |
| 2009-06-01T00:00 | 11736 | 215 | -57.6 | -74.2 | 239 | 17 |
| 2009-06-01T00:00 | 11746 | 215 | -57.7 | -74.2 | 239 | 17 |
| 2009-06-01T00:00 | 11755 | 214 | -57.8 | -74.2 | 239 | 17 |
| 2009-06-01T00:00 | 11765 | 214 | -57.8 | -74.2 | 239 | 17 |
| 2009-06-01T00:00 | 11775 | 214 | -57.9 | -74.2 | 239 | 17 |
| 2009-06-01T00:00 | 11784 | 213 | -58.0 | -74.2 | 239 | 17 |
| 2009-06-01T00:00 | 11793 | 213 | -58.1 | -74.3 | 239 | 17 |
| 2009-06-01T00:00 | 11802 | 213 | -58.2 | -74.4 | 239 | 17 |
| 2009-06-01T00:00 | 11812 | 213 | -58.3 | -74.4 | 239 | 17 |
| 2009-06-01T00:00 | 11821 | 212 | -58.3 | -74.5 | 239 | 17 |
| 2009-06-01T00:00 | 11830 | 212 | -58.4 | -74.5 | 240 | 17 |
| 2009-06-01T00:00 | 11839 | 212 | -58.5 | -74.5 | 240 | 17 |
| 2009-06-01T00:00 | 11849 | 211 | -58.6 | -74.5 | 240 | 17 |
| 2009-06-01T00:00 | 11857 | 211 | -58.6 | -74.5 | 240 | 17 |
| 2009-06-01T00:00 | 11867 | 211 | -58.7 | -74.5 | 240 | 17 |
| 2009-06-01T00:00 | 11876 | 210 | -58.8 | -74.5 | 240 | 18 |
| 2009-06-01T00:00 | 11885 | 210 | -58.9 | -74.6 | 240 | 18 |
| 2009-06-01T00:00 | 11894 | 210 | -59.0 | -74.6 | 240 | 18 |
| 2009-06-01T00:00 | 11904 | 209 | -59.1 | -74.6 | 240 | 18 |
| 2009-06-01T00:00 | 11913 | 209 | -59.2 | -74.6 | 240 | 18 |
| 2009-06-01T00:00 | 11922 | 209 | -59.2 | -74.6 | 240 | 18 |
| 2009-06-01T00:00 | 11932 | 209 | -59.2 | -74.6 | 240 | 18 |
| 2009-06-01T00:00 | 11941 | 208 | -59.3 | -74.6 | 240 | 18 |
| 2009-06-01T00:00 | 11951 | 208 | -59.4 | -74.6 | 241 | 19 |
| 2009-06-01T00:00 | 11961 | 208 | -59.5 | -74.6 | 241 | 19 |
| 2009-06-01T00:00 | 11971 | 207 | -59.6 | -74.7 | 241 | 19 |
| 2009-06-01T00:00 | 11981 | 207 | -59.7 | -74.7 | 242 | 19 |
| 2009-06-01T00:00 | 11990 | 207 | -59.8 | -74.7 | 242 | 19 |
| 2009-06-01T00:00 | 11999 | 206 | -59.9 | -74.7 | 242 | 19 |
| 2009-06-01T00:00 | 12008 | 206 | -60.0 | -74.7 | 243 | 19 |
| 2009-06-01T00:00 | 12018 | 206 | -60.0 | -74.8 | 243 | 20 |
| 2009-06-01T00:00 | 12028 | 205 | -60.1 | -74.8 | 243 | 20 |
| 2009-06-01T00:00 | 12037 | 205 | -60.2 | -74.8 | 244 | 20 |
| 2009-06-01T00:00 | 12045 | 205 | -60.2 | -74.8 | 244 | 20 |
| 2009-06-01T00:00 | 12054 | 204 | -60.3 | -74.8 | 244 | 20 |
| 2009-06-01T00:00 | 12063 | 204 | -60.4 | -74.8 | 245 | 20 |
| 2009-06-01T00:00 | 12072 | 204 | -60.5 | -74.8 | 245 | 20 |
| 2009-06-01T00:00 | 12080 | 204 | -60.5 | -74.8 | 245 | 20 |
| 2009-06-01T00:00 | 12089 | 203 | -60.5 | -74.8 | 245 | 20 |
| 2009-06-01T00:00 | 12098 | 203 | -60.5 | -74.9 | 246 | 20 |
| 2009-06-01T00:00 | 12106 | 203 | -60.6 | -74.9 | 246 | 20 |
| 2009-06-01T00:00 | 12115 | 202 | -60.7 | -75.0 | 246 | 20 |
| 2009-06-01T00:00 | 12124 | 202 | -60.7 | -75.0 | 246 | 20 |
| 2009-06-01T00:00 | 12133 | 202 | -60.8 | -75.1 | 246 | 20 |
| 2009-06-01T00:00 | 12142 | 202 | -60.8 | -75.1 | 247 | 20 |
| 2009-06-01T00:00 | 12152 | 201 | -60.9 | -75.1 | 247 | 20 |
| 2009-06-01T00:00 | 12161 | 201 | -60.9 | -75.1 | 247 | 20 |
| 2009-06-01T00:00 | 12169 | 201 | -61.0 | -75.2 | 247 | 20 |
| 2009-06-01T00:00 | 12177 | 200 | -61.1 | -75.2 | 247 | 20 |
| 2009-06-01T00:00 | 12185 | 200 | -61.2 | -75.2 | 247 | 20 |
| 2009-06-01T00:00 | 12194 | 200 | -61.2 | -75.3 | 247 | 20 |
| 2009-06-01T00:00 | 12203 | 200 | -61.3 | -75.3 | 247 | 20 |
| 2009-06-01T00:00 | 12212 | 199 | -61.3 | -75.3 | 247 | 20 |
| 2009-06-01T00:00 | 12220 | 199 | -61.3 | -75.3 | 248 | 21 |
| 2009-06-01T00:00 | 12227 | 199 | -61.3 | -75.2 | 248 | 21 |
| 2009-06-01T00:00 | 12235 | 199 | -61.3 | -75.2 | 248 | 21 |
| 2009-06-01T00:00 | 12244 | 198 | -61.3 | -75.2 | 248 | 21 |
| 2009-06-01T00:00 | 12252 | 198 | -61.3 | -75.2 | 248 | 21 |
| 2009-06-01T00:00 | 12261 | 198 | -61.2 | -75.2 | 248 | 21 |
| 2009-06-01T00:00 | 12269 | 198 | -61.2 | -75.1 | 248 | 21 |
| 2009-06-01T00:00 | 12278 | 197 | -61.2 | -75.1 | 249 | 21 |
| 2009-06-01T00:00 | 12287 | 197 | -61.2 | -75.1 | 249 | 21 |
| 2009-06-01T00:00 | 12296 | 197 | -61.3 | -75.1 | 249 | 21 |
| 2009-06-01T00:00 | 12305 | 196 | -61.3 | -75.1 | 249 | 21 |
| 2009-06-01T00:00 | 12314 | 196 | -61.4 | -75.2 | 249 | 21 |
| 2009-06-01T00:00 | 12323 | 196 | -61.5 | -75.2 | 249 | 21 |
| 2009-06-01T00:00 | 12333 | 195 | -61.5 | -75.3 | 250 | 22 |
| 2009-06-01T00:00 | 12342 | 195 | -61.6 | -75.3 | 250 | 22 |
| 2009-06-01T00:00 | 12351 | 195 | -61.7 | -75.3 | 250 | 22 |
| 2009-06-01T00:00 | 12360 | 195 | -61.7 | -75.3 | 250 | 22 |
| 2009-06-01T00:00 | 12369 | 194 | -61.8 | -75.3 | 250 | 22 |
| 2009-06-01T00:00 | 12377 | 194 | -61.8 | -75.3 | 250 | 22 |
| 2009-06-01T00:00 | 12387 | 194 | -61.9 | -75.4 | 250 | 22 |
| 2009-06-01T00:00 | 12396 | 194 | -61.9 | -75.3 | 250 | 22 |
| 2009-06-01T00:00 | 12405 | 193 | -61.9 | -75.3 | 250 | 22 |
| 2009-06-01T00:00 | 12414 | 193 | -61.9 | -75.3 | 250 | 22 |
| 2009-06-01T00:00 | 12422 | 193 | -61.9 | -75.3 | 250 | 22 |
| 2009-06-01T00:00 | 12431 | 192 | -62.0 | -75.3 | 250 | 22 |
| 2009-06-01T00:00 | 12440 | 192 | -62.0 | -75.4 | 250 | 22 |
| 2009-06-01T00:00 | 12449 | 192 | -62.1 | -75.4 | 250 | 22 |
| 2009-06-01T00:00 | 12459 | 192 | -62.2 | -75.5 | 250 | 22 |
| 2009-06-01T00:00 | 12467 | 191 | -62.2 | -75.5 | 250 | 22 |
| 2009-06-01T00:00 | 12475 | 191 | -62.3 | -75.6 | 250 | 22 |
| 2009-06-01T00:00 | 12483 | 191 | -62.4 | -75.6 | 250 | 22 |
| 2009-06-01T00:00 | 12492 | 191 | -62.5 | -75.5 | 250 | 22 |
| 2009-06-01T00:00 | 12501 | 190 | -62.5 | -75.4 | 250 | 22 |
| 2009-06-01T00:00 | 12510 | 190 | -62.5 | -75.5 | 250 | 22 |
| 2009-06-01T00:00 | 12520 | 190 | -62.6 | -75.5 | 251 | 22 |
| 2009-06-01T00:00 | 12530 | 189 | -62.6 | -75.6 | 251 | 22 |
| 2009-06-01T00:00 | 12539 | 189 | -62.7 | -75.7 | 251 | 22 |
| 2009-06-01T00:00 | 12548 | 189 | -62.7 | -75.7 | 251 | 22 |
| 2009-06-01T00:00 | 12557 | 189 | -62.8 | -75.7 | 252 | 22 |
| 2009-06-01T00:00 | 12566 | 188 | -62.8 | -75.7 | 252 | 22 |
| 2009-06-01T00:00 | 12575 | 188 | -62.8 | -75.7 | 252 | 22 |
| 2009-06-01T00:00 | 12585 | 188 | -62.9 | -75.7 | 253 | 22 |
| 2009-06-01T00:00 | 12594 | 187 | -62.9 | -75.7 | 253 | 22 |
| 2009-06-01T00:00 | 12604 | 187 | -62.9 | -75.7 | 253 | 22 |
| 2009-06-01T00:00 | 12613 | 187 | -62.9 | -75.7 | 254 | 22 |
| 2009-06-01T00:00 | 12622 | 187 | -62.9 | -75.7 | 254 | 22 |
| 2009-06-01T00:00 | 12631 | 186 | -62.9 | -75.7 | 254 | 22 |
| 2009-06-01T00:00 | 12639 | 186 | -62.9 | -75.7 | 254 | 21 |
| 2009-06-01T00:00 | 12648 | 186 | -63.0 | -75.8 | 254 | 21 |
| 2009-06-01T00:00 | 12656 | 186 | -63.1 | -75.9 | 254 | 21 |
| 2009-06-01T00:00 | 12664 | 185 | -63.1 | -75.9 | 254 | 21 |
| 2009-06-01T00:00 | 12672 | 185 | -63.0 | -75.8 | 254 | 21 |
| 2009-06-01T00:00 | 12681 | 185 | -62.9 | -75.7 | 253 | 21 |
| 2009-06-01T00:00 | 12689 | 185 | -62.9 | -75.7 | 253 | 20 |
| 2009-06-01T00:00 | 12698 | 184 | -62.9 | -75.7 | 253 | 20 |
| 2009-06-01T00:00 | 12707 | 184 | -62.9 | -75.7 | 252 | 20 |
| 2009-06-01T00:00 | 12716 | 184 | -62.9 | -75.7 | 251 | 20 |
| 2009-06-01T00:00 | 12725 | 183 | -62.9 | -75.7 | 251 | 20 |
| 2009-06-01T00:00 | 12733 | 183 | -62.9 | -75.7 | 250 | 20 |
| 2009-06-01T00:00 | 12742 | 183 | -62.9 | -75.7 | 249 | 19 |
| 2009-06-01T00:00 | 12751 | 183 | -62.9 | -75.7 | 249 | 19 |
| 2009-06-01T00:00 | 12760 | 182 | -62.8 | -75.7 | 248 | 19 |
| 2009-06-01T00:00 | 12770 | 182 | -62.7 | -75.6 | 247 | 19 |
| 2009-06-01T00:00 | 12780 | 182 | -62.7 | -75.6 | 246 | 19 |
| 2009-06-01T00:00 | 12789 | 182 | -62.6 | -75.6 | 245 | 19 |
| 2009-06-01T00:00 | 12798 | 181 | -62.6 | -75.5 | 244 | 19 |
| 2009-06-01T00:00 | 12807 | 181 | -62.7 | -75.6 | 243 | 19 |
| 2009-06-01T00:00 | 12816 | 181 | -62.7 | -75.7 | 242 | 19 |
| 2009-06-01T00:00 | 12826 | 180 | -62.8 | -75.7 | 241 | 19 |
| 2009-06-01T00:00 | 12836 | 180 | -62.7 | -75.7 | 240 | 19 |
| 2009-06-01T00:00 | 12847 | 180 | -62.8 | -75.8 | 239 | 19 |
| 2009-06-01T00:00 | 12858 | 180 | -62.8 | -75.9 | 239 | 19 |
| 2009-06-01T00:00 | 12869 | 179 | -62.8 | -75.9 | 238 | 20 |
| 2009-06-01T00:00 | 12880 | 179 | -62.9 | -75.9 | 237 | 20 |
| 2009-06-01T00:00 | 12891 | 179 | -63.0 | -76.0 | 237 | 20 |
| 2009-06-01T00:00 | 12903 | 178 | -63.1 | -76.2 | 236 | 20 |
| 2009-06-01T00:00 | 12914 | 178 | -63.1 | -76.3 | 235 | 20 |
| 2009-06-01T00:00 | 12926 | 178 | -63.2 | -76.3 | 235 | 21 |
| 2009-06-01T00:00 | 12938 | 177 | -63.2 | -76.4 | 234 | 21 |
| 2009-06-01T00:00 | 12949 | 177 | -63.3 | -76.5 | 233 | 21 |
| 2009-06-01T00:00 | 12958 | 177 | -63.3 | -76.5 | 233 | 21 |
| 2009-06-01T00:00 | 12968 | 176 | -63.3 | -76.5 | 232 | 21 |
| 2009-06-01T00:00 | 12979 | 176 | -63.4 | -76.6 | 232 | 22 |
| 2009-06-01T00:00 | 12988 | 176 | -63.4 | -76.6 | 231 | 22 |
| 2009-06-01T00:00 | 12997 | 175 | -63.5 | -76.7 | 231 | 22 |
| 2009-06-01T00:00 | 13006 | 175 | -63.5 | -76.7 | 230 | 22 |
| 2009-06-01T00:00 | 13016 | 175 | -63.6 | -76.8 | 230 | 22 |
| 2009-06-01T00:00 | 13025 | 175 | -63.6 | -76.8 | 229 | 23 |
| 2009-06-01T00:00 | 13035 | 174 | -63.6 | -76.8 | 229 | 23 |
| 2009-06-01T00:00 | 13045 | 174 | -63.7 | -76.9 | 229 | 23 |
| 2009-06-01T00:00 | 13054 | 174 | -63.7 | -76.9 | 228 | 23 |
| 2009-06-01T00:00 | 13062 | 174 | -63.8 | -77.0 | 228 | 23 |
| 2009-06-01T00:00 | 13071 | 173 | -63.9 | -77.1 | 228 | 23 |
| 2009-06-01T00:00 | 13080 | 173 | -63.9 | -77.1 | 228 | 24 |
| 2009-06-01T00:00 | 13088 | 173 | -63.9 | -77.1 | 228 | 24 |
| 2009-06-01T00:00 | 13097 | 173 | -64.0 | -77.2 | 228 | 24 |
| 2009-06-01T00:00 | 13105 | 172 | -64.0 | -77.2 | 228 | 24 |
| 2009-06-01T00:00 | 13114 | 172 | -64.1 | -77.3 | 228 | 25 |
| 2009-06-01T00:00 | 13123 | 172 | -64.1 | -77.3 | 228 | 25 |
| 2009-06-01T00:00 | 13132 | 172 | -64.1 | -77.3 | 228 | 25 |
| 2009-06-01T00:00 | 13141 | 171 | -64.2 | -77.3 | 228 | 25 |
| 2009-06-01T00:00 | 13149 | 171 | -64.2 | -77.3 | 228 | 26 |
| 2009-06-01T00:00 | 13158 | 171 | -64.2 | -77.3 | 228 | 26 |
| 2009-06-01T00:00 | 13167 | 171 | -64.3 | -77.4 | 228 | 26 |
| 2009-06-01T00:00 | 13177 | 170 | -64.3 | -77.4 | 228 | 26 |
| 2009-06-01T00:00 | 13186 | 170 | -64.3 | -77.4 | 228 | 26 |
| 2009-06-01T00:00 | 13195 | 170 | -64.3 | -77.4 | 228 | 27 |
| 2009-06-01T00:00 | 13203 | 170 | -64.3 | -77.3 | 228 | 27 |
| 2009-06-01T00:00 | 13212 | 169 | -64.3 | -77.3 | 228 | 27 |
| 2009-06-01T00:00 | 13221 | 169 | -64.3 | -77.3 | 228 | 27 |
| 2009-06-01T00:00 | 13230 | 169 | -64.3 | -77.3 | 228 | 27 |
| 2009-06-01T00:00 | 13239 | 169 | -64.3 | -77.3 | 228 | 27 |
| 2009-06-01T00:00 | 13249 | 168 | -64.4 | -77.4 | 228 | 27 |
| 2009-06-01T00:00 | 13258 | 168 | -64.5 | -77.4 | 229 | 27 |
| 2009-06-01T00:00 | 13267 | 168 | -64.6 | -77.5 | 229 | 27 |
| 2009-06-01T00:00 | 13277 | 168 | -64.6 | -77.5 | 229 | 27 |
| 2009-06-01T00:00 | 13286 | 167 | -64.7 | -77.6 | 229 | 27 |
| 2009-06-01T00:00 | 13295 | 167 | -64.8 | -77.6 | 230 | 27 |
| 2009-06-01T00:00 | 13304 | 167 | -64.8 | -77.6 | 230 | 27 |
| 2009-06-01T00:00 | 13314 | 167 | -64.9 | -77.7 | 231 | 27 |
| 2009-06-01T00:00 | 13323 | 166 | -65.0 | -77.8 | 231 | 27 |
| 2009-06-01T00:00 | 13333 | 166 | -65.1 | -77.8 | 232 | 27 |
| 2009-06-01T00:00 | 13343 | 166 | -65.2 | -77.9 | 232 | 27 |
| 2009-06-01T00:00 | 13352 | 166 | -65.2 | -77.9 | 232 | 27 |
| 2009-06-01T00:00 | 13361 | 165 | -65.2 | -77.8 | 233 | 27 |
| 2009-06-01T00:00 | 13370 | 165 | -65.3 | -77.9 | 233 | 27 |
| 2009-06-01T00:00 | 13378 | 165 | -65.3 | -77.9 | 234 | 27 |
| 2009-06-01T00:00 | 13387 | 165 | -65.4 | -77.9 | 234 | 27 |
| 2009-06-01T00:00 | 13396 | 164 | -65.5 | -77.9 | 234 | 26 |
| 2009-06-01T00:00 | 13405 | 164 | -65.5 | -78.0 | 235 | 26 |
| 2009-06-01T00:00 | 13414 | 164 | -65.6 | -78.0 | 235 | 26 |
| 2009-06-01T00:00 | 13423 | 164 | -65.6 | -78.0 | 235 | 26 |
| 2009-06-01T00:00 | 13432 | 163 | -65.6 | -77.9 | 236 | 26 |
| 2009-06-01T00:00 | 13441 | 163 | -65.6 | -77.9 | 236 | 26 |
| 2009-06-01T00:00 | 13450 | 163 | -65.5 | -77.8 | 236 | 25 |
| 2009-06-01T00:00 | 13458 | 163 | -65.5 | -77.7 | 236 | 25 |
| 2009-06-01T00:00 | 13467 | 163 | -65.5 | -77.7 | 236 | 25 |
| 2009-06-01T00:00 | 13476 | 162 | -65.4 | -77.6 | 237 | 25 |
| 2009-06-01T00:00 | 13485 | 162 | -65.3 | -77.5 | 237 | 25 |
| 2009-06-01T00:00 | 13493 | 162 | -65.3 | -77.5 | 237 | 25 |
| 2009-06-01T00:00 | 13501 | 162 | -65.4 | -77.5 | 238 | 25 |
| 2009-06-01T00:00 | 13510 | 161 | -65.4 | -77.5 | 238 | 25 |
| 2009-06-01T00:00 | 13518 | 161 | -65.5 | -77.6 | 239 | 25 |
| 2009-06-01T00:00 | 13527 | 161 | -65.6 | -77.6 | 239 | 25 |
| 2009-06-01T00:00 | 13535 | 161 | -65.6 | -77.6 | 239 | 25 |
| 2009-06-01T00:00 | 13544 | 160 | -65.7 | -77.6 | 240 | 24 |
| 2009-06-01T00:00 | 13552 | 160 | -65.7 | -77.6 | 240 | 24 |
| 2009-06-01T00:00 | 13561 | 160 | -65.7 | -77.6 | 241 | 24 |
| 2009-06-01T00:00 | 13570 | 160 | -65.8 | -77.6 | 241 | 24 |
| 2009-06-01T00:00 | 13579 | 160 | -65.8 | -77.6 | 242 | 24 |
| 2009-06-01T00:00 | 13587 | 159 | -65.8 | -77.6 | 242 | 24 |
| 2009-06-01T00:00 | 13595 | 159 | -65.8 | -77.6 | 242 | 24 |
| 2009-06-01T00:00 | 13604 | 159 | -65.8 | -77.6 | 243 | 24 |
| 2009-06-01T00:00 | 13612 | 159 | -65.8 | -77.6 | 243 | 24 |
| 2009-06-01T00:00 | 13621 | 158 | -65.8 | -77.5 | 243 | 24 |
| 2009-06-01T00:00 | 13629 | 158 | -65.8 | -77.5 | 243 | 24 |
| 2009-06-01T00:00 | 13638 | 158 | -65.8 | -77.5 | 244 | 24 |
| 2009-06-01T00:00 | 13646 | 158 | -65.7 | -77.5 | 244 | 24 |
| 2009-06-01T00:00 | 13654 | 158 | -65.7 | -77.4 | 244 | 24 |
| 2009-06-01T00:00 | 13662 | 157 | -65.6 | -77.3 | 245 | 24 |
| 2009-06-01T00:00 | 13671 | 157 | -65.6 | -77.3 | 245 | 24 |
| 2009-06-01T00:00 | 13680 | 157 | -65.6 | -77.3 | 246 | 24 |
| 2009-06-01T00:00 | 13689 | 157 | -65.6 | -77.2 | 246 | 24 |
| 2009-06-01T00:00 | 13698 | 156 | -65.6 | -77.2 | 247 | 23 |
| 2009-06-01T00:00 | 13706 | 156 | -65.5 | -77.2 | 248 | 23 |
| 2009-06-01T00:00 | 13715 | 156 | -65.5 | -77.1 | 248 | 23 |
| 2009-06-01T00:00 | 13724 | 156 | -65.4 | -77.1 | 249 | 23 |
| 2009-06-01T00:00 | 13732 | 156 | -65.3 | -77.0 | 250 | 23 |
| 2009-06-01T00:00 | 13740 | 155 | -65.2 | -77.0 | 251 | 23 |
| 2009-06-01T00:00 | 13748 | 155 | -65.1 | -77.0 | 251 | 23 |
| 2009-06-01T00:00 | 13757 | 155 | -64.9 | -76.9 | 252 | 22 |
| 2009-06-01T00:00 | 13765 | 155 | -64.7 | -76.9 | 253 | 22 |
| 2009-06-01T00:00 | 13774 | 155 | -64.5 | -76.7 | 253 | 22 |
| 2009-06-01T00:00 | 13782 | 154 | -64.4 | -76.7 | 254 | 22 |
| 2009-06-01T00:00 | 13790 | 154 | -64.3 | -76.8 | 254 | 22 |
| 2009-06-01T00:00 | 13799 | 154 | -64.3 | -76.9 | 255 | 21 |
| 2009-06-01T00:00 | 13808 | 154 | -64.3 | -77.0 | 255 | 21 |
| 2009-06-01T00:00 | 13815 | 153 | -64.3 | -77.1 | 255 | 21 |
| 2009-06-01T00:00 | 13823 | 153 | -64.3 | -77.2 | 255 | 20 |
| 2009-06-01T00:00 | 13831 | 153 | -64.3 | -77.4 | 255 | 20 |
| 2009-06-01T00:00 | 13840 | 153 | -64.4 | -77.5 | 255 | 20 |
| 2009-06-01T00:00 | 13850 | 153 | -64.3 | -77.7 | 255 | 20 |
| 2009-06-01T00:00 | 13859 | 152 | -64.3 | -77.8 | 255 | 19 |
| 2009-06-01T00:00 | 13868 | 152 | -64.3 | -77.9 | 255 | 19 |
| 2009-06-01T00:00 | 13877 | 152 | -64.3 | -78.0 | 255 | 19 |
| 2009-06-01T00:00 | 13885 | 152 | -64.3 | -78.2 | 255 | 18 |
| 2009-06-01T00:00 | 13894 | 152 | -64.3 | -78.3 | 255 | 18 |
| 2009-06-01T00:00 | 13902 | 151 | -64.3 | -78.4 | 255 | 18 |
| 2009-06-01T00:00 | 13911 | 151 | -64.3 | -78.6 | 254 | 18 |
| 2009-06-01T00:00 | 13919 | 151 | -64.3 | -78.7 | 254 | 17 |
| 2009-06-01T00:00 | 13928 | 151 | -64.3 | -78.9 | 254 | 17 |
| 2009-06-01T00:00 | 13937 | 150 | -64.4 | -79.0 | 253 | 17 |
| 2009-06-01T00:00 | 13946 | 150 | -64.4 | -79.2 | 253 | 17 |
| 2009-06-01T00:00 | 13954 | 150 | -64.4 | -79.3 | 252 | 17 |
| 2009-06-01T00:00 | 13963 | 150 | -64.4 | -79.5 | 252 | 16 |
| 2009-06-01T00:00 | 13973 | 150 | -64.4 | -79.6 | 251 | 16 |
| 2009-06-01T00:00 | 13981 | 149 | -64.4 | -79.7 | 250 | 16 |
| 2009-06-01T00:00 | 13990 | 149 | -64.3 | -79.8 | 249 | 16 |
| 2009-06-01T00:00 | 13999 | 149 | -64.3 | -79.9 | 248 | 16 |
| 2009-06-01T00:00 | 14008 | 149 | -64.3 | -80.0 | 247 | 16 |
| 2009-06-01T00:00 | 14018 | 148 | -64.3 | -80.2 | 246 | 15 |
| 2009-06-01T00:00 | 14026 | 148 | -64.3 | -80.3 | 245 | 15 |
| 2009-06-01T00:00 | 14035 | 148 | -64.2 | -80.4 | 244 | 15 |
| 2009-06-01T00:00 | 14044 | 148 | -64.1 | -80.5 | 243 | 15 |
| 2009-06-01T00:00 | 14053 | 148 | -64.0 | -80.5 | 241 | 15 |
| 2009-06-01T00:00 | 14062 | 147 | -63.9 | -80.6 | 240 | 16 |
| 2009-06-01T00:00 | 14070 | 147 | -63.8 | -80.7 | 239 | 16 |
| 2009-06-01T00:00 | 14078 | 147 | -63.7 | -80.7 | 238 | 16 |
| 2009-06-01T00:00 | 14087 | 147 | -63.6 | -80.8 | 237 | 16 |
| 2009-06-01T00:00 | 14095 | 147 | -63.5 | -80.9 | 236 | 16 |
| 2009-06-01T00:00 | 14104 | 146 | -63.3 | -81.0 | 235 | 17 |
| 2009-06-01T00:00 | 14112 | 146 | -63.2 | -81.1 | 235 | 17 |
| 2009-06-01T00:00 | 14121 | 146 | -63.1 | -81.2 | 234 | 17 |
| 2009-06-01T00:00 | 14129 | 146 | -63.0 | -81.3 | 234 | 17 |
| 2009-06-01T00:00 | 14137 | 146 | -62.9 | -81.5 | 234 | 18 |
| 2009-06-01T00:00 | 14146 | 145 | -62.8 | -81.7 | 233 | 18 |
| 2009-06-01T00:00 | 14156 | 145 | -62.8 | -81.8 | 233 | 18 |
| 2009-06-01T00:00 | 14164 | 145 | -62.7 | -82.0 | 233 | 19 |
| 2009-06-01T00:00 | 14172 | 145 | -62.7 | -82.2 | 233 | 19 |
| 2009-06-01T00:00 | 14181 | 145 | -62.5 | -82.3 | 233 | 19 |
| 2009-06-01T00:00 | 14189 | 144 | -62.3 | -82.4 | 233 | 19 |
| 2009-06-01T00:00 | 14197 | 144 | -62.2 | -82.5 | 233 | 20 |
| 2009-06-01T00:00 | 14205 | 144 | -62.1 | -82.7 | 233 | 20 |
| 2009-06-01T00:00 | 14213 | 144 | -62.0 | -82.8 | 233 | 20 |
| 2009-06-01T00:00 | 14221 | 144 | -61.8 | -82.9 | 232 | 21 |
| 2009-06-01T00:00 | 14230 | 143 | -61.7 | -83.1 | 232 | 21 |
| 2009-06-01T00:00 | 14239 | 143 | -61.5 | -83.2 | 232 | 21 |
| 2009-06-01T00:00 | 14248 | 143 | -61.5 | -83.4 | 232 | 21 |
| 2009-06-01T00:00 | 14257 | 143 | -61.4 | -83.5 | 231 | 21 |
| 2009-06-01T00:00 | 14265 | 143 | -61.4 | -83.7 | 231 | 22 |
| 2009-06-01T00:00 | 14275 | 142 | -61.3 | -83.9 | 231 | 22 |
| 2009-06-01T00:00 | 14284 | 142 | -61.3 | -84.1 | 231 | 22 |
| 2009-06-01T00:00 | 14293 | 142 | -61.2 | -84.3 | 231 | 22 |
| 2009-06-01T00:00 | 14302 | 142 | -61.2 | -84.5 | 231 | 22 |
| 2009-06-01T00:00 | 14310 | 142 | -61.0 | -84.6 | 231 | 22 |
| 2009-06-01T00:00 | 14319 | 141 | -61.0 | -84.8 | 231 | 23 |
| 2009-06-01T00:00 | 14327 | 141 | -61.0 | -85.0 | 231 | 23 |
| 2009-06-01T00:00 | 14336 | 141 | -60.9 | -85.2 | 231 | 23 |
| 2009-06-01T00:00 | 14346 | 141 | -60.8 | -85.4 | 231 | 23 |
| 2009-06-01T00:00 | 14355 | 141 | -60.7 | -85.5 | 231 | 23 |
| 2009-06-01T00:00 | 14364 | 140 | -60.7 | -85.7 | 231 | 23 |
| 2009-06-01T00:00 | 14373 | 140 | -60.6 | -85.8 | 231 | 23 |
| 2009-06-01T00:00 | 14382 | 140 | -60.5 | -86.0 | 231 | 23 |
| 2009-06-01T00:00 | 14392 | 140 | -60.4 | -86.2 | 231 | 23 |
| 2009-06-01T00:00 | 14401 | 140 | -60.4 | -86.3 | 232 | 23 |
| 2009-06-01T00:00 | 14410 | 139 | -60.4 | -86.5 | 232 | 23 |
| 2009-06-01T00:00 | 14418 | 139 | -60.3 | -86.6 | 232 | 23 |
| 2009-06-01T00:00 | 14427 | 139 | -60.3 | -86.8 | 233 | 23 |
| 2009-06-01T00:00 | 14437 | 139 | -60.2 | -87.0 | 233 | 23 |
| 2009-06-01T00:00 | 14446 | 139 | -60.2 | -87.1 | 233 | 23 |
| 2009-06-01T00:00 | 14456 | 138 | -60.2 | -87.3 | 234 | 23 |
| 2009-06-01T00:00 | 14465 | 138 | -60.2 | -87.5 | 234 | 23 |
| 2009-06-01T00:00 | 14474 | 138 | -60.2 | -87.7 | 234 | 22 |
| 2009-06-01T00:00 | 14483 | 138 | -60.1 | -87.8 | 235 | 22 |
| 2009-06-01T00:00 | 14491 | 138 | -60.1 | -88.0 | 235 | 22 |
| 2009-06-01T00:00 | 14500 | 137 | -60.1 | -88.1 | 235 | 22 |
| 2009-06-01T00:00 | 14509 | 137 | -60.1 | -88.3 | 235 | 22 |
| 2009-06-01T00:00 | 14519 | 137 | -60.0 | -88.5 | 235 | 22 |
| 2009-06-01T00:00 | 14529 | 137 | -59.9 | -88.6 | 235 | 22 |
| 2009-06-01T00:00 | 14538 | 136 | -59.7 | -88.7 | 235 | 22 |
| 2009-06-01T00:00 | 14547 | 136 | -59.5 | -88.8 | 235 | 22 |
| 2009-06-01T00:00 | 14555 | 136 | -59.4 | -88.9 | 235 | 22 |
| 2009-06-01T00:00 | 14564 | 136 | -59.3 | -89.1 | 234 | 22 |
| 2009-06-01T00:00 | 14573 | 136 | -59.2 | -89.2 | 234 | 22 |
| 2009-06-01T00:00 | 14582 | 136 | -59.2 | -89.3 | 234 | 22 |
| 2009-06-01T00:00 | 14592 | 135 | -59.1 | -89.4 | 234 | 23 |
| 2009-06-01T00:00 | 14601 | 135 | -59.1 | -89.5 | 233 | 23 |
| 2009-06-01T00:00 | 14610 | 135 | -59.2 | -89.7 | 233 | 23 |
| 2009-06-01T00:00 | 14620 | 135 | -59.2 | -89.8 | 233 | 23 |
| 2009-06-01T00:00 | 14628 | 135 | -59.3 | -90.0 | 233 | 23 |
| 2009-06-01T00:00 | 14637 | 134 | -59.3 | -90.2 | 233 | 23 |
| 2009-06-01T00:00 | 14646 | 134 | -59.4 | -90.3 | 233 | 24 |
| 2009-06-01T00:00 | 14655 | 134 | -59.5 | -90.5 | 233 | 24 |
| 2009-06-01T00:00 | 14663 | 134 | -59.5 | -90.5 | 233 | 24 |
| 2009-06-01T00:00 | 14672 | 134 | -59.5 | -90.5 | 233 | 24 |
| 2009-06-01T00:00 | 14682 | 133 | -59.6 | -90.5 | 233 | 24 |
| 2009-06-01T00:00 | 14691 | 133 | -59.6 | -90.5 | 233 | 24 |
| 2009-06-01T00:00 | 14700 | 133 | -59.6 | -90.6 | 233 | 24 |
| 2009-06-01T00:00 | 14709 | 133 | -59.7 | -90.6 | 234 | 24 |
| 2009-06-01T00:00 | 14719 | 133 | -59.7 | -90.7 | 234 | 25 |
| 2009-06-01T00:00 | 14728 | 132 | -59.8 | -90.7 | 234 | 25 |
| 2009-06-01T00:00 | 14736 | 132 | -59.9 | -90.8 | 234 | 25 |
| 2009-06-01T00:00 | 14745 | 132 | -60.0 | -90.8 | 234 | 25 |
| 2009-06-01T00:00 | 14754 | 132 | -60.0 | -90.9 | 234 | 25 |
| 2009-06-01T00:00 | 14762 | 132 | -60.1 | -90.9 | 234 | 25 |
| 2009-06-01T00:00 | 14771 | 132 | -60.2 | -91.0 | 234 | 25 |
| 2009-06-01T00:00 | 14780 | 131 | -60.2 | -91.0 | 235 | 25 |
| 2009-06-01T00:00 | 14788 | 131 | -60.2 | -91.0 | 235 | 25 |
| 2009-06-01T00:00 | 14796 | 131 | -60.3 | -91.0 | 235 | 25 |
| 2009-06-01T00:00 | 14805 | 131 | -60.3 | -91.1 | 235 | 25 |
| 2009-06-01T00:00 | 14814 | 131 | -60.4 | -91.1 | 235 | 25 |
| 2009-06-01T00:00 | 14823 | 130 | -60.4 | -91.1 | 235 | 25 |
| 2009-06-01T00:00 | 14832 | 130 | -60.5 | -91.2 | 235 | 25 |
| 2009-06-01T00:00 | 14841 | 130 | -60.5 | -91.2 | 235 | 25 |
| 2009-06-01T00:00 | 14849 | 130 | -60.5 | -91.2 | 235 | 25 |
| 2009-06-01T00:00 | 14858 | 130 | -60.4 | -91.2 | 235 | 25 |
| 2009-06-01T00:00 | 14865 | 130 | -60.4 | -91.1 | 235 | 25 |
| 2009-06-01T00:00 | 14874 | 129 | -60.5 | -91.2 | 236 | 25 |
| 2009-06-01T00:00 | 14882 | 129 | -60.5 | -91.2 | 236 | 25 |
| 2009-06-01T00:00 | 14890 | 129 | -60.4 | -91.1 | 236 | 25 |
| 2009-06-01T00:00 | 14898 | 129 | -60.3 | -91.1 | 236 | 25 |
| 2009-06-01T00:00 | 14907 | 129 | -60.3 | -91.1 | 236 | 25 |
| 2009-06-01T00:00 | 14915 | 128 | -60.4 | -91.1 | 236 | 25 |
| 2009-06-01T00:00 | 14923 | 128 | -60.4 | -91.1 | 237 | 25 |
| 2009-06-01T00:00 | 14931 | 128 | -60.4 | -91.1 | 237 | 25 |
| 2009-06-01T00:00 | 14940 | 128 | -60.4 | -91.2 | 237 | 25 |
| 2009-06-01T00:00 | 14949 | 128 | -60.5 | -91.2 | 237 | 26 |
| 2009-06-01T00:00 | 14957 | 128 | -60.5 | -91.2 | 237 | 26 |
| 2009-06-01T00:00 | 14965 | 127 | -60.5 | -91.2 | 237 | 26 |
| 2009-06-01T00:00 | 14974 | 127 | -60.5 | -91.2 | 237 | 26 |
| 2009-06-01T00:00 | 14983 | 127 | -60.5 | -91.2 | 237 | 26 |
| 2009-06-01T00:00 | 14991 | 127 | -60.5 | -91.2 | 237 | 26 |
| 2009-06-01T00:00 | 14999 | 127 | -60.5 | -91.2 | 237 | 26 |
| 2009-06-01T00:00 | 15008 | 127 | -60.5 | -91.2 | 236 | 26 |
| 2009-06-01T00:00 | 15016 | 126 | -60.5 | -91.2 | 236 | 26 |
| 2009-06-01T00:00 | 15024 | 126 | -60.4 | -91.1 | 236 | 26 |
| 2009-06-01T00:00 | 15033 | 126 | -60.4 | -91.1 | 236 | 26 |
| 2009-06-01T00:00 | 15041 | 126 | -60.4 | -91.1 | 236 | 26 |
| 2009-06-01T00:00 | 15050 | 126 | -60.4 | -91.1 | 236 | 26 |
| 2009-06-01T00:00 | 15059 | 126 | -60.4 | -91.1 | 236 | 26 |
| 2009-06-01T00:00 | 15067 | 125 | -60.4 | -91.1 | 236 | 26 |
| 2009-06-01T00:00 | 15075 | 125 | -60.4 | -91.1 | 236 | 26 |
| 2009-06-01T00:00 | 15083 | 125 | -60.4 | -91.1 | 236 | 26 |
| 2009-06-01T00:00 | 15092 | 125 | -60.4 | -91.1 | 236 | 26 |
| 2009-06-01T00:00 | 15100 | 125 | -60.5 | -91.2 | 236 | 26 |
| 2009-06-01T00:00 | 15109 | 125 | -60.5 | -91.2 | 236 | 26 |
| 2009-06-01T00:00 | 15117 | 124 | -60.5 | -91.2 | 236 | 26 |
| 2009-06-01T00:00 | 15126 | 124 | -60.6 | -91.2 | 236 | 26 |
| 2009-06-01T00:00 | 15134 | 124 | -60.6 | -91.2 | 236 | 26 |
| 2009-06-01T00:00 | 15143 | 124 | -60.6 | -91.3 | 236 | 26 |
| 2009-06-01T00:00 | 15151 | 124 | -60.6 | -91.3 | 236 | 26 |
| 2009-06-01T00:00 | 15160 | 124 | -60.5 | -91.2 | 236 | 26 |
| 2009-06-01T00:00 | 15169 | 123 | -60.5 | -91.2 | 236 | 26 |
| 2009-06-01T00:00 | 15178 | 123 | -60.5 | -91.2 | 236 | 26 |
| 2009-06-01T00:00 | 15187 | 123 | -60.5 | -91.2 | 236 | 26 |
| 2009-06-01T00:00 | 15196 | 123 | -60.5 | -91.2 | 236 | 26 |
| 2009-06-01T00:00 | 15204 | 123 | -60.5 | -91.2 | 236 | 26 |
| 2009-06-01T00:00 | 15213 | 123 | -60.6 | -91.2 | 235 | 27 |
| 2009-06-01T00:00 | 15222 | 122 | -60.6 | -91.3 | 235 | 27 |
| 2009-06-01T00:00 | 15231 | 122 | -60.7 | -91.3 | 235 | 27 |
| 2009-06-01T00:00 | 15239 | 122 | -60.7 | -91.3 | 235 | 27 |
| 2009-06-01T00:00 | 15247 | 122 | -60.7 | -91.3 | 236 | 27 |
| 2009-06-01T00:00 | 15255 | 122 | -60.7 | -91.3 | 236 | 28 |
| 2009-06-01T00:00 | 15264 | 122 | -60.7 | -91.3 | 236 | 28 |
| 2009-06-01T00:00 | 15272 | 121 | -60.7 | -91.4 | 236 | 28 |
| 2009-06-01T00:00 | 15280 | 121 | -60.8 | -91.4 | 236 | 28 |
| 2009-06-01T00:00 | 15289 | 121 | -60.8 | -91.4 | 236 | 28 |
| 2009-06-01T00:00 | 15298 | 121 | -60.9 | -91.5 | 236 | 28 |
| 2009-06-01T00:00 | 15306 | 121 | -61.0 | -91.5 | 236 | 28 |
| 2009-06-01T00:00 | 15315 | 121 | -61.0 | -91.6 | 237 | 28 |
| 2009-06-01T00:00 | 15324 | 120 | -61.1 | -91.6 | 237 | 28 |
| 2009-06-01T00:00 | 15333 | 120 | -61.0 | -91.6 | 237 | 28 |
| 2009-06-01T00:00 | 15341 | 120 | -60.9 | -91.5 | 237 | 27 |
| 2009-06-01T00:00 | 15351 | 120 | -60.9 | -91.4 | 238 | 27 |
| 2009-06-01T00:00 | 15360 | 120 | -60.8 | -91.4 | 238 | 27 |
| 2009-06-01T00:00 | 15369 | 119 | -60.8 | -91.4 | 239 | 27 |
| 2009-06-01T00:00 | 15378 | 119 | -60.7 | -91.3 | 239 | 27 |
| 2009-06-01T00:00 | 15388 | 119 | -60.7 | -91.3 | 239 | 27 |
| 2009-06-01T00:00 | 15396 | 119 | -60.6 | -91.3 | 240 | 27 |
| 2009-06-01T00:00 | 15405 | 119 | -60.6 | -91.2 | 240 | 27 |
| 2009-06-01T00:00 | 15413 | 119 | -60.5 | -91.2 | 241 | 27 |
| 2009-06-01T00:00 | 15423 | 118 | -60.4 | -91.1 | 241 | 27 |
| 2009-06-01T00:00 | 15431 | 118 | -60.3 | -91.1 | 242 | 27 |
| 2009-06-01T00:00 | 15439 | 118 | -60.3 | -91.0 | 242 | 27 |
| 2009-06-01T00:00 | 15448 | 118 | -60.3 | -91.0 | 242 | 27 |
| 2009-06-01T00:00 | 15457 | 118 | -60.3 | -91.0 | 242 | 27 |
| 2009-06-01T00:00 | 15466 | 118 | -60.3 | -91.1 | 243 | 27 |
| 2009-06-01T00:00 | 15475 | 117 | -60.4 | -91.1 | 243 | 27 |
| 2009-06-01T00:00 | 15485 | 117 | -60.4 | -91.1 | 243 | 27 |
| 2009-06-01T00:00 | 15494 | 117 | -60.4 | -91.1 | 243 | 27 |
| 2009-06-01T00:00 | 15503 | 117 | -60.3 | -91.1 | 243 | 27 |
| 2009-06-01T00:00 | 15511 | 117 | -60.3 | -91.0 | 243 | 27 |
| 2009-06-01T00:00 | 15520 | 117 | -60.2 | -91.0 | 244 | 27 |
| 2009-06-01T00:00 | 15528 | 116 | -60.2 | -91.0 | 244 | 26 |
| 2009-06-01T00:00 | 15537 | 116 | -60.1 | -90.9 | 244 | 26 |
| 2009-06-01T00:00 | 15546 | 116 | -60.0 | -90.8 | 244 | 26 |
| 2009-06-01T00:00 | 15555 | 116 | -59.9 | -90.7 | 244 | 26 |
| 2009-06-01T00:00 | 15564 | 116 | -59.8 | -90.7 | 244 | 26 |
| 2009-06-01T00:00 | 15573 | 116 | -59.6 | -90.6 | 245 | 26 |
| 2009-06-01T00:00 | 15582 | 115 | -59.5 | -90.5 | 245 | 26 |
| 2009-06-01T00:00 | 15591 | 115 | -59.3 | -90.4 | 245 | 26 |
| 2009-06-01T00:00 | 15601 | 115 | -59.1 | -90.2 | 245 | 26 |
| 2009-06-01T00:00 | 15611 | 115 | -59.1 | -90.2 | 245 | 26 |
| 2009-06-01T00:00 | 15619 | 115 | -59.1 | -90.2 | 245 | 26 |
| 2009-06-01T00:00 | 15628 | 115 | -59.2 | -90.3 | 245 | 26 |
| 2009-06-01T00:00 | 15638 | 114 | -59.3 | -90.3 | 245 | 26 |
| 2009-06-01T00:00 | 15647 | 114 | -59.4 | -90.4 | 245 | 26 |
| 2009-06-01T00:00 | 15657 | 114 | -59.4 | -90.4 | 245 | 26 |
| 2009-06-01T00:00 | 15666 | 114 | -59.5 | -90.5 | 245 | 26 |
| 2009-06-01T00:00 | 15675 | 114 | -59.6 | -90.5 | 245 | 26 |
| 2009-06-01T00:00 | 15684 | 114 | -59.6 | -90.6 | 245 | 26 |
| 2009-06-01T00:00 | 15693 | 113 | -59.7 | -90.6 | 245 | 26 |
| 2009-06-01T00:00 | 15702 | 113 | -59.7 | -90.6 | 245 | 26 |
| 2009-06-01T00:00 | 15712 | 113 | -59.7 | -90.6 | 245 | 26 |
| 2009-06-01T00:00 | 15721 | 113 | -59.7 | -90.6 | 245 | 26 |
| 2009-06-01T00:00 | 15730 | 113 | -59.7 | -90.6 | 245 | 26 |
| 2009-06-01T00:00 | 15739 | 113 | -59.7 | -90.6 | 244 | 25 |
| 2009-06-01T00:00 | 15749 | 112 | -59.8 | -90.7 | 244 | 25 |
| 2009-06-01T00:00 | 15758 | 112 | -59.9 | -90.7 | 244 | 25 |
| 2009-06-01T00:00 | 15767 | 112 | -60.0 | -90.8 | 244 | 24 |
| 2009-06-01T00:00 | 15776 | 112 | -60.0 | -90.8 | 243 | 24 |
| 2009-06-01T00:00 | 15786 | 112 | -60.1 | -90.9 | 243 | 24 |
| 2009-06-01T00:00 | 15795 | 112 | -60.1 | -90.9 | 243 | 23 |
| 2009-06-01T00:00 | 15803 | 111 | -59.9 | -90.8 | 242 | 23 |
| 2009-06-01T00:00 | 15812 | 111 | -59.6 | -90.6 | 242 | 23 |
| 2009-06-01T00:00 | 15822 | 111 | -59.3 | -90.3 | 242 | 22 |
| 2009-06-01T00:00 | 15831 | 111 | -59.1 | -90.2 | 241 | 22 |
| 2009-06-01T00:00 | 15840 | 111 | -59.1 | -90.2 | 241 | 22 |
| 2009-06-01T00:00 | 15850 | 111 | -59.1 | -90.2 | 241 | 22 |
| 2009-06-01T00:00 | 15859 | 110 | -59.1 | -90.2 | 241 | 22 |
| 2009-06-01T00:00 | 15868 | 110 | -59.0 | -90.1 | 242 | 21 |
| 2009-06-01T00:00 | 15877 | 110 | -58.9 | -90.1 | 242 | 21 |
| 2009-06-01T00:00 | 15887 | 110 | -58.7 | -89.9 | 242 | 21 |
| 2009-06-01T00:00 | 15896 | 110 | -58.3 | -89.6 | 243 | 22 |
| 2009-06-01T00:00 | 15906 | 110 | -58.0 | -89.4 | 243 | 22 |
| 2009-06-01T00:00 | 15915 | 109 | -57.9 | -89.4 | 244 | 22 |
| 2009-06-01T00:00 | 15924 | 109 | -58.0 | -89.4 | 244 | 22 |
| 2009-06-01T00:00 | 15933 | 109 | -58.0 | -89.4 | 245 | 22 |
| 2009-06-01T00:00 | 15943 | 109 | -58.1 | -89.5 | 245 | 22 |
| 2009-06-01T00:00 | 15952 | 109 | -58.1 | -89.5 | 246 | 23 |
| 2009-06-01T00:00 | 15961 | 109 | -58.2 | -89.5 | 246 | 23 |
| 2009-06-01T00:00 | 15970 | 109 | -58.2 | -89.6 | 246 | 23 |
| 2009-06-01T00:00 | 15979 | 108 | -58.3 | -89.6 | 246 | 23 |
| 2009-06-01T00:00 | 15988 | 108 | -58.4 | -89.7 | 246 | 23 |
| 2009-06-01T00:00 | 15997 | 108 | -58.4 | -89.7 | 246 | 23 |
| 2009-06-01T00:00 | 16006 | 108 | -58.4 | -89.7 | 246 | 23 |
| 2009-06-01T00:00 | 16016 | 108 | -58.3 | -89.6 | 246 | 23 |
| 2009-06-01T00:00 | 16025 | 108 | -58.2 | -89.5 | 246 | 23 |
| 2009-06-01T00:00 | 16035 | 107 | -58.0 | -89.4 | 246 | 23 |
| 2009-06-01T00:00 | 16045 | 107 | -58.0 | -89.4 | 245 | 23 |
| 2009-06-01T00:00 | 16054 | 107 | -58.0 | -89.4 | 245 | 23 |
| 2009-06-01T00:00 | 16063 | 107 | -58.0 | -89.4 | 245 | 23 |
| 2009-06-01T00:00 | 16072 | 107 | -57.9 | -89.4 | 244 | 23 |
| 2009-06-01T00:00 | 16081 | 107 | -57.9 | -89.3 | 244 | 22 |
| 2009-06-01T00:00 | 16091 | 106 | -57.8 | -89.3 | 243 | 22 |
| 2009-06-01T00:00 | 16101 | 106 | -57.8 | -89.3 | 243 | 22 |
| 2009-06-01T00:00 | 16111 | 106 | -57.8 | -89.3 | 243 | 22 |
| 2009-06-01T00:00 | 16120 | 106 | -57.8 | -89.3 | 242 | 22 |
| 2009-06-01T00:00 | 16129 | 106 | -57.8 | -89.3 | 242 | 22 |
| 2009-06-01T00:00 | 16139 | 106 | -57.8 | -89.3 | 241 | 22 |
| 2009-06-01T00:00 | 16148 | 105 | -57.9 | -89.3 | 241 | 22 |
| 2009-06-01T00:00 | 16157 | 105 | -57.9 | -89.3 | 241 | 22 |
| 2009-06-01T00:00 | 16166 | 105 | -57.9 | -89.4 | 241 | 22 |
| 2009-06-01T00:00 | 16175 | 105 | -58.0 | -89.4 | 240 | 21 |
| 2009-06-01T00:00 | 16184 | 105 | -58.1 | -89.5 | 240 | 21 |
| 2009-06-01T00:00 | 16193 | 105 | -58.2 | -89.5 | 240 | 21 |
| 2009-06-01T00:00 | 16203 | 105 | -58.3 | -89.6 | 240 | 21 |
| 2009-06-01T00:00 | 16211 | 104 | -58.3 | -89.6 | 240 | 21 |
| 2009-06-01T00:00 | 16219 | 104 | -58.4 | -89.7 | 240 | 21 |
| 2009-06-01T00:00 | 16228 | 104 | -58.4 | -89.7 | 239 | 21 |
| 2009-06-01T00:00 | 16237 | 104 | -58.5 | -89.7 | 239 | 21 |
| 2009-06-01T00:00 | 16246 | 104 | -58.5 | -89.8 | 239 | 21 |
| 2009-06-01T00:00 | 16255 | 104 | -58.5 | -89.8 | 239 | 21 |
| 2009-06-01T00:00 | 16264 | 104 | -58.6 | -89.8 | 239 | 21 |
| 2009-06-01T00:00 | 16273 | 103 | -58.6 | -89.8 | 239 | 21 |
| 2009-06-01T00:00 | 16282 | 103 | -58.7 | -89.9 | 239 | 21 |
| 2009-06-01T00:00 | 16291 | 103 | -58.8 | -89.9 | 238 | 22 |
| 2009-06-01T00:00 | 16301 | 103 | -58.8 | -90.0 | 238 | 22 |
| 2009-06-01T00:00 | 16309 | 103 | -58.9 | -90.0 | 238 | 22 |
| 2009-06-01T00:00 | 16318 | 103 | -59.0 | -90.1 | 238 | 22 |
| 2009-06-01T00:00 | 16327 | 103 | -59.1 | -90.2 | 238 | 22 |
| 2009-06-01T00:00 | 16336 | 102 | -59.1 | -90.2 | 238 | 22 |
| 2009-06-01T00:00 | 16345 | 102 | -59.2 | -90.3 | 238 | 22 |
| 2009-06-01T00:00 | 16354 | 102 | -59.3 | -90.3 | 238 | 22 |
| 2009-06-01T00:00 | 16362 | 102 | -59.4 | -90.4 | 238 | 22 |
| 2009-06-01T00:00 | 16371 | 102 | -59.5 | -90.5 | 238 | 21 |
| 2009-06-01T00:00 | 16380 | 102 | -59.5 | -90.5 | 238 | 21 |
| 2009-06-01T00:00 | 16389 | 102 | -59.6 | -90.6 | 238 | 21 |
| 2009-06-01T00:00 | 16398 | 101 | -59.7 | -90.6 | 238 | 21 |
| 2009-06-01T00:00 | 16407 | 101 | -59.8 | -90.7 | 237 | 21 |
| 2009-06-01T00:00 | 16416 | 101 | -59.9 | -90.7 | 237 | 21 |
| 2009-06-01T00:00 | 16425 | 101 | -60.0 | -90.8 | 237 | 21 |
| 2009-06-01T00:00 | 16433 | 101 | -60.0 | -90.8 | 237 | 21 |
| 2009-06-01T00:00 | 16442 | 101 | -60.1 | -90.9 | 237 | 21 |
| 2009-06-01T00:00 | 16452 | 101 | -60.2 | -90.9 | 237 | 21 |
| 2009-06-01T00:00 | 16461 | 100 | -60.2 | -91.0 | 237 | 20 |
| 2009-06-01T00:00 | 16470 | 100 | -60.3 | -91.0 | 237 | 20 |
| 2009-06-01T00:00 | 16479 | 100 | -60.4 | -91.1 | 236 | 20 |
| 2009-06-01T00:00 | 16488 | 100 | -60.4 | -91.1 | 236 | 20 |
| 2009-06-01T00:00 | 16498 | 100 | -60.5 | -91.2 | 236 | 20 |
| 2009-06-01T00:00 | 16506 | 100 | -60.6 | -91.2 | 236 | 20 |
| 2009-06-01T00:00 | 16515 | 99 | -60.6 | -91.3 | 236 | 20 |
| 2009-06-01T00:00 | 16524 | 99 | -60.7 | -91.4 | 235 | 20 |
| 2009-06-01T00:00 | 16532 | 99 | -60.8 | -91.4 | 235 | 20 |
| 2009-06-01T00:00 | 16541 | 99 | -60.8 | -91.4 | 235 | 20 |
| 2009-06-01T00:00 | 16549 | 99 | -60.9 | -91.5 | 235 | 20 |
| 2009-06-01T00:00 | 16559 | 99 | -61.0 | -91.5 | 235 | 20 |
| 2009-06-01T00:00 | 16567 | 99 | -61.0 | -91.6 | 235 | 20 |
| 2009-06-01T00:00 | 16576 | 99 | -61.1 | -91.6 | 235 | 20 |
| 2009-06-01T00:00 | 16585 | 98 | -61.1 | -91.6 | 235 | 20 |
| 2009-06-01T00:00 | 16594 | 98 | -61.2 | -91.7 | 235 | 20 |
| 2009-06-01T00:00 | 16604 | 98 | -61.3 | -91.8 | 235 | 20 |
| 2009-06-01T00:00 | 16612 | 98 | -61.4 | -91.8 | 235 | 20 |
| 2009-06-01T00:00 | 16621 | 98 | -61.5 | -91.9 | 236 | 20 |
| 2009-06-01T00:00 | 16630 | 98 | -61.6 | -91.9 | 236 | 20 |
| 2009-06-01T00:00 | 16639 | 98 | -61.6 | -92.0 | 236 | 20 |
| 2009-06-01T00:00 | 16648 | 97 | -61.6 | -92.0 | 236 | 20 |
| 2009-06-01T00:00 | 16657 | 97 | -61.7 | -92.0 | 236 | 20 |
| 2009-06-01T00:00 | 16665 | 97 | -61.8 | -92.1 | 236 | 20 |
| 2009-06-01T00:00 | 16673 | 97 | -61.8 | -92.1 | 236 | 20 |
| 2009-06-01T00:00 | 16682 | 97 | -61.9 | -92.2 | 237 | 20 |
| 2009-06-01T00:00 | 16691 | 97 | -62.0 | -92.3 | 237 | 20 |
| 2009-06-01T00:00 | 16700 | 97 | -62.1 | -92.3 | 237 | 20 |
| 2009-06-01T00:00 | 16709 | 96 | -62.2 | -92.4 | 237 | 20 |
| 2009-06-01T00:00 | 16718 | 96 | -62.3 | -92.5 | 238 | 20 |
| 2009-06-01T00:00 | 16728 | 96 | -62.4 | -92.5 | 238 | 20 |
| 2009-06-01T00:00 | 16737 | 96 | -62.4 | -92.6 | 238 | 20 |
| 2009-06-01T00:00 | 16746 | 96 | -62.5 | -92.6 | 238 | 20 |
| 2009-06-01T00:00 | 16755 | 96 | -62.5 | -92.6 | 239 | 20 |
| 2009-06-01T00:00 | 16764 | 96 | -62.6 | -92.7 | 239 | 20 |
| 2009-06-01T00:00 | 16774 | 95 | -62.7 | -92.7 | 239 | 19 |
| 2009-06-01T00:00 | 16783 | 95 | -62.7 | -92.8 | 239 | 19 |
| 2009-06-01T00:00 | 16792 | 95 | -62.8 | -92.8 | 240 | 19 |
| 2009-06-01T00:00 | 16802 | 95 | -62.8 | -92.8 | 240 | 19 |
| 2009-06-01T00:00 | 16811 | 95 | -62.9 | -92.9 | 240 | 19 |
| 2009-06-01T00:00 | 16820 | 95 | -62.9 | -92.9 | 240 | 19 |
| 2009-06-01T00:00 | 16829 | 95 | -62.9 | -92.9 | 240 | 19 |
| 2009-06-01T00:00 | 16837 | 94 | -63.0 | -93.0 | 240 | 19 |
| 2009-06-01T00:00 | 16847 | 94 | -63.1 | -93.0 | 240 | 19 |
| 2009-06-01T00:00 | 16856 | 94 | -63.2 | -93.1 | 240 | 18 |
| 2009-06-01T00:00 | 16865 | 94 | -63.2 | -93.2 | 240 | 18 |
| 2009-06-01T00:00 | 16874 | 94 | -63.3 | -93.2 | 240 | 18 |
| 2009-06-01T00:00 | 16882 | 94 | -63.4 | -93.3 | 240 | 18 |
| 2009-06-01T00:00 | 16892 | 94 | -63.5 | -93.3 | 240 | 18 |
| 2009-06-01T00:00 | 16902 | 93 | -63.6 | -93.4 | 240 | 18 |
| 2009-06-01T00:00 | 16912 | 93 | -63.6 | -93.4 | 240 | 18 |
| 2009-06-01T00:00 | 16921 | 93 | -63.7 | -93.5 | 240 | 18 |
| 2009-06-01T00:00 | 16929 | 93 | -63.7 | -93.5 | 241 | 18 |
| 2009-06-01T00:00 | 16938 | 93 | -63.8 | -93.5 | 241 | 18 |
| 2009-06-01T00:00 | 16948 | 93 | -63.8 | -93.6 | 241 | 18 |
| 2009-06-01T00:00 | 16958 | 93 | -63.9 | -93.6 | 242 | 18 |
| 2009-06-01T00:00 | 16967 | 92 | -64.0 | -93.7 | 242 | 18 |
| 2009-06-01T00:00 | 16977 | 92 | -64.1 | -93.8 | 243 | 18 |
| 2009-06-01T00:00 | 16986 | 92 | -64.2 | -93.8 | 243 | 18 |
| 2009-06-01T00:00 | 16995 | 92 | -64.2 | -93.9 | 243 | 18 |
| 2009-06-01T00:00 | 17005 | 92 | -64.3 | -93.9 | 244 | 18 |
| 2009-06-01T00:00 | 17014 | 92 | -64.4 | -94.0 | 244 | 18 |
| 2009-06-01T00:00 | 17023 | 92 | -64.4 | -94.0 | 244 | 18 |
| 2009-06-01T00:00 | 17032 | 91 | -64.5 | -94.1 | 244 | 18 |
| 2009-06-01T00:00 | 17041 | 91 | -64.6 | -94.1 | 244 | 18 |
| 2009-06-01T00:00 | 17050 | 91 | -64.6 | -94.1 | 244 | 18 |
| 2009-06-01T00:00 | 17060 | 91 | -64.7 | -94.2 | 243 | 17 |
| 2009-06-01T00:00 | 17069 | 91 | -64.7 | -94.2 | 243 | 17 |
| 2009-06-01T00:00 | 17078 | 91 | -64.8 | -94.3 | 243 | 17 |
| 2009-06-01T00:00 | 17088 | 91 | -64.9 | -94.4 | 242 | 17 |
| 2009-06-01T00:00 | 17098 | 91 | -65.0 | -94.4 | 242 | 17 |
| 2009-06-01T00:00 | 17107 | 90 | -65.1 | -94.5 | 242 | 17 |
| 2009-06-01T00:00 | 17116 | 90 | -65.2 | -94.5 | 241 | 17 |
| 2009-06-01T00:00 | 17126 | 90 | -65.3 | -94.6 | 241 | 17 |
| 2009-06-01T00:00 | 17136 | 90 | -65.4 | -94.7 | 240 | 17 |
| 2009-06-01T00:00 | 17146 | 90 | -65.4 | -94.7 | 240 | 17 |
| 2009-06-01T00:00 | 17155 | 90 | -65.5 | -94.8 | 239 | 17 |
| 2009-06-01T00:00 | 17166 | 89 | -65.6 | -94.9 | 239 | 17 |
| 2009-06-01T00:00 | 17175 | 89 | -65.7 | -94.9 | 238 | 17 |
| 2009-06-01T00:00 | 17184 | 89 | -65.8 | -95.0 | 238 | 17 |
| 2009-06-01T00:00 | 17193 | 89 | -65.9 | -95.0 | 238 | 17 |
| 2009-06-01T00:00 | 17203 | 89 | -65.9 | -95.1 | 237 | 16 |
| 2009-06-01T00:00 | 17211 | 89 | -66.0 | -95.2 | 237 | 16 |
| 2009-06-01T00:00 | 17221 | 89 | -66.1 | -95.2 | 236 | 16 |
| 2009-06-01T00:00 | 17230 | 89 | -66.2 | -95.3 | 236 | 16 |
| 2009-06-01T00:00 | 17239 | 88 | -66.3 | -95.3 | 236 | 16 |
| 2009-06-01T00:00 | 17249 | 88 | -66.2 | -95.3 | 235 | 16 |
| 2009-06-01T00:00 | 17258 | 88 | -66.3 | -95.3 | 235 | 16 |
| 2009-06-01T00:00 | 17267 | 88 | -66.3 | -95.4 | 234 | 16 |
| 2009-06-01T00:00 | 17276 | 88 | -66.4 | -95.4 | 234 | 16 |
| 2009-06-01T00:00 | 17285 | 88 | -66.4 | -95.5 | 233 | 16 |
| 2009-06-01T00:00 | 17295 | 88 | -66.5 | -95.5 | 233 | 15 |
| 2009-06-01T00:00 | 17304 | 87 | -66.6 | -95.6 | 232 | 15 |
| 2009-06-01T00:00 | 17314 | 87 | -66.7 | -95.6 | 232 | 15 |
| 2009-06-01T00:00 | 17323 | 87 | -66.7 | -95.7 | 231 | 15 |
| 2009-06-01T00:00 | 17333 | 87 | -66.7 | -95.7 | 231 | 15 |
| 2009-06-01T00:00 | 17343 | 87 | -66.8 | -95.7 | 230 | 15 |
| 2009-06-01T00:00 | 17353 | 87 | -66.9 | -95.8 | 230 | 15 |
| 2009-06-01T00:00 | 17362 | 87 | -66.9 | -95.8 | 229 | 15 |
| 2009-06-01T00:00 | 17372 | 87 | -67.0 | -95.9 | 229 | 15 |
| 2009-06-01T00:00 | 17380 | 86 | -67.1 | -95.9 | 228 | 15 |
| 2009-06-01T00:00 | 17390 | 86 | -67.2 | -96.0 | 228 | 15 |
| 2009-06-01T00:00 | 17400 | 86 | -67.3 | -96.0 | 227 | 15 |
| 2009-06-01T00:00 | 17409 | 86 | -67.3 | -96.1 | 227 | 15 |
| 2009-06-01T00:00 | 17418 | 86 | -67.4 | -96.2 | 226 | 15 |
| 2009-06-01T00:00 | 17427 | 86 | -67.5 | -96.2 | 226 | 15 |
| 2009-06-01T00:00 | 17436 | 86 | -67.6 | -96.3 | 225 | 14 |
| 2009-06-01T00:00 | 17446 | 85 | -67.7 | -96.4 | 225 | 14 |
| 2009-06-01T00:00 | 17455 | 85 | -67.7 | -96.4 | 225 | 14 |
| 2009-06-01T00:00 | 17464 | 85 | -67.8 | -96.4 | 224 | 14 |
| 2009-06-01T00:00 | 17473 | 85 | -67.8 | -96.4 | 224 | 14 |
| 2009-06-01T00:00 | 17482 | 85 | -67.9 | -96.5 | 224 | 14 |
| 2009-06-01T00:00 | 17491 | 85 | -68.0 | -96.6 | 223 | 14 |
| 2009-06-01T00:00 | 17500 | 85 | -68.0 | -96.6 | 223 | 13 |
| 2009-06-01T00:00 | 17509 | 85 | -68.0 | -96.6 | 222 | 13 |
| 2009-06-01T00:00 | 17519 | 84 | -68.0 | -96.6 | 222 | 13 |
| 2009-06-01T00:00 | 17527 | 84 | -68.1 | -96.6 | 221 | 13 |
| 2009-06-01T00:00 | 17536 | 84 | -68.0 | -96.6 | 221 | 13 |
| 2009-06-01T00:00 | 17546 | 84 | -68.0 | -96.5 | 220 | 13 |
| 2009-06-01T00:00 | 17554 | 84 | -68.0 | -96.5 | 219 | 13 |
| 2009-06-01T00:00 | 17563 | 84 | -68.0 | -96.5 | 219 | 13 |
| 2009-06-01T00:00 | 17572 | 84 | -68.1 | -96.5 | 218 | 13 |
| 2009-06-01T00:00 | 17582 | 84 | -68.2 | -96.5 | 218 | 13 |
| 2009-06-01T00:00 | 17591 | 83 | -68.2 | -96.5 | 217 | 13 |
| 2009-06-01T00:00 | 17600 | 83 | -68.2 | -96.5 | 217 | 13 |
| 2009-06-01T00:00 | 17609 | 83 | -68.1 | -96.5 | 217 | 14 |
| 2009-06-01T00:00 | 17617 | 83 | -68.1 | -96.4 | 216 | 14 |
| 2009-06-01T00:00 | 17627 | 83 | -68.1 | -96.4 | 216 | 14 |
| 2009-06-01T00:00 | 17636 | 83 | -68.1 | -96.3 | 216 | 14 |
| 2009-06-01T00:00 | 17645 | 83 | -68.1 | -96.3 | 216 | 14 |
| 2009-06-01T00:00 | 17654 | 83 | -68.1 | -96.3 | 215 | 15 |
| 2009-06-01T00:00 | 17664 | 82 | -68.0 | -96.3 | 215 | 15 |
| 2009-06-01T00:00 | 17674 | 82 | -68.0 | -96.2 | 215 | 15 |
| 2009-06-01T00:00 | 17683 | 82 | -68.1 | -96.2 | 215 | 15 |
| 2009-06-01T00:00 | 17693 | 82 | -68.1 | -96.2 | 215 | 15 |
| 2009-06-01T00:00 | 17702 | 82 | -68.2 | -96.2 | 215 | 15 |
| 2009-06-01T00:00 | 17711 | 82 | -68.3 | -96.2 | 215 | 15 |
| 2009-06-01T00:00 | 17721 | 82 | -68.4 | -96.2 | 216 | 15 |
| 2009-06-01T00:00 | 17730 | 81 | -68.5 | -96.2 | 216 | 16 |
| 2009-06-01T00:00 | 17740 | 81 | -68.4 | -96.2 | 216 | 16 |
| 2009-06-01T00:00 | 17749 | 81 | -68.4 | -96.3 | 217 | 16 |
| 2009-06-01T00:00 | 17759 | 81 | -68.5 | -96.2 | 217 | 16 |
| 2009-06-01T00:00 | 17769 | 81 | -68.5 | -96.2 | 218 | 16 |
| 2009-06-01T00:00 | 17778 | 81 | -68.5 | -96.2 | 219 | 16 |
| 2009-06-01T00:00 | 17787 | 81 | -68.5 | -96.2 | 219 | 16 |
| 2009-06-01T00:00 | 17796 | 81 | -68.5 | -96.2 | 220 | 16 |
| 2009-06-01T00:00 | 17806 | 80 | -68.5 | -96.2 | 220 | 16 |
| 2009-06-01T00:00 | 17815 | 80 | -68.5 | -96.2 | 221 | 16 |
| 2009-06-01T00:00 | 17824 | 80 | -68.5 | -96.1 | 222 | 15 |
| 2009-06-01T00:00 | 17833 | 80 | -68.5 | -96.1 | 222 | 15 |
| 2009-06-01T00:00 | 17841 | 80 | -68.5 | -96.1 | 223 | 15 |
| 2009-06-01T00:00 | 17849 | 80 | -68.5 | -96.0 | 224 | 15 |
| 2009-06-01T00:00 | 17859 | 80 | -68.6 | -96.0 | 225 | 15 |
| 2009-06-01T00:00 | 17869 | 80 | -68.6 | -96.0 | 225 | 15 |
| 2009-06-01T00:00 | 17879 | 80 | -68.6 | -96.0 | 226 | 14 |
| 2009-06-01T00:00 | 17889 | 79 | -68.4 | -96.0 | 227 | 14 |
| 2009-06-01T00:00 | 17899 | 79 | -68.2 | -96.0 | 228 | 14 |
| 2009-06-01T00:00 | 17909 | 79 | -68.2 | -95.9 | 228 | 14 |
| 2009-06-01T00:00 | 17918 | 79 | -68.2 | -95.9 | 229 | 13 |
| 2009-06-01T00:00 | 17928 | 79 | -68.3 | -96.0 | 230 | 13 |
| 2009-06-01T00:00 | 17938 | 79 | -68.3 | -95.9 | 231 | 13 |
| 2009-06-01T00:00 | 17947 | 79 | -68.2 | -95.8 | 232 | 12 |
| 2009-06-01T00:00 | 17956 | 78 | -68.2 | -95.8 | 233 | 12 |
| 2009-06-01T00:00 | 17964 | 78 | -68.1 | -95.9 | 234 | 12 |
| 2009-06-01T00:00 | 17974 | 78 | -68.1 | -95.9 | 235 | 11 |
| 2009-06-01T00:00 | 17983 | 78 | -68.1 | -95.9 | 236 | 11 |
| 2009-06-01T00:00 | 17992 | 78 | -68.0 | -95.8 | 237 | 11 |
| 2009-06-01T00:00 | 18002 | 78 | -68.1 | -95.7 | 238 | 10 |
| 2009-06-01T00:00 | 18011 | 78 | -68.1 | -95.7 | 239 | 10 |
| 2009-06-01T00:00 | 18019 | 78 | -68.2 | -95.7 | 241 | 10 |
| 2009-06-01T00:00 | 18028 | 78 | -68.2 | -95.7 | 242 | 10 |
| 2009-06-01T00:00 | 18038 | 77 | -68.2 | -95.8 | 243 | 9 |
| 2009-06-01T00:00 | 18049 | 77 | -68.2 | -95.8 | 244 | 9 |
| 2009-06-01T00:00 | 18059 | 77 | -68.2 | -95.8 | 245 | 9 |
| 2009-06-01T00:00 | 18069 | 77 | -68.2 | -95.7 | 247 | 8 |
Only the first 2000 rows were shown. To view the complete dataset, download it as tab-delimited text. You can still view the full matrix in your browser, but be aware that this may crash the browser due to the huge size.
